BAW65NE EGKK-NZAA

Flight info

Callsign BAW65NE
Flight time 21h 21m
Altitude 33000
Route FRANE M604 LARGA DCT OKMAM P850 DANKO M604 SVA M609 ULMUG M125 ELVOM DCT GEVRU DCT ASVOB DCT DIVEG Y71 BAVMO M130 GATRI/K0920F330 M130 ODIMA T567 BLAGO/K0924F350 T567 NRM L168 RUKOL/K0893F370 L168 ASMER/K0898F390 L168 IGROD/N0482F390 Y301 VIROP/N0482F380 Y307 VIKET/N0479F390 Y303 SASAP/N0483F380 Y10 DAIGO/N0482F390 Y108 INUBO Y820 DAGDA G223 TONIK B452 KERRY/N0483F410 B452 HN A597 DUGAN
Aircraft A359/H-SDE2E3GHIJ3J4J5LM1ORWXY/LB1D1

Departure

Time 2026-05-06 18:48
Airport London Gatwick Airport (EGKK)

Arrival

Time 2026-05-07 16:10
Airport Auckland International Airport (NZAA)
Time Latitude Longitude Altitude Speed Heading
2026-05-06 18:02 51.15823 -0.17630 211 ft 0 kts 347°
2026-05-06 18:31 51.15822 -0.17630 211 ft 1 kts 347°
2026-05-06 18:31 51.15805 -0.17624 213 ft 3 kts 347°
2026-05-06 18:32 51.15787 -0.17617 217 ft 3 kts 341°
2026-05-06 18:32 51.15781 -0.17617 218 ft 1 kts 298°
2026-05-06 18:32 51.15779 -0.17615 219 ft 0 kts 282°
2026-05-06 18:32 51.15775 -0.17588 223 ft 3 kts 295°
2026-05-06 18:33 51.15768 -0.17569 221 ft 0 kts 298°
2026-05-06 18:33 51.15762 -0.17546 221 ft 3 kts 269°
2026-05-06 18:33 51.15761 -0.17536 223 ft 0 kts 256°
2026-05-06 18:39 51.15757 -0.17559 219 ft 6 kts 255°
2026-05-06 18:39 51.15740 -0.17663 217 ft 14 kts 258°
2026-05-06 18:39 51.15717 -0.17843 218 ft 20 kts 258°
2026-05-06 18:40 51.15647 -0.18303 219 ft 17 kts 242°
2026-05-06 18:40 51.15551 -0.18337 217 ft 16 kts 171°
2026-05-06 18:40 51.15434 -0.18297 219 ft 19 kts 168°
2026-05-06 18:40 51.15298 -0.18249 221 ft 19 kts 167°
2026-05-06 18:41 51.15202 -0.18257 222 ft 13 kts 222°
2026-05-06 18:41 51.15179 -0.18389 217 ft 15 kts 258°
2026-05-06 18:41 51.15152 -0.18588 217 ft 21 kts 256°
2026-05-06 18:41 51.15112 -0.18840 218 ft 24 kts 257°
2026-05-06 18:42 51.15076 -0.19129 220 ft 29 kts 261°
2026-05-06 18:42 51.15039 -0.19401 218 ft 23 kts 257°
2026-05-06 18:42 51.15020 -0.19551 220 ft 12 kts 259°
2026-05-06 18:42 51.15000 -0.19714 220 ft 18 kts 259°
2026-05-06 18:43 51.14966 -0.19926 215 ft 23 kts 257°
2026-05-06 18:43 51.14926 -0.20215 214 ft 30 kts 257°
2026-05-06 18:43 51.14887 -0.20499 221 ft 22 kts 260°
2026-05-06 18:43 51.14859 -0.20714 214 ft 19 kts 256°
2026-05-06 18:44 51.14833 -0.20911 218 ft 18 kts 261°
2026-05-06 18:44 51.14805 -0.21100 220 ft 17 kts 253°
2026-05-06 18:44 51.14771 -0.21282 211 ft 17 kts 258°
2026-05-06 18:44 51.14706 -0.21397 220 ft 14 kts 179°
2026-05-06 18:45 51.14632 -0.21340 221 ft 12 kts 160°
2026-05-06 18:45 51.14623 -0.21336 222 ft 0 kts 163°
2026-05-06 18:46 51.14619 -0.21334 222 ft 4 kts 163°
2026-05-06 18:46 51.14550 -0.21277 221 ft 18 kts 139°
2026-05-06 18:46 51.14526 -0.21137 221 ft 0 kts 82°
2026-05-06 18:48 51.14548 -0.20956 219 ft 47 kts 78°
2026-05-06 18:48 51.14668 -0.20093 224 ft 112 kts 78°
2026-05-06 18:48 51.14880 -0.18559 217 ft 169 kts 77°
2026-05-06 18:48 51.15154 -0.16650 820 ft 174 kts 77°
2026-05-06 18:49 51.15408 -0.14778 1519 ft 178 kts 74°
2026-05-06 18:49 51.15678 -0.12801 1794 ft 189 kts 75°
2026-05-06 18:49 51.15971 -0.10685 2040 ft 202 kts 75°
2026-05-06 18:49 51.16282 -0.08432 2324 ft 213 kts 75°
2026-05-06 18:50 51.16610 -0.06037 2547 ft 230 kts 75°
2026-05-06 18:50 51.16881 -0.03451 2827 ft 245 kts 84°
2026-05-06 18:50 51.16883 -0.00882 3228 ft 252 kts 90°
2026-05-06 18:50 51.16820 0.01930 3723 ft 256 kts 90°
2026-05-06 18:51 51.16759 0.04792 4226 ft 262 kts 90°
2026-05-06 18:51 51.16702 0.07717 4731 ft 267 kts 91°
2026-05-06 18:51 51.16645 0.10676 5285 ft 268 kts 91°
2026-05-06 18:51 51.16587 0.13671 5866 ft 270 kts 91°
2026-05-06 18:52 51.16424 0.16650 6442 ft 272 kts 96°
2026-05-06 18:52 51.16481 0.19628 6911 ft 274 kts 75°
2026-05-06 18:52 51.17336 0.22307 7401 ft 274 kts 46°
2026-05-06 18:52 51.18819 0.24184 7922 ft 273 kts 28°
2026-05-06 18:53 51.20478 0.25671 8441 ft 275 kts 27°
2026-05-06 18:53 51.22179 0.27106 8968 ft 278 kts 26°
2026-05-06 18:53 51.23891 0.28555 9512 ft 280 kts 26°
2026-05-06 18:53 51.25621 0.30026 10048 ft 282 kts 26°
2026-05-06 18:54 51.27364 0.31506 10495 ft 285 kts 26°
2026-05-06 18:54 51.29077 0.32969 10958 ft 288 kts 26°
2026-05-06 18:54 51.30815 0.34457 11427 ft 290 kts 26°
2026-05-06 18:54 51.32571 0.35958 11778 ft 298 kts 26°
2026-05-06 18:55 51.34429 0.37552 12020 ft 309 kts 26°
2026-05-06 18:55 51.36357 0.39216 12284 ft 319 kts 26°
2026-05-06 18:55 51.38341 0.40936 12552 ft 330 kts 26°
2026-05-06 18:55 51.40385 0.42711 12803 ft 340 kts 26°
2026-05-06 18:56 51.42495 0.44545 13056 ft 349 kts 27°
2026-05-06 18:56 51.44659 0.46428 13298 ft 358 kts 27°
2026-05-06 18:56 51.46873 0.48355 13544 ft 367 kts 27°
2026-05-06 18:56 51.49138 0.50330 13805 ft 374 kts 27°
2026-05-06 18:57 51.51445 0.52343 14146 ft 378 kts 27°
2026-05-06 18:57 51.53727 0.54338 14493 ft 381 kts 27°
2026-05-06 18:57 51.56073 0.56390 14858 ft 384 kts 27°
2026-05-06 18:57 51.58428 0.58452 15244 ft 387 kts 27°
2026-05-06 18:58 51.60801 0.60532 15658 ft 390 kts 27°
2026-05-06 18:58 51.63185 0.62624 16053 ft 392 kts 27°
2026-05-06 18:58 51.65593 0.64739 16458 ft 395 kts 27°
2026-05-06 18:58 51.67976 0.66835 16840 ft 397 kts 27°
2026-05-06 18:59 51.70407 0.68975 17230 ft 400 kts 27°
2026-05-06 18:59 51.72862 0.71139 17640 ft 402 kts 27°
2026-05-06 18:59 51.75324 0.73313 18029 ft 405 kts 27°
2026-05-06 18:59 51.77803 0.75504 18398 ft 408 kts 27°
2026-05-06 19:00 51.80302 0.77722 18741 ft 411 kts 28°
2026-05-06 19:00 51.82668 0.80319 19086 ft 414 kts 36°
2026-05-06 19:00 51.84918 0.83268 19430 ft 417 kts 38°
2026-05-06 19:00 51.86378 0.85293 19653 ft 419 kts 39°
2026-05-06 19:01 51.89300 0.89505 20118 ft 422 kts 40°
2026-05-06 19:01 51.91480 0.92719 20455 ft 425 kts 41°
2026-05-06 19:01 51.93644 0.95923 20757 ft 429 kts 41°
2026-05-06 19:01 51.95864 0.99200 20914 ft 436 kts 40°
2026-05-06 19:02 51.98132 1.02535 21063 ft 443 kts 40°
2026-05-06 19:02 52.00431 1.05905 21238 ft 449 kts 40°
2026-05-06 19:02 52.02768 1.09313 21407 ft 455 kts 40°
2026-05-06 19:02 52.05190 1.12682 21591 ft 460 kts 36°
2026-05-06 19:03 52.07712 1.15881 21924 ft 462 kts 36°
2026-05-06 19:03 52.10280 1.19059 22223 ft 465 kts 35°
2026-05-06 19:03 52.12866 1.22223 22507 ft 467 kts 35°
2026-05-06 19:03 52.15399 1.25472 22801 ft 470 kts 37°
2026-05-06 19:04 52.17916 1.28884 23119 ft 473 kts 38°
2026-05-06 19:04 52.20433 1.32373 23427 ft 475 kts 39°
2026-05-06 19:04 52.22951 1.35874 23712 ft 478 kts 39°
2026-05-06 19:04 52.25494 1.39397 23980 ft 480 kts 38°
2026-05-06 19:05 52.28045 1.42912 24255 ft 481 kts 38°
2026-05-06 19:05 52.30607 1.46429 24571 ft 482 kts 38°
2026-05-06 19:05 52.33159 1.50025 24793 ft 486 kts 42°
2026-05-06 19:05 52.35592 1.53888 25005 ft 489 kts 43°
2026-05-06 19:06 52.37970 1.57795 25291 ft 491 kts 44°
2026-05-06 19:06 52.40359 1.61792 25547 ft 493 kts 44°
2026-05-06 19:06 52.42747 1.65823 25806 ft 495 kts 44°
2026-05-06 19:06 52.45148 1.69892 26059 ft 496 kts 44°
2026-05-06 19:07 52.47549 1.73964 26311 ft 498 kts 44°
2026-05-06 19:07 52.49146 1.76674 26488 ft 499 kts 44°
2026-05-06 19:07 52.52386 1.82171 26789 ft 502 kts 44°
2026-05-06 19:07 52.54815 1.86296 26998 ft 504 kts 44°
2026-05-06 19:08 52.57260 1.90452 27243 ft 506 kts 44°
2026-05-06 19:08 52.59706 1.94612 27457 ft 508 kts 44°
2026-05-06 19:08 52.62134 1.98751 27662 ft 509 kts 44°
2026-05-06 19:08 52.64535 2.02856 27874 ft 511 kts 45°
2026-05-06 19:09 52.67001 2.07077 28085 ft 513 kts 45°
2026-05-06 19:09 52.69481 2.11331 28285 ft 514 kts 45°
2026-05-06 19:09 52.71984 2.15539 28460 ft 515 kts 41°
2026-05-06 19:09 52.74541 2.19715 28580 ft 517 kts 41°
2026-05-06 19:10 52.77095 2.23902 28660 ft 520 kts 41°
2026-05-06 19:10 52.79645 2.28158 28789 ft 521 kts 42°
2026-05-06 19:10 52.82171 2.32449 28919 ft 522 kts 43°
2026-05-06 19:10 52.84686 2.36775 29045 ft 523 kts 43°
2026-05-06 19:11 52.87168 2.41081 29196 ft 523 kts 43°
2026-05-06 19:11 52.89668 2.45437 29364 ft 522 kts 43°
2026-05-06 19:11 52.92173 2.49809 29522 ft 522 kts 43°
2026-05-06 19:11 52.94671 2.54168 29675 ft 522 kts 43°
2026-05-06 19:12 52.97220 2.58407 29995 ft 517 kts 38°
2026-05-06 19:12 53.00058 2.62069 30121 ft 517 kts 29°
2026-05-06 19:12 53.03175 2.65056 29992 ft 520 kts 24°
2026-05-06 19:13 53.09618 2.70506 30247 ft 518 kts 22°
2026-05-06 19:13 53.12815 2.73120 30382 ft 518 kts 21°
2026-05-06 19:13 53.16043 2.75758 30505 ft 517 kts 21°
2026-05-06 19:13 53.19278 2.78413 30621 ft 517 kts 22°
2026-05-06 19:14 53.22497 2.81074 30752 ft 517 kts 22°
2026-05-06 19:14 53.27867 2.85481 30819 ft 519 kts 21°
2026-05-06 19:15 53.34350 2.90811 31010 ft 518 kts 21°
2026-05-06 19:15 53.38616 2.94387 31137 ft 518 kts 21°
2026-05-06 19:15 53.41828 2.97099 31218 ft 518 kts 21°
2026-05-06 19:16 53.48258 3.02543 31382 ft 517 kts 21°
2026-05-06 19:16 53.53601 3.07079 31526 ft 517 kts 21°
2026-05-06 19:17 53.60017 3.12541 31705 ft 516 kts 21°
2026-05-06 19:17 53.64229 3.16226 31908 ft 515 kts 27°
2026-05-06 19:17 53.66344 3.18206 32036 ft 515 kts 27°
2026-05-06 19:17 53.69485 3.21071 32192 ft 514 kts 24°
2026-05-06 19:18 53.72681 3.23616 32270 ft 515 kts 21°
2026-05-06 19:18 53.79295 3.28307 32499 ft 515 kts 20°
2026-05-06 19:18 53.82603 3.30589 32668 ft 514 kts 20°
2026-05-06 19:19 53.85907 3.32886 32818 ft 514 kts 20°
2026-05-06 19:19 53.89214 3.35216 32959 ft 514 kts 20°
2026-05-06 19:19 53.92508 3.37561 33025 ft 514 kts 20°
2026-05-06 19:20 53.99098 3.42301 33030 ft 515 kts 20°
2026-05-06 19:20 54.05698 3.47078 33028 ft 516 kts 20°
2026-05-06 19:21 54.12254 3.51839 33037 ft 516 kts 20°
2026-05-06 19:21 54.18853 3.56643 33034 ft 516 kts 20°
2026-05-06 19:22 54.25452 3.61464 33037 ft 516 kts 20°
2026-05-06 19:22 54.32054 3.66312 33038 ft 516 kts 21°
2026-05-06 19:23 54.38450 3.71793 33038 ft 518 kts 26°
2026-05-06 19:23 54.44792 3.77681 33051 ft 519 kts 26°
2026-05-06 19:24 54.51171 3.83513 33031 ft 520 kts 25°
2026-05-06 19:24 54.57593 3.89289 33047 ft 520 kts 25°
2026-05-06 19:25 54.63957 3.95000 33051 ft 520 kts 25°
2026-05-06 19:25 54.70382 4.00786 33043 ft 520 kts 25°
2026-05-06 19:26 54.76785 4.06579 33043 ft 520 kts 25°
2026-05-06 19:26 54.83206 4.12412 33031 ft 520 kts 25°
2026-05-06 19:27 54.89400 4.18734 33032 ft 522 kts 30°
2026-05-06 19:27 54.95499 4.25583 33044 ft 522 kts 31°
2026-05-06 19:28 55.01580 4.32518 33031 ft 521 kts 31°
2026-05-06 19:28 55.07636 4.39448 33018 ft 522 kts 31°
2026-05-06 19:29 55.13733 4.46436 33025 ft 524 kts 31°
2026-05-06 19:29 55.19775 4.53405 33045 ft 525 kts 31°
2026-05-06 19:30 55.25872 4.60457 33032 ft 524 kts 31°
2026-05-06 19:30 55.31963 4.67500 33036 ft 524 kts 31°
2026-05-06 19:31 55.38050 4.74569 33031 ft 524 kts 31°
2026-05-06 19:31 55.47165 4.85217 33036 ft 524 kts 31°
2026-05-06 19:32 55.53192 4.92293 33044 ft 524 kts 31°
2026-05-06 19:32 55.59254 4.99435 33045 ft 524 kts 31°
2026-05-06 19:33 55.65311 5.06599 33045 ft 524 kts 31°
2026-05-06 19:33 55.71362 5.13783 33049 ft 523 kts 31°
2026-05-06 19:34 55.77388 5.20964 33042 ft 522 kts 31°
2026-05-06 19:34 55.83416 5.28174 33045 ft 522 kts 32°
2026-05-06 19:35 55.89400 5.35359 33048 ft 522 kts 32°
2026-05-06 19:35 55.95419 5.42614 33048 ft 522 kts 32°
2026-05-06 19:36 56.01432 5.49889 33048 ft 522 kts 32°
2026-05-06 19:36 56.07439 5.57185 33048 ft 522 kts 32°
2026-05-06 19:37 56.13434 5.64494 33048 ft 522 kts 32°
2026-05-06 19:37 56.19443 5.71849 33040 ft 522 kts 32°
2026-05-06 19:38 56.25415 5.79184 33044 ft 526 kts 32°
2026-05-06 19:38 56.31455 5.86635 33043 ft 526 kts 32°
2026-05-06 19:39 56.37491 5.94110 33044 ft 526 kts 32°
2026-05-06 19:39 56.43521 6.01606 33073 ft 526 kts 32°
2026-05-06 19:40 56.49536 6.09114 33040 ft 525 kts 32°
2026-05-06 19:40 56.55543 6.16639 33039 ft 525 kts 32°
2026-05-06 19:41 56.61505 6.24137 33039 ft 525 kts 32°
2026-05-06 19:41 56.67501 6.31708 33036 ft 525 kts 32°
2026-05-06 19:42 56.73495 6.39308 33033 ft 525 kts 32°
2026-05-06 19:42 56.79487 6.46932 33034 ft 526 kts 32°
2026-05-06 19:43 56.85462 6.54566 33035 ft 528 kts 32°
2026-05-06 19:43 56.91654 6.61738 33025 ft 525 kts 25°
2026-05-06 19:44 56.98109 6.68011 33040 ft 525 kts 24°
2026-05-06 19:44 57.04549 6.74348 33018 ft 526 kts 27°
2026-05-06 19:45 57.10795 6.81211 33031 ft 527 kts 28°
2026-05-06 19:45 57.17063 6.88195 33012 ft 527 kts 28°
2026-05-06 19:46 57.23352 6.95122 33027 ft 526 kts 27°
2026-05-06 19:46 57.29650 7.02026 33017 ft 526 kts 27°
2026-05-06 19:47 57.35947 7.08949 33016 ft 526 kts 27°
2026-05-06 19:47 57.42197 7.15850 33011 ft 526 kts 27°
2026-05-06 19:48 57.48488 7.22828 33003 ft 527 kts 27°
2026-05-06 19:48 57.54806 7.29862 33001 ft 531 kts 27°
2026-05-06 19:49 57.61137 7.36944 32996 ft 531 kts 27°
2026-05-06 19:49 57.67463 7.44051 32996 ft 531 kts 28°
2026-05-06 19:50 57.73746 7.51137 32999 ft 531 kts 27°
2026-05-06 19:50 57.80076 7.58304 32975 ft 532 kts 27°
2026-05-06 19:51 57.86406 7.65502 32990 ft 532 kts 27°
2026-05-06 19:51 57.92733 7.72726 32988 ft 532 kts 27°
2026-05-06 19:52 57.99013 7.79928 32986 ft 532 kts 27°
2026-05-06 19:52 58.05108 7.86944 32973 ft 533 kts 27°
2026-05-06 19:53 58.11246 7.94876 32967 ft 536 kts 33°
2026-05-06 19:53 58.17194 8.03415 32950 ft 537 kts 34°
2026-05-06 19:54 58.23081 8.12017 32998 ft 539 kts 34°
2026-05-06 19:54 58.29025 8.20747 32965 ft 541 kts 34°
2026-05-06 19:55 58.34980 8.29492 32971 ft 541 kts 34°
2026-05-06 19:55 58.40942 8.38233 32979 ft 541 kts 34°
2026-05-06 19:56 58.46896 8.47021 32988 ft 541 kts 34°
2026-05-06 19:56 58.52796 8.55796 32978 ft 541 kts 34°
2026-05-06 19:57 58.58716 8.64696 32980 ft 541 kts 35°
2026-05-06 19:57 58.64624 8.73650 32979 ft 541 kts 35°
2026-05-06 19:58 58.70525 8.82578 32976 ft 541 kts 35°
2026-05-06 19:58 58.76405 8.91502 32975 ft 543 kts 35°
2026-05-06 19:59 58.82355 9.00581 32974 ft 545 kts 37°
2026-05-06 19:59 58.88248 9.09807 32975 ft 545 kts 33°
2026-05-06 20:00 58.94216 9.18684 32970 ft 545 kts 33°
2026-05-06 20:00 59.00195 9.27694 32996 ft 546 kts 33°
2026-05-06 20:01 59.06151 9.36875 32968 ft 547 kts 34°
2026-05-06 20:01 59.12093 9.46142 32970 ft 548 kts 34°
2026-05-06 20:02 59.17908 9.55752 32955 ft 551 kts 40°
2026-05-06 20:02 59.22678 9.67543 32949 ft 556 kts 50°
2026-05-06 20:03 59.26956 9.80080 32954 ft 560 kts 52°
2026-05-06 20:03 59.31112 9.92986 32948 ft 561 kts 53°
2026-05-06 20:04 59.35244 10.05931 32968 ft 560 kts 53°
2026-05-06 20:04 59.39368 10.18891 32944 ft 560 kts 53°
2026-05-06 20:05 59.43454 10.31772 32937 ft 560 kts 53°
2026-05-06 20:05 59.47438 10.44947 32991 ft 561 kts 60°
2026-05-06 20:06 59.51254 10.58353 32956 ft 561 kts 59°
2026-05-06 20:06 59.55219 10.71614 32956 ft 561 kts 58°
2026-05-06 20:07 59.59248 10.84691 32951 ft 561 kts 57°
2026-05-06 20:07 59.63308 10.97837 32944 ft 561 kts 57°
2026-05-06 20:08 59.67355 11.11044 32940 ft 561 kts 57°
2026-05-06 20:08 59.71595 11.24004 32939 ft 560 kts 53°
2026-05-06 20:09 59.76159 11.36537 32930 ft 561 kts 52°
2026-05-06 20:09 59.80674 11.49045 32924 ft 561 kts 53°
2026-05-06 20:10 59.85148 11.61759 32928 ft 561 kts 53°
2026-05-06 20:10 59.89585 11.74544 32924 ft 561 kts 54°
2026-05-06 20:11 59.94007 11.87368 32949 ft 562 kts 54°
2026-05-06 20:11 59.98394 12.00146 32884 ft 562 kts 54°
2026-05-06 20:12 60.02804 12.13054 32926 ft 562 kts 54°
2026-05-06 20:12 60.07201 12.25994 32925 ft 562 kts 54°
2026-05-06 20:13 60.11585 12.38968 32927 ft 562 kts 54°
2026-05-06 20:13 60.15928 12.51893 32931 ft 562 kts 55°
2026-05-06 20:14 60.20286 12.64937 32937 ft 563 kts 55°
2026-05-06 20:14 60.24636 12.78029 32937 ft 563 kts 55°
2026-05-06 20:15 60.28974 12.91160 32937 ft 563 kts 55°
2026-05-06 20:15 60.33300 13.04326 32937 ft 563 kts 55°
2026-05-06 20:16 60.37613 13.17529 32930 ft 563 kts 56°
2026-05-06 20:16 60.41886 13.30683 32931 ft 564 kts 56°
2026-05-06 20:17 60.46180 13.43978 32932 ft 564 kts 56°
2026-05-06 20:17 60.50463 13.57315 32934 ft 564 kts 56°
2026-05-06 20:18 60.54733 13.70686 32930 ft 564 kts 56°
2026-05-06 20:18 60.58956 13.83987 32935 ft 563 kts 56°
2026-05-06 20:19 60.63192 13.97405 32933 ft 564 kts 57°
2026-05-06 20:19 60.67421 14.10881 32935 ft 565 kts 57°
2026-05-06 20:20 60.71641 14.24408 32934 ft 565 kts 57°
2026-05-06 20:20 60.75826 14.37848 32935 ft 564 kts 56°
2026-05-06 20:21 60.80224 14.51152 32906 ft 564 kts 54°
2026-05-06 20:21 60.84672 14.64398 32920 ft 565 kts 54°
2026-05-06 20:22 60.89090 14.77755 32939 ft 566 kts 55°
2026-05-06 20:22 60.93472 14.91180 32939 ft 566 kts 55°
2026-05-06 20:23 60.97807 15.04566 32940 ft 566 kts 56°
2026-05-06 20:23 61.02159 15.18075 32942 ft 566 kts 56°
2026-05-06 20:24 61.06498 15.31616 32949 ft 566 kts 56°
2026-05-06 20:24 61.10798 15.45114 32948 ft 566 kts 56°
2026-05-06 20:25 61.15111 15.58734 32953 ft 565 kts 57°
2026-05-06 20:25 61.19405 15.72375 32952 ft 565 kts 57°
2026-05-06 20:26 61.23687 15.86055 32954 ft 565 kts 57°
2026-05-06 20:26 61.27925 15.99677 32955 ft 565 kts 57°
2026-05-06 20:27 61.32174 16.13417 32967 ft 566 kts 57°
2026-05-06 20:27 61.36427 16.27252 32967 ft 567 kts 57°
2026-05-06 20:28 61.40665 16.41121 32967 ft 567 kts 57°
2026-05-06 20:28 61.44884 16.55010 32972 ft 566 kts 58°
2026-05-06 20:29 61.49058 16.68835 32974 ft 566 kts 58°
2026-05-06 20:29 61.53249 16.82803 32973 ft 568 kts 58°
2026-05-06 20:30 61.59535 17.03914 32982 ft 569 kts 58°
2026-05-06 20:31 61.63711 17.18047 32978 ft 569 kts 58°
2026-05-06 20:31 61.67844 17.32120 32979 ft 569 kts 58°
2026-05-06 20:32 61.71996 17.46345 33040 ft 570 kts 59°
2026-05-06 20:32 61.76144 17.60646 32977 ft 573 kts 59°
2026-05-06 20:33 61.80270 17.74961 32983 ft 574 kts 59°
2026-05-06 20:33 61.84402 17.89391 32978 ft 573 kts 59°
2026-05-06 20:34 61.88537 18.03835 32986 ft 573 kts 58°
2026-05-06 20:34 61.92828 18.18098 32985 ft 574 kts 57°
2026-05-06 20:35 61.97151 18.32341 32981 ft 575 kts 57°
2026-05-06 20:35 62.01419 18.46607 32987 ft 576 kts 58°
2026-05-06 20:36 62.05686 18.61045 32988 ft 576 kts 58°
2026-05-06 20:36 62.09932 18.75526 32988 ft 576 kts 58°
2026-05-06 20:37 62.14164 18.90044 32991 ft 576 kts 58°
2026-05-06 20:37 62.18384 19.04609 32990 ft 576 kts 58°
2026-05-06 20:38 62.22562 19.19120 32988 ft 576 kts 58°
2026-05-06 20:38 62.26753 19.33771 32993 ft 577 kts 58°
2026-05-06 20:39 62.30939 19.48500 32993 ft 578 kts 58°
2026-05-06 20:39 62.35112 19.63277 32999 ft 578 kts 58°
2026-05-06 20:40 62.39239 19.77992 32993 ft 577 kts 58°
2026-05-06 20:40 62.43375 19.92832 32996 ft 577 kts 58°
2026-05-06 20:41 62.47503 20.07738 32993 ft 577 kts 58°
2026-05-06 20:41 62.51607 20.22658 32994 ft 577 kts 59°
2026-05-06 20:42 62.55671 20.37535 32990 ft 579 kts 59°
2026-05-06 20:42 62.59756 20.52586 32996 ft 579 kts 58°
2026-05-06 20:43 62.63823 20.67672 32996 ft 579 kts 59°
2026-05-06 20:43 62.67874 20.82798 32996 ft 579 kts 59°
2026-05-06 20:44 62.71882 20.97865 33001 ft 579 kts 59°
2026-05-06 20:44 62.75900 21.13076 33001 ft 579 kts 59°
2026-05-06 20:45 62.79895 21.28303 33000 ft 576 kts 59°
2026-05-06 20:45 62.83858 21.43512 33006 ft 577 kts 59°
2026-05-06 20:46 62.87799 21.58733 32994 ft 579 kts 59°
2026-05-06 20:46 62.91753 21.74113 32994 ft 579 kts 59°
2026-05-06 20:47 62.95552 21.89702 32994 ft 579 kts 62°
2026-05-06 20:47 62.99226 22.05463 32994 ft 579 kts 62°
2026-05-06 20:48 63.02901 22.21243 32994 ft 579 kts 62°
2026-05-06 20:48 63.06555 22.36903 32997 ft 579 kts 62°
2026-05-06 20:49 63.10230 22.52719 32999 ft 579 kts 62°
2026-05-06 20:49 63.13886 22.68576 33004 ft 579 kts 62°
2026-05-06 20:50 63.17519 22.84457 32999 ft 577 kts 62°
2026-05-06 20:50 63.21117 23.00306 32998 ft 575 kts 62°
2026-05-06 20:51 63.24671 23.16076 32994 ft 575 kts 62°
2026-05-06 20:51 63.28232 23.31990 32994 ft 575 kts 63°
2026-05-06 20:52 63.31774 23.47943 32988 ft 576 kts 63°
2026-05-06 20:52 63.35318 23.64023 33013 ft 578 kts 63°
2026-05-06 20:53 63.38830 23.80085 32990 ft 575 kts 63°
2026-05-06 20:53 63.42299 23.96066 32991 ft 575 kts 63°
2026-05-06 20:54 63.45768 24.12168 32993 ft 575 kts 63°
2026-05-06 20:54 63.49224 24.28335 32993 ft 575 kts 63°
2026-05-06 20:55 63.52662 24.44541 32995 ft 575 kts 64°
2026-05-06 20:55 63.56050 24.60637 32987 ft 574 kts 63°
2026-05-06 20:56 63.59445 24.76891 32991 ft 576 kts 64°
2026-05-06 20:56 63.62832 24.93233 32990 ft 576 kts 64°
2026-05-06 20:57 63.66195 25.09586 32991 ft 576 kts 64°
2026-05-06 20:57 63.69544 25.26003 32990 ft 576 kts 64°
2026-05-06 20:58 63.72851 25.42341 32989 ft 575 kts 64°
2026-05-06 20:58 63.76153 25.58788 32988 ft 574 kts 64°
2026-05-06 20:59 63.79433 25.75238 32990 ft 575 kts 64°
2026-05-06 20:59 63.82703 25.91771 32990 ft 576 kts 64°
2026-05-06 21:00 63.85955 26.08354 32988 ft 576 kts 65°
2026-05-06 21:00 63.89188 26.24975 32984 ft 575 kts 65°
2026-05-06 21:01 63.92389 26.41566 32983 ft 572 kts 65°
2026-05-06 21:01 63.96015 26.57580 32984 ft 567 kts 51°
2026-05-06 21:02 64.00712 26.72012 32982 ft 566 kts 49°
2026-05-06 21:02 64.05514 26.86131 33001 ft 566 kts 49°
2026-05-06 21:03 64.10358 27.00364 32989 ft 566 kts 49°
2026-05-06 21:03 64.15158 27.14612 32984 ft 564 kts 49°
2026-05-06 21:04 64.19930 27.28903 32972 ft 564 kts 49°
2026-05-06 21:04 64.24700 27.43292 32968 ft 564 kts 49°
2026-05-06 21:05 64.29434 27.57702 32965 ft 564 kts 50°
2026-05-06 21:05 64.34145 27.72128 32965 ft 562 kts 50°
2026-05-06 21:06 64.38826 27.86545 32967 ft 561 kts 50°
2026-05-06 21:06 64.43469 28.00931 32972 ft 561 kts 50°
2026-05-06 21:07 64.48123 28.15441 32984 ft 561 kts 50°
2026-05-06 21:07 64.52762 28.30000 32995 ft 560 kts 51°
2026-05-06 21:08 64.57352 28.44515 32966 ft 555 kts 51°
2026-05-06 21:08 64.61918 28.59035 32973 ft 557 kts 51°
2026-05-06 21:09 64.66499 28.73691 32969 ft 560 kts 51°
2026-05-06 21:09 64.71079 28.88454 32973 ft 560 kts 51°
2026-05-06 21:10 64.75606 29.03142 32963 ft 556 kts 51°
2026-05-06 21:10 64.80113 29.17863 32966 ft 554 kts 52°
2026-05-06 21:11 64.83842 29.30108 32967 ft 554 kts 52°
2026-05-06 21:11 64.88320 29.44902 32965 ft 554 kts 52°
2026-05-06 21:12 64.93503 29.62150 32966 ft 555 kts 52°
2026-05-06 21:12 64.97078 29.74852 32966 ft 556 kts 56°
2026-05-06 21:13 65.01759 29.93006 32963 ft 556 kts 57°
2026-05-06 21:13 65.05111 30.06043 32963 ft 556 kts 56°
2026-05-06 21:14 65.09168 30.21695 32963 ft 558 kts 56°
2026-05-06 21:14 65.13228 30.37356 33000 ft 561 kts 56°
2026-05-06 21:15 65.17277 30.53082 32958 ft 555 kts 56°
2026-05-06 21:15 65.21296 30.68812 32959 ft 555 kts 56°
2026-05-06 21:16 65.25297 30.84588 32961 ft 555 kts 57°
2026-05-06 21:16 65.29275 31.00389 32957 ft 555 kts 57°
2026-05-06 21:17 65.33218 31.16161 32971 ft 555 kts 57°
2026-05-06 21:17 65.37149 31.32003 32952 ft 552 kts 57°
2026-05-06 21:18 65.41053 31.47849 32956 ft 552 kts 57°
2026-05-06 21:18 65.44948 31.63766 32955 ft 552 kts 57°
2026-05-06 21:19 65.48819 31.79707 32950 ft 552 kts 57°
2026-05-06 21:19 65.52691 31.95763 32964 ft 554 kts 58°
2026-05-06 21:20 65.56534 32.11820 32958 ft 551 kts 58°
2026-05-06 21:20 65.60360 32.27750 32959 ft 551 kts 58°
2026-05-06 21:21 65.64209 32.43810 32956 ft 551 kts 58°
2026-05-06 21:21 65.68031 32.59901 32949 ft 551 kts 58°
2026-05-06 21:22 65.71832 32.76042 32958 ft 549 kts 58°
2026-05-06 21:22 65.75589 32.92129 32951 ft 546 kts 58°
2026-05-06 21:23 65.79316 33.08231 32952 ft 546 kts 59°
2026-05-06 21:23 65.83016 33.24429 32949 ft 546 kts 59°
2026-05-06 21:24 65.86695 33.40651 32942 ft 546 kts 59°
2026-05-06 21:24 65.90349 33.56865 32951 ft 548 kts 59°
2026-05-06 21:25 65.93984 33.73108 32947 ft 546 kts 59°
2026-05-06 21:25 65.97612 33.89460 32944 ft 546 kts 60°
2026-05-06 21:26 66.01123 34.05992 32944 ft 546 kts 61°
2026-05-06 21:26 66.04595 34.22639 32941 ft 546 kts 60°
2026-05-06 21:27 66.08169 34.39129 32940 ft 545 kts 60°
2026-05-06 21:27 66.11756 34.55571 32938 ft 543 kts 60°
2026-05-06 21:28 66.15303 34.72024 32938 ft 543 kts 60°
2026-05-06 21:28 66.18804 34.88454 32936 ft 543 kts 60°
2026-05-06 21:29 66.22308 35.05046 32935 ft 543 kts 61°
2026-05-06 21:29 66.25788 35.21655 32941 ft 542 kts 61°
2026-05-06 21:30 66.29254 35.38317 32936 ft 542 kts 61°
2026-05-06 21:30 66.32679 35.55011 32931 ft 542 kts 61°
2026-05-06 21:31 66.36065 35.71708 32931 ft 542 kts 62°
2026-05-06 21:31 66.39454 35.88532 32926 ft 542 kts 62°
2026-05-06 21:32 66.42826 36.05361 32935 ft 541 kts 62°
2026-05-06 21:32 66.47526 36.30979 32936 ft 541 kts 70°
2026-05-06 21:33 66.49874 36.48885 32933 ft 542 kts 71°
2026-05-06 21:33 66.52115 36.66937 32925 ft 542 kts 72°
2026-05-06 21:34 66.54314 36.84909 32928 ft 542 kts 72°
2026-05-06 21:34 66.56516 37.03022 32925 ft 541 kts 72°
2026-05-06 21:35 66.58694 37.21093 32928 ft 540 kts 72°
2026-05-06 21:35 66.60854 37.39213 32926 ft 540 kts 72°
2026-05-06 21:36 66.62979 37.57244 32920 ft 540 kts 72°
2026-05-06 21:36 66.65094 37.75401 32917 ft 540 kts 73°
2026-05-06 21:37 66.67192 37.93616 32923 ft 540 kts 73°
2026-05-06 21:37 66.69265 38.11833 32919 ft 540 kts 73°
2026-05-06 21:38 66.71316 38.30081 32903 ft 540 kts 73°
2026-05-06 21:38 66.73353 38.48418 32922 ft 541 kts 73°
2026-05-06 21:39 66.75372 38.66806 32916 ft 542 kts 73°
2026-05-06 21:39 66.77353 38.85076 32917 ft 542 kts 74°
2026-05-06 21:40 66.79328 39.03520 32914 ft 541 kts 74°
2026-05-06 21:40 66.81272 39.21908 32913 ft 539 kts 74°
2026-05-06 21:41 66.83196 39.40333 32916 ft 539 kts 74°
2026-05-06 21:41 66.85095 39.58753 32906 ft 539 kts 75°
2026-05-06 21:42 66.86975 39.77234 32913 ft 539 kts 75°
2026-05-06 21:42 66.88821 39.95613 32890 ft 541 kts 75°
2026-05-06 21:43 66.90662 40.14177 32903 ft 540 kts 75°
2026-05-06 21:43 66.92477 40.32723 32900 ft 539 kts 75°
2026-05-06 21:44 66.94271 40.51315 32904 ft 539 kts 75°
2026-05-06 21:44 66.96040 40.69901 32893 ft 539 kts 76°
2026-05-06 21:45 66.97788 40.88518 32885 ft 539 kts 76°
2026-05-06 21:45 66.99517 41.07192 32889 ft 539 kts 76°
2026-05-06 21:46 67.01220 41.25838 32892 ft 538 kts 76°
2026-05-06 21:46 67.02897 41.44482 32887 ft 539 kts 76°
2026-05-06 21:47 67.04560 41.63226 32883 ft 539 kts 76°
2026-05-06 21:47 67.06199 41.81979 32885 ft 539 kts 77°
2026-05-06 21:48 67.07808 42.00666 32873 ft 539 kts 77°
2026-05-06 21:48 67.09403 42.19466 32895 ft 539 kts 77°
2026-05-06 21:49 67.10972 42.38248 32870 ft 538 kts 77°
2026-05-06 21:49 67.12517 42.57025 32885 ft 537 kts 77°
2026-05-06 21:50 67.13283 42.66444 33033 ft 538 kts 77°
2026-05-06 21:50 67.14050 42.75861 33223 ft 537 kts 77°
2026-05-06 21:50 67.14818 42.85279 33347 ft 537 kts 77°
2026-05-06 21:50 67.15584 42.94715 33422 ft 539 kts 77°
2026-05-06 21:51 67.17092 43.13526 33650 ft 540 kts 78°
2026-05-06 21:51 67.17851 43.23117 33807 ft 540 kts 78°
2026-05-06 21:51 67.18585 43.32485 33960 ft 540 kts 78°
2026-05-06 21:52 67.19330 43.42071 34078 ft 539 kts 78°
2026-05-06 21:52 67.20052 43.51445 34184 ft 540 kts 78°
2026-05-06 21:52 67.21499 43.70471 34360 ft 540 kts 78°
2026-05-06 21:53 67.22214 43.79994 34462 ft 540 kts 78°
2026-05-06 21:53 67.22924 43.89525 34552 ft 540 kts 78°
2026-05-06 21:53 67.24325 44.08580 34726 ft 540 kts 79°
2026-05-06 21:54 67.25704 44.27669 34845 ft 541 kts 79°
2026-05-06 21:54 67.27063 44.46822 34828 ft 540 kts 79°
2026-05-06 21:55 67.28397 44.65968 34841 ft 542 kts 79°
2026-05-06 21:55 67.29711 44.85167 34841 ft 542 kts 79°
2026-05-06 21:56 67.31002 45.04388 34834 ft 542 kts 79°
2026-05-06 21:56 67.32270 45.23629 34831 ft 542 kts 80°
2026-05-06 21:57 67.33509 45.42798 34836 ft 542 kts 80°
2026-05-06 21:57 67.34730 45.62049 34825 ft 541 kts 80°
2026-05-06 21:58 67.35927 45.81326 34824 ft 540 kts 80°
2026-05-06 21:58 67.37099 46.00590 34816 ft 540 kts 81°
2026-05-06 21:59 67.38249 46.19885 34817 ft 541 kts 81°
2026-05-06 21:59 67.39379 46.39234 34806 ft 542 kts 81°
2026-05-06 22:00 67.40485 46.58601 34816 ft 541 kts 81°
2026-05-06 22:00 67.41566 46.77943 34805 ft 540 kts 81°
2026-05-06 22:01 67.42622 46.97289 34805 ft 540 kts 82°
2026-05-06 22:01 67.43655 47.16657 34797 ft 540 kts 82°
2026-05-06 22:02 67.44665 47.36040 34796 ft 540 kts 82°
2026-05-06 22:02 67.45648 47.55351 34799 ft 540 kts 82°
2026-05-06 22:03 67.46612 47.74765 34787 ft 540 kts 82°
2026-05-06 22:03 67.47554 47.94222 34789 ft 540 kts 83°
2026-05-06 22:04 67.48471 48.13665 34782 ft 540 kts 83°
2026-05-06 22:04 67.49366 48.33121 34774 ft 540 kts 83°
2026-05-06 22:05 67.50229 48.52496 34773 ft 540 kts 83°
2026-05-06 22:05 67.51073 48.71982 34775 ft 540 kts 83°
2026-05-06 22:06 67.51762 48.88300 34770 ft 540 kts 83°
2026-05-06 22:06 67.52561 49.07715 34767 ft 540 kts 84°
2026-05-06 22:07 67.53340 49.27239 34751 ft 540 kts 84°
2026-05-06 22:07 67.54099 49.46832 34768 ft 542 kts 84°
2026-05-06 22:08 67.54833 49.66471 34762 ft 542 kts 84°
2026-05-06 22:08 67.55544 49.86093 34760 ft 541 kts 85°
2026-05-06 22:09 67.56225 50.05570 34757 ft 541 kts 85°
2026-05-06 22:09 67.56888 50.25207 34749 ft 541 kts 85°
2026-05-06 22:10 67.57525 50.44821 34751 ft 541 kts 85°
2026-05-06 22:10 67.58140 50.64444 34752 ft 541 kts 85°
2026-05-06 22:11 67.58728 50.83978 34749 ft 541 kts 86°
2026-05-06 22:11 67.59298 51.03667 34744 ft 542 kts 86°
2026-05-06 22:12 67.59842 51.23370 34743 ft 542 kts 86°
2026-05-06 22:12 67.60363 51.43122 34744 ft 542 kts 86°
2026-05-06 22:13 67.60859 51.62846 34732 ft 542 kts 87°
2026-05-06 22:13 67.61333 51.82608 34733 ft 542 kts 87°
2026-05-06 22:14 67.61782 52.02346 34734 ft 542 kts 87°
2026-05-06 22:14 67.62206 52.21990 34722 ft 542 kts 88°
2026-05-06 22:15 67.62607 52.41741 34725 ft 542 kts 88°
2026-05-06 22:15 67.62984 52.61530 34720 ft 542 kts 88°
2026-05-06 22:16 67.63337 52.81294 34718 ft 542 kts 88°
2026-05-06 22:16 67.63667 53.01099 34716 ft 542 kts 88°
2026-05-06 22:17 67.64822 53.20525 34719 ft 542 kts 76°
2026-05-06 22:17 67.66709 53.39754 34716 ft 543 kts 75°
2026-05-06 22:18 67.68671 53.58923 34714 ft 543 kts 75°
2026-05-06 22:18 67.70597 53.78029 34713 ft 543 kts 75°
2026-05-06 22:19 67.72493 53.97266 34715 ft 543 kts 76°
2026-05-06 22:19 67.74363 54.16570 34719 ft 543 kts 76°
2026-05-06 22:20 67.76203 54.35842 34713 ft 542 kts 76°
2026-05-06 22:20 67.78026 54.55196 34717 ft 542 kts 76°
2026-05-06 22:21 67.79826 54.74579 34699 ft 542 kts 76°
2026-05-06 22:21 67.81595 54.93902 34711 ft 545 kts 77°
2026-05-06 22:22 67.83356 55.13420 34713 ft 545 kts 77°
2026-05-06 22:22 67.85093 55.32957 34713 ft 545 kts 77°
2026-05-06 22:23 67.86809 55.52545 34713 ft 545 kts 77°
2026-05-06 22:23 67.88496 55.72098 34713 ft 545 kts 77°
2026-05-06 22:24 67.90165 55.91744 34713 ft 545 kts 78°
2026-05-06 22:24 67.91808 56.11388 34712 ft 545 kts 78°
2026-05-06 22:25 67.93426 56.31052 34711 ft 545 kts 78°
2026-05-06 22:25 67.95013 56.50631 34708 ft 544 kts 78°
2026-05-06 22:26 67.96587 56.70378 34707 ft 545 kts 78°
2026-05-06 22:26 67.98135 56.90119 34706 ft 544 kts 79°
2026-05-06 22:27 67.99659 57.09891 34706 ft 544 kts 79°
2026-05-06 22:27 68.01163 57.29724 34702 ft 544 kts 79°
2026-05-06 22:28 68.02632 57.49445 34704 ft 545 kts 79°
2026-05-06 22:28 68.04090 57.69363 34698 ft 547 kts 80°
2026-05-06 22:29 68.05527 57.89333 34703 ft 547 kts 80°
2026-05-06 22:29 68.06941 58.09358 34688 ft 547 kts 80°
2026-05-06 22:30 68.08329 58.29370 34689 ft 547 kts 80°
2026-05-06 22:30 68.09694 58.49440 34691 ft 547 kts 81°
2026-05-06 22:31 68.11024 58.69360 34696 ft 547 kts 81°
2026-05-06 22:31 68.12340 58.89470 34692 ft 547 kts 81°
2026-05-06 22:32 68.13630 59.09570 34691 ft 547 kts 81°
2026-05-06 22:32 68.14898 59.29727 34681 ft 547 kts 81°
2026-05-06 22:33 68.16174 59.49725 34684 ft 547 kts 81°
2026-05-06 22:33 68.17480 59.69853 34684 ft 547 kts 81°
2026-05-06 22:34 68.18758 59.90005 34682 ft 547 kts 81°
2026-05-06 22:34 68.20002 60.10175 34639 ft 547 kts 82°
2026-05-06 22:35 68.21223 60.30444 34673 ft 549 kts 82°
2026-05-06 22:35 68.22421 60.50782 34674 ft 550 kts 82°
2026-05-06 22:36 68.23597 60.71170 34675 ft 550 kts 82°
2026-05-06 22:36 68.24746 60.91545 34672 ft 550 kts 83°
2026-05-06 22:37 68.25869 61.11933 34672 ft 550 kts 83°
2026-05-06 22:37 68.26969 61.32360 34666 ft 550 kts 83°
2026-05-06 22:38 68.28037 61.52679 34667 ft 550 kts 83°
2026-05-06 22:38 68.29086 61.73150 34662 ft 550 kts 83°
2026-05-06 22:39 68.30110 61.93639 34663 ft 550 kts 84°
2026-05-06 22:39 68.31110 62.14148 34664 ft 551 kts 84°
2026-05-06 22:40 68.32085 62.34699 34662 ft 551 kts 84°
2026-05-06 22:40 68.33035 62.55264 34658 ft 551 kts 84°
2026-05-06 22:41 68.34412 62.86124 34623 ft 551 kts 84°
2026-05-06 22:42 68.35302 63.06786 34656 ft 553 kts 85°
2026-05-06 22:42 68.36166 63.27514 34660 ft 554 kts 85°
2026-05-06 22:43 68.37004 63.48216 34659 ft 554 kts 85°
2026-05-06 22:43 68.37819 63.68996 34654 ft 554 kts 85°
2026-05-06 22:44 68.38608 63.89785 34652 ft 554 kts 86°
2026-05-06 22:44 68.39370 64.10594 34655 ft 554 kts 86°
2026-05-06 22:45 68.40109 64.31470 34651 ft 555 kts 86°
2026-05-06 22:45 68.40817 64.52201 34654 ft 555 kts 86°
2026-05-06 22:46 68.41504 64.73083 34648 ft 555 kts 86°
2026-05-06 22:46 68.42165 64.93982 34645 ft 555 kts 87°
2026-05-06 22:47 68.42799 65.14891 34647 ft 555 kts 87°
2026-05-06 22:47 68.43409 65.35882 34652 ft 557 kts 87°
2026-05-06 22:48 68.43989 65.56735 34646 ft 557 kts 87°
2026-05-06 22:48 68.44548 65.77772 34635 ft 557 kts 88°
2026-05-06 22:49 68.45081 65.98871 34639 ft 560 kts 88°
2026-05-06 22:49 68.45588 66.20004 34638 ft 561 kts 88°
2026-05-06 22:50 68.46071 66.41260 34634 ft 562 kts 88°
2026-05-06 22:50 68.46528 66.62515 34631 ft 563 kts 88°
2026-05-06 22:51 68.46961 66.83814 34627 ft 563 kts 88°
2026-05-06 22:51 68.47385 67.05085 34624 ft 562 kts 88°
2026-05-06 22:52 68.47783 67.26216 34625 ft 562 kts 88°
2026-05-06 22:52 68.48155 67.47502 34620 ft 562 kts 89°
2026-05-06 22:53 68.48498 67.68792 34617 ft 563 kts 89°
2026-05-06 22:53 68.48815 67.90083 34612 ft 562 kts 89°
2026-05-06 22:54 68.49093 68.11380 34620 ft 562 kts 89°
2026-05-06 22:54 68.49336 68.32715 34614 ft 562 kts 89°
2026-05-06 22:55 68.49555 68.54056 34569 ft 562 kts 90°
2026-05-06 22:55 68.49748 68.75273 34614 ft 564 kts 90°
2026-05-06 22:56 68.49915 68.96605 34612 ft 564 kts 90°
2026-05-06 22:56 68.50055 69.18012 34606 ft 564 kts 90°
2026-05-06 22:57 68.50168 69.39415 34607 ft 564 kts 90°
2026-05-06 22:57 68.50254 69.60789 34605 ft 564 kts 91°
2026-05-06 22:58 68.50313 69.82163 34606 ft 564 kts 91°
2026-05-06 22:58 68.50344 70.03533 34605 ft 564 kts 91°
2026-05-06 22:59 68.50349 70.24796 34597 ft 563 kts 91°
2026-05-06 22:59 68.50326 70.46155 34601 ft 563 kts 91°
2026-05-06 23:00 68.50275 70.67541 34592 ft 563 kts 92°
2026-05-06 23:00 68.50213 70.85266 34594 ft 563 kts 92°
2026-05-06 23:01 68.50114 71.06644 34589 ft 563 kts 92°
2026-05-06 23:01 68.49987 71.27981 34590 ft 563 kts 92°
2026-05-06 23:02 68.49821 71.49200 34572 ft 563 kts 93°
2026-05-06 23:02 68.49624 71.70612 34584 ft 566 kts 93°
2026-05-06 23:03 68.49403 71.92074 34576 ft 567 kts 93°
2026-05-06 23:03 68.49155 72.13561 34573 ft 566 kts 93°
2026-05-06 23:04 68.48881 72.35001 34566 ft 566 kts 93°
2026-05-06 23:04 68.48578 72.56428 34565 ft 566 kts 94°
2026-05-06 23:05 68.48249 72.77854 34556 ft 566 kts 94°
2026-05-06 23:05 68.47893 72.99236 34559 ft 566 kts 94°
2026-05-06 23:06 68.47511 73.20535 34551 ft 566 kts 94°
2026-05-06 23:06 68.47099 73.41930 34554 ft 565 kts 94°
2026-05-06 23:07 68.46660 73.63302 34541 ft 565 kts 95°
2026-05-06 23:07 68.45930 73.84609 34549 ft 564 kts 98°
2026-05-06 23:08 68.45009 74.05705 34540 ft 564 kts 98°
2026-05-06 23:08 68.44091 74.26939 34543 ft 565 kts 98°
2026-05-06 23:09 68.43186 74.48211 34525 ft 567 kts 98°
2026-05-06 23:09 68.42269 74.69479 34531 ft 567 kts 98°
2026-05-06 23:10 68.41322 74.90753 34526 ft 566 kts 98°
2026-05-06 23:10 68.40349 75.11972 34526 ft 566 kts 99°
2026-05-06 23:11 68.39352 75.33063 34514 ft 566 kts 99°
2026-05-06 23:11 68.38323 75.54232 34515 ft 566 kts 99°
2026-05-06 23:12 68.37268 75.75401 34516 ft 566 kts 99°
2026-05-06 23:12 68.36189 75.96478 34511 ft 566 kts 99°
2026-05-06 23:13 68.35082 76.17573 34520 ft 566 kts 99°
2026-05-06 23:13 68.33954 76.38538 34506 ft 565 kts 100°
2026-05-06 23:14 68.32792 76.59618 34505 ft 565 kts 100°
2026-05-06 23:14 68.31606 76.80645 34500 ft 567 kts 100°
2026-05-06 23:15 68.30389 77.01717 34506 ft 568 kts 101°
2026-05-06 23:15 68.29151 77.22667 34505 ft 567 kts 101°
2026-05-06 23:16 68.27881 77.43694 34500 ft 567 kts 101°
2026-05-06 23:16 68.26585 77.64688 34503 ft 567 kts 101°
2026-05-06 23:17 68.25264 77.85642 34498 ft 567 kts 101°
2026-05-06 23:17 68.23917 78.06565 34494 ft 566 kts 102°
2026-05-06 23:18 68.22543 78.27466 34492 ft 566 kts 102°
2026-05-06 23:18 68.21144 78.48335 34492 ft 566 kts 102°
2026-05-06 23:19 68.19719 78.69163 34499 ft 566 kts 102°
2026-05-06 23:19 68.18278 78.89845 34492 ft 565 kts 102°
2026-05-06 23:20 68.16794 79.10600 34492 ft 565 kts 102°
2026-05-06 23:20 68.15280 79.31319 34490 ft 565 kts 103°
2026-05-06 23:21 68.13742 79.52015 34479 ft 565 kts 103°
2026-05-06 23:21 68.12180 79.72680 34489 ft 565 kts 103°
2026-05-06 23:22 68.10591 79.93346 34486 ft 565 kts 103°
2026-05-06 23:22 68.08980 80.13918 34491 ft 565 kts 103°
2026-05-06 23:23 68.07351 80.34385 34490 ft 565 kts 104°
2026-05-06 23:23 68.05688 80.54920 34479 ft 565 kts 104°
2026-05-06 23:24 68.04001 80.75401 34487 ft 564 kts 104°
2026-05-06 23:24 68.02290 80.95852 34481 ft 564 kts 104°
2026-05-06 23:25 68.00538 81.16299 34480 ft 564 kts 105°
2026-05-06 23:25 67.98757 81.36677 34476 ft 564 kts 105°
2026-05-06 23:26 67.96953 81.57021 34475 ft 564 kts 105°
2026-05-06 23:26 67.95136 81.77227 34480 ft 563 kts 105°
2026-05-06 23:27 67.93291 81.97450 34482 ft 563 kts 105°
2026-05-06 23:27 67.91418 82.17667 34478 ft 563 kts 105°
2026-05-06 23:28 67.89520 82.37846 34477 ft 563 kts 106°
2026-05-06 23:28 67.87598 82.57986 34479 ft 562 kts 106°
2026-05-06 23:29 67.85659 82.78025 34493 ft 560 kts 106°
2026-05-06 23:29 67.83693 82.98042 34477 ft 560 kts 106°
2026-05-06 23:30 67.81706 83.17995 34480 ft 560 kts 107°
2026-05-06 23:30 67.79706 83.37815 34492 ft 560 kts 107°
2026-05-06 23:31 67.77673 83.57683 34485 ft 559 kts 107°
2026-05-06 23:31 67.75621 83.77461 34482 ft 558 kts 107°
2026-05-06 23:32 67.73548 83.97180 34488 ft 557 kts 108°
2026-05-06 23:32 67.71454 84.16842 34492 ft 557 kts 108°
2026-05-06 23:33 67.69336 84.36467 34505 ft 557 kts 108°
2026-05-06 23:33 67.67197 84.56040 34500 ft 556 kts 109°
2026-05-06 23:34 67.65039 84.75535 34501 ft 555 kts 109°
2026-05-06 23:34 67.62859 84.94977 34504 ft 555 kts 109°
2026-05-06 23:35 67.60656 85.14387 34504 ft 555 kts 109°
2026-05-06 23:35 67.58442 85.33657 34515 ft 555 kts 109°
2026-05-06 23:36 67.56193 85.52997 34515 ft 556 kts 109°
2026-05-06 23:36 67.53953 85.72354 34508 ft 556 kts 109°
2026-05-06 23:37 67.51698 85.91715 34505 ft 556 kts 110°
2026-05-06 23:37 67.49421 86.11002 34470 ft 556 kts 110°
2026-05-06 23:38 67.47114 86.30284 34515 ft 556 kts 110°
2026-05-06 23:38 67.44800 86.49397 34520 ft 557 kts 110°
2026-05-06 23:39 67.42452 86.68633 34520 ft 558 kts 109°
2026-05-06 23:39 67.40415 86.88129 34524 ft 559 kts 106°
2026-05-06 23:40 67.38511 87.07719 34545 ft 559 kts 106°
2026-05-06 23:40 67.36538 87.27235 34540 ft 559 kts 107°
2026-05-06 23:41 67.34497 87.46674 34557 ft 558 kts 107°
2026-05-06 23:41 67.32421 87.66063 34556 ft 558 kts 108°
2026-05-06 23:42 67.30319 87.85448 34568 ft 558 kts 108°
2026-05-06 23:42 67.28211 88.04672 34566 ft 558 kts 108°
2026-05-06 23:43 67.26070 88.23956 34602 ft 558 kts 108°
2026-05-06 23:43 67.23906 88.43210 34600 ft 557 kts 108°
2026-05-06 23:44 67.21727 88.62348 34605 ft 556 kts 108°
2026-05-06 23:44 67.19522 88.81488 34605 ft 555 kts 109°
2026-05-06 23:45 67.17307 89.00481 34618 ft 553 kts 109°
2026-05-06 23:45 67.15069 89.19422 34619 ft 553 kts 109°
2026-05-06 23:46 67.12758 89.38309 34636 ft 553 kts 110°
2026-05-06 23:46 67.10431 89.56994 34637 ft 553 kts 110°
2026-05-06 23:47 67.08070 89.75807 34634 ft 553 kts 110°
2026-05-06 23:47 67.05697 89.94551 34633 ft 553 kts 110°
2026-05-06 23:48 67.03299 90.13299 34646 ft 554 kts 110°
2026-05-06 23:48 67.00876 90.32030 34654 ft 554 kts 110°
2026-05-06 23:49 66.98446 90.50606 34645 ft 554 kts 111°
2026-05-06 23:49 66.95982 90.69233 34661 ft 554 kts 111°
2026-05-06 23:50 66.93497 90.87824 34653 ft 554 kts 111°
2026-05-06 23:50 66.89725 91.15658 34661 ft 554 kts 111°
2026-05-06 23:51 66.87188 91.34133 34670 ft 552 kts 111°
2026-05-06 23:51 66.84637 91.52517 34675 ft 550 kts 111°
2026-05-06 23:52 66.82085 91.70717 34681 ft 550 kts 111°
2026-05-06 23:52 66.79566 91.88505 34691 ft 549 kts 111°
2026-05-06 23:53 66.76964 92.06691 34688 ft 549 kts 112°
2026-05-06 23:53 66.74342 92.24832 34704 ft 549 kts 112°
2026-05-06 23:54 66.72145 92.39890 34700 ft 548 kts 112°
2026-05-06 23:54 66.69487 92.57950 34708 ft 548 kts 112°
2026-05-06 23:55 66.66804 92.75997 34712 ft 548 kts 112°
2026-05-06 23:55 66.63670 92.96856 34718 ft 548 kts 112°
2026-05-06 23:56 66.61391 93.11879 34713 ft 548 kts 112°
2026-05-06 23:56 66.58668 93.29668 34723 ft 548 kts 113°
2026-05-06 23:57 66.55907 93.47534 34725 ft 548 kts 113°
2026-05-06 23:57 66.53130 93.65328 34723 ft 547 kts 113°
2026-05-06 23:58 66.50354 93.82956 34722 ft 545 kts 113°
2026-05-06 23:58 66.47548 94.00608 34731 ft 544 kts 113°
2026-05-06 23:59 66.44722 94.18214 34736 ft 545 kts 113°
2026-05-06 23:59 66.41881 94.35752 34742 ft 544 kts 114°
2026-05-07 00:00 66.39015 94.53288 34742 ft 545 kts 114°
2026-05-07 00:00 66.36152 94.70645 34747 ft 545 kts 114°
2026-05-07 00:01 66.33251 94.88076 34746 ft 545 kts 114°
2026-05-07 00:01 66.30330 95.05466 34747 ft 545 kts 114°
2026-05-07 00:02 66.27397 95.22821 34769 ft 545 kts 114°
2026-05-07 00:02 66.24427 95.40195 34756 ft 547 kts 114°
2026-05-07 00:03 66.21433 95.57547 34754 ft 548 kts 114°
2026-05-07 00:03 66.18420 95.74862 34752 ft 548 kts 115°
2026-05-07 00:04 66.15391 95.92130 34751 ft 547 kts 115°
2026-05-07 00:04 66.12343 96.09354 34758 ft 547 kts 115°
2026-05-07 00:05 66.09297 96.26421 34757 ft 546 kts 115°
2026-05-07 00:05 66.06219 96.43519 34760 ft 546 kts 115°
2026-05-07 00:06 66.03117 96.60599 34756 ft 546 kts 115°
2026-05-07 00:06 66.00003 96.77608 34759 ft 546 kts 115°
2026-05-07 00:07 65.96868 96.94579 34742 ft 546 kts 115°
2026-05-07 00:07 65.93720 97.11482 34769 ft 547 kts 115°
2026-05-07 00:08 65.90542 97.28407 34757 ft 547 kts 116°
2026-05-07 00:08 65.87362 97.45202 34764 ft 547 kts 116°
2026-05-07 00:09 65.84147 97.62040 34744 ft 547 kts 116°
2026-05-07 00:09 65.80909 97.78860 34762 ft 547 kts 116°
2026-05-07 00:10 65.77658 97.95609 34769 ft 547 kts 116°
2026-05-07 00:10 65.74389 98.12315 34753 ft 547 kts 116°
2026-05-07 00:11 65.71102 98.28978 34750 ft 547 kts 117°
2026-05-07 00:11 65.67795 98.45609 34766 ft 545 kts 117°
2026-05-07 00:12 65.64482 98.62135 34772 ft 545 kts 117°
2026-05-07 00:12 65.61149 98.78628 34772 ft 545 kts 117°
2026-05-07 00:13 65.57816 98.94998 34776 ft 545 kts 117°
2026-05-07 00:13 65.54447 99.11411 34775 ft 545 kts 117°
2026-05-07 00:14 65.51055 99.27807 34791 ft 545 kts 117°
2026-05-07 00:14 65.47646 99.44155 34781 ft 547 kts 117°
2026-05-07 00:15 65.44208 99.60518 34777 ft 547 kts 117°
2026-05-07 00:15 65.40751 99.76846 34781 ft 547 kts 117°
2026-05-07 00:16 65.37282 99.93102 34783 ft 547 kts 118°
2026-05-07 00:16 65.33814 100.09230 34784 ft 547 kts 117°
2026-05-07 00:17 65.30308 100.25412 34785 ft 548 kts 118°
2026-05-07 00:17 65.26783 100.41560 34788 ft 548 kts 118°
2026-05-07 00:18 65.23236 100.57686 34776 ft 547 kts 118°
2026-05-07 00:18 65.19689 100.73675 34793 ft 545 kts 118°
2026-05-07 00:19 65.16130 100.89627 34791 ft 545 kts 118°
2026-05-07 00:19 65.12586 101.05399 34796 ft 546 kts 118°
2026-05-07 00:20 65.08988 101.21287 34795 ft 546 kts 118°
2026-05-07 00:20 65.05380 101.37100 34799 ft 546 kts 118°
2026-05-07 00:21 65.01747 101.52905 34798 ft 546 kts 119°
2026-05-07 00:21 64.98103 101.68643 34801 ft 546 kts 118°
2026-05-07 00:22 64.94435 101.84373 34802 ft 546 kts 118°
2026-05-07 00:22 64.90755 102.00037 34805 ft 546 kts 119°
2026-05-07 00:23 64.87078 102.15579 34809 ft 546 kts 119°
2026-05-07 00:23 64.83341 102.31259 34824 ft 546 kts 119°
2026-05-07 00:24 64.79625 102.46741 34813 ft 548 kts 119°
2026-05-07 00:24 64.75867 102.62288 34813 ft 548 kts 119°
2026-05-07 00:25 64.72086 102.77819 34816 ft 548 kts 119°
2026-05-07 00:25 64.68295 102.93277 34814 ft 548 kts 120°
2026-05-07 00:26 64.64508 103.08616 34825 ft 549 kts 120°
2026-05-07 00:26 64.60678 103.24020 34821 ft 550 kts 120°
2026-05-07 00:27 64.56803 103.39498 34824 ft 550 kts 120°
2026-05-07 00:27 64.52955 103.54756 34826 ft 550 kts 120°
2026-05-07 00:28 64.49059 103.70101 34822 ft 550 kts 120°
2026-05-07 00:28 64.45153 103.85382 34824 ft 551 kts 120°
2026-05-07 00:29 64.41232 104.00513 34832 ft 551 kts 121°
2026-05-07 00:30 64.33112 104.30585 34832 ft 551 kts 122°
2026-05-07 00:30 64.29042 104.45557 34841 ft 551 kts 121°
2026-05-07 00:31 64.24965 104.60498 34812 ft 551 kts 121°
2026-05-07 00:31 64.20883 104.75360 34835 ft 549 kts 122°
2026-05-07 00:32 64.16789 104.90167 34838 ft 549 kts 122°
2026-05-07 00:32 64.12686 105.04905 34840 ft 549 kts 122°
2026-05-07 00:33 64.08562 105.19624 34841 ft 549 kts 122°
2026-05-07 00:33 64.04451 105.34199 34841 ft 549 kts 122°
2026-05-07 00:34 64.00305 105.48804 34837 ft 548 kts 122°
2026-05-07 00:34 63.96138 105.63388 34840 ft 549 kts 122°
2026-05-07 00:35 63.91963 105.77904 34848 ft 549 kts 123°
2026-05-07 00:35 63.87771 105.92388 34846 ft 550 kts 123°
2026-05-07 00:36 63.83558 106.06852 34848 ft 550 kts 123°
2026-05-07 00:36 63.79322 106.21299 34849 ft 550 kts 123°
2026-05-07 00:37 63.75071 106.35703 34848 ft 550 kts 123°
2026-05-07 00:37 63.70842 106.49944 34854 ft 547 kts 123°
2026-05-07 00:38 63.66597 106.64149 34851 ft 546 kts 123°
2026-05-07 00:38 63.62331 106.78334 34851 ft 547 kts 123°
2026-05-07 00:39 63.58052 106.92477 34853 ft 547 kts 123°
2026-05-07 00:39 63.53766 107.06558 34853 ft 546 kts 124°
2026-05-07 00:40 63.49458 107.20622 34849 ft 547 kts 124°
2026-05-07 00:40 63.45138 107.34638 34848 ft 548 kts 124°
2026-05-07 00:41 63.40802 107.48619 34848 ft 548 kts 124°
2026-05-07 00:41 63.36473 107.62491 34849 ft 548 kts 124°
2026-05-07 00:42 63.32109 107.76391 34848 ft 548 kts 124°
2026-05-07 00:42 63.27732 107.90249 34848 ft 548 kts 124°
2026-05-07 00:43 63.23334 108.04088 34848 ft 548 kts 125°
2026-05-07 00:43 63.18931 108.17858 34836 ft 547 kts 125°
2026-05-07 00:44 63.14528 108.31543 34855 ft 544 kts 125°
2026-05-07 00:44 63.10133 108.45124 34859 ft 543 kts 125°
2026-05-07 00:45 63.05754 108.58575 34856 ft 544 kts 125°
2026-05-07 00:45 63.01324 108.72103 34859 ft 544 kts 126°
2026-05-07 00:46 62.96881 108.85590 34858 ft 544 kts 126°
2026-05-07 00:46 62.92426 108.99034 34861 ft 544 kts 126°
2026-05-07 00:47 62.88724 109.10146 34862 ft 543 kts 126°
2026-05-07 00:47 62.83516 109.25683 34861 ft 543 kts 126°
2026-05-07 00:48 62.79757 109.36835 34862 ft 543 kts 126°
2026-05-07 00:48 62.75283 109.50034 34870 ft 543 kts 126°
2026-05-07 00:49 62.70768 109.63279 34878 ft 543 kts 126°
2026-05-07 00:49 62.66241 109.76482 34870 ft 543 kts 127°
2026-05-07 00:50 62.61716 109.89599 34867 ft 541 kts 127°
2026-05-07 00:50 62.57191 110.02644 34870 ft 540 kts 127°
2026-05-07 00:51 62.52666 110.15617 34880 ft 540 kts 127°
2026-05-07 00:51 62.48151 110.28486 34881 ft 539 kts 127°
2026-05-07 00:52 62.43602 110.41379 34880 ft 538 kts 127°
2026-05-07 00:52 62.39051 110.54206 34881 ft 538 kts 127°
2026-05-07 00:53 62.34488 110.66992 34882 ft 538 kts 127°
2026-05-07 00:53 62.29914 110.79739 34885 ft 538 kts 127°
2026-05-07 00:54 62.25321 110.92469 34887 ft 538 kts 128°
2026-05-07 00:54 62.20746 111.05076 34886 ft 538 kts 128°
2026-05-07 00:55 62.16137 111.17708 34881 ft 538 kts 128°
2026-05-07 00:55 62.11517 111.30301 34874 ft 538 kts 128°
2026-05-07 00:56 62.06879 111.42871 34873 ft 538 kts 128°
2026-05-07 00:56 62.02255 111.55335 34881 ft 535 kts 128°
2026-05-07 00:57 61.97631 111.67735 34881 ft 535 kts 128°
2026-05-07 00:57 61.92988 111.80115 34882 ft 535 kts 128°
2026-05-07 00:58 61.88364 111.92377 34880 ft 535 kts 128°
2026-05-07 00:58 61.83708 112.04663 34885 ft 534 kts 129°
2026-05-07 00:59 61.79043 112.16909 35116 ft 534 kts 129°
2026-05-07 00:59 61.76711 112.23009 35299 ft 532 kts 129°
2026-05-07 00:59 61.74378 112.29088 35476 ft 532 kts 129°
2026-05-07 01:00 61.72043 112.35153 35616 ft 532 kts 129°
2026-05-07 01:00 61.69714 112.41188 35756 ft 532 kts 129°
2026-05-07 01:00 61.67375 112.47234 35884 ft 532 kts 129°
2026-05-07 01:00 61.65042 112.53249 36021 ft 531 kts 129°
2026-05-07 01:01 61.62702 112.59266 36208 ft 530 kts 129°
2026-05-07 01:01 61.60365 112.65261 36356 ft 529 kts 129°
2026-05-07 01:01 61.58032 112.71231 36462 ft 530 kts 129°
2026-05-07 01:01 61.55721 112.77129 36568 ft 530 kts 130°
2026-05-07 01:02 61.53344 112.83178 36677 ft 530 kts 130°
2026-05-07 01:02 61.51036 112.89039 36783 ft 530 kts 130°
2026-05-07 01:02 61.48687 112.94987 36870 ft 529 kts 129°
2026-05-07 01:03 61.43992 113.06829 36878 ft 529 kts 130°
2026-05-07 01:03 61.39286 113.18636 36879 ft 528 kts 130°
2026-05-07 01:04 61.34575 113.30392 36889 ft 527 kts 130°
2026-05-07 01:04 61.29856 113.42111 36870 ft 527 kts 130°
2026-05-07 01:05 61.25135 113.53775 36870 ft 527 kts 130°
2026-05-07 01:05 61.20435 113.65327 36886 ft 527 kts 130°
2026-05-07 01:06 61.15698 113.76912 36886 ft 527 kts 130°
2026-05-07 01:06 61.10946 113.88475 36885 ft 527 kts 130°
2026-05-07 01:07 61.06192 113.99983 36892 ft 526 kts 130°
2026-05-07 01:07 61.01419 114.11477 36888 ft 527 kts 131°
2026-05-07 01:08 60.96646 114.22916 36897 ft 526 kts 131°
2026-05-07 01:08 60.91858 114.34334 36886 ft 526 kts 130°
2026-05-07 01:09 60.87097 114.45627 36916 ft 525 kts 130°
2026-05-07 01:09 60.82309 114.56932 36918 ft 525 kts 131°
2026-05-07 01:10 60.77503 114.68223 36931 ft 525 kts 131°
2026-05-07 01:10 60.72715 114.79516 36933 ft 524 kts 128°
2026-05-07 01:11 60.68647 114.91847 36930 ft 524 kts 121°
2026-05-07 01:11 60.64844 115.04422 36950 ft 524 kts 120°
2026-05-07 01:12 60.61044 115.17074 36948 ft 524 kts 121°
2026-05-07 01:12 60.57219 115.29677 36963 ft 523 kts 121°
2026-05-07 01:13 60.53368 115.42251 36941 ft 523 kts 121°
2026-05-07 01:13 60.49510 115.54767 36964 ft 523 kts 121°
2026-05-07 01:14 60.45634 115.67274 36950 ft 523 kts 121°
2026-05-07 01:14 60.41753 115.79733 36953 ft 523 kts 121°
2026-05-07 01:15 60.37886 115.92080 36952 ft 522 kts 121°
2026-05-07 01:15 60.33994 116.04449 36952 ft 522 kts 121°
2026-05-07 01:16 60.30085 116.16780 36949 ft 522 kts 121°
2026-05-07 01:16 60.26163 116.29079 36958 ft 522 kts 122°
2026-05-07 01:17 60.22229 116.41356 36952 ft 520 kts 122°
2026-05-07 01:17 60.18298 116.53564 36952 ft 519 kts 122°
2026-05-07 01:18 60.14384 116.65654 36953 ft 519 kts 122°
2026-05-07 01:18 60.10441 116.77775 36950 ft 519 kts 122°
2026-05-07 01:19 60.06482 116.89879 36956 ft 518 kts 122°
2026-05-07 01:19 60.02527 117.01905 36935 ft 517 kts 122°
2026-05-07 01:20 59.98563 117.13900 36951 ft 517 kts 122°
2026-05-07 01:20 59.94581 117.25889 36961 ft 517 kts 122°
2026-05-07 01:21 59.90595 117.37828 36948 ft 517 kts 122°
2026-05-07 01:21 59.86584 117.49768 36960 ft 517 kts 123°
2026-05-07 01:22 59.82561 117.61499 36962 ft 517 kts 123°
2026-05-07 01:22 59.78496 117.73273 36961 ft 517 kts 123°
2026-05-07 01:23 59.74420 117.85049 36966 ft 517 kts 123°
2026-05-07 01:23 59.70345 117.96779 36967 ft 517 kts 123°
2026-05-07 01:24 59.66260 118.08486 36965 ft 516 kts 123°
2026-05-07 01:24 59.62194 118.20082 36968 ft 516 kts 123°
2026-05-07 01:25 59.58097 118.31706 36974 ft 516 kts 123°
2026-05-07 01:25 59.53990 118.43300 36994 ft 516 kts 123°
2026-05-07 01:26 59.49868 118.54879 36979 ft 515 kts 123°
2026-05-07 01:26 59.45746 118.66399 36985 ft 515 kts 123°
2026-05-07 01:27 59.41616 118.77889 36988 ft 515 kts 123°
2026-05-07 01:27 59.37468 118.89371 36991 ft 515 kts 124°
2026-05-07 01:28 59.33318 119.00803 36991 ft 514 kts 123°
2026-05-07 01:28 59.29164 119.12188 36998 ft 514 kts 124°
2026-05-07 01:29 59.25023 119.23486 36998 ft 514 kts 124°
2026-05-07 01:29 59.20851 119.34814 36998 ft 514 kts 124°
2026-05-07 01:30 59.16662 119.46135 37010 ft 514 kts 124°
2026-05-07 01:30 59.12477 119.57387 36991 ft 512 kts 124°
2026-05-07 01:31 59.08293 119.68587 37005 ft 512 kts 124°
2026-05-07 01:31 59.04090 119.79737 37005 ft 512 kts 124°
2026-05-07 01:32 58.99869 119.90878 36999 ft 512 kts 124°
2026-05-07 01:32 58.95648 120.01976 37006 ft 511 kts 124°
2026-05-07 01:33 58.91441 120.12991 37003 ft 511 kts 125°
2026-05-07 01:33 58.87203 120.24033 37001 ft 511 kts 125°
2026-05-07 01:34 58.82929 120.35119 36999 ft 511 kts 125°
2026-05-07 01:34 58.78695 120.46051 37006 ft 511 kts 125°
2026-05-07 01:35 58.74423 120.57028 36996 ft 511 kts 125°
2026-05-07 01:35 58.70148 120.67962 37005 ft 511 kts 125°
2026-05-07 01:36 58.65849 120.78848 37001 ft 512 kts 128°
2026-05-07 01:36 58.61007 120.88879 37006 ft 513 kts 133°
2026-05-07 01:37 58.55992 120.98627 37004 ft 513 kts 133°
2026-05-07 01:37 58.50961 121.08288 37003 ft 512 kts 133°
2026-05-07 01:38 58.45923 121.17952 36999 ft 512 kts 133°
2026-05-07 01:38 58.40888 121.27611 37007 ft 513 kts 133°
2026-05-07 01:39 58.35850 121.37220 37011 ft 512 kts 134°
2026-05-07 01:39 58.30834 121.46739 37008 ft 512 kts 134°
2026-05-07 01:40 58.25789 121.56275 37012 ft 512 kts 134°
2026-05-07 01:40 58.21587 121.64191 37010 ft 512 kts 134°
2026-05-07 01:41 58.16529 121.73682 37017 ft 512 kts 134°
2026-05-07 01:41 58.11464 121.83149 37018 ft 512 kts 134°
2026-05-07 01:42 58.06384 121.92601 37020 ft 512 kts 134°
2026-05-07 01:42 58.01295 122.02030 37018 ft 512 kts 134°
2026-05-07 01:43 57.96208 122.11417 37018 ft 512 kts 134°
2026-05-07 01:43 57.91105 122.20794 37024 ft 512 kts 134°
2026-05-07 01:44 57.86027 122.30085 37023 ft 512 kts 134°
2026-05-07 01:44 57.80916 122.39398 37023 ft 512 kts 134°
2026-05-07 01:45 57.75798 122.48686 37024 ft 512 kts 135°
2026-05-07 01:45 57.70664 122.57963 37031 ft 512 kts 135°
2026-05-07 01:46 57.65537 122.67189 37020 ft 512 kts 135°
2026-05-07 01:46 57.60402 122.76391 37025 ft 511 kts 135°
2026-05-07 01:47 57.55276 122.85541 37027 ft 510 kts 135°
2026-05-07 01:47 57.50169 122.94618 37025 ft 510 kts 135°
2026-05-07 01:48 57.45030 123.03717 37032 ft 511 kts 135°
2026-05-07 01:48 57.39881 123.12794 37016 ft 511 kts 135°
2026-05-07 01:49 57.34717 123.21861 37027 ft 511 kts 135°
2026-05-07 01:49 57.29555 123.30889 37038 ft 511 kts 135°
2026-05-07 01:50 57.24386 123.39892 37032 ft 511 kts 135°
2026-05-07 01:50 57.19201 123.48887 37035 ft 511 kts 135°
2026-05-07 01:51 57.14020 123.57847 37033 ft 511 kts 135°
2026-05-07 01:51 57.08859 123.66738 37035 ft 511 kts 135°
2026-05-07 01:52 57.03626 123.75703 37049 ft 511 kts 135°
2026-05-07 01:52 56.98414 123.84574 37036 ft 511 kts 135°
2026-05-07 01:53 56.93219 123.93376 37039 ft 511 kts 135°
2026-05-07 01:53 56.87994 124.02199 37045 ft 511 kts 136°
2026-05-07 01:54 56.82766 124.10999 37043 ft 511 kts 136°
2026-05-07 01:54 56.77523 124.19789 37053 ft 511 kts 136°
2026-05-07 01:55 56.72284 124.28537 37056 ft 511 kts 136°
2026-05-07 01:55 56.67031 124.37274 37054 ft 511 kts 136°
2026-05-07 01:56 56.61781 124.45971 37056 ft 511 kts 136°
2026-05-07 01:56 56.56549 124.54602 37058 ft 511 kts 136°
2026-05-07 01:57 56.51266 124.63286 37057 ft 511 kts 136°
2026-05-07 01:57 56.45991 124.71921 37058 ft 511 kts 136°
2026-05-07 01:58 56.40713 124.80530 37057 ft 511 kts 136°
2026-05-07 01:58 56.35423 124.89138 37065 ft 511 kts 136°
2026-05-07 01:59 56.30138 124.97697 37061 ft 511 kts 136°
2026-05-07 01:59 56.24871 125.06187 37060 ft 511 kts 136°
2026-05-07 02:00 56.19558 125.14723 37056 ft 512 kts 136°
2026-05-07 02:00 56.14247 125.23225 37058 ft 512 kts 136°
2026-05-07 02:01 56.08916 125.31728 37052 ft 513 kts 136°
2026-05-07 02:01 56.03610 125.40165 37048 ft 513 kts 136°
2026-05-07 02:02 55.98272 125.48624 37048 ft 513 kts 136°
2026-05-07 02:02 55.92919 125.57073 37044 ft 513 kts 136°
2026-05-07 02:03 55.87559 125.65501 37036 ft 513 kts 136°
2026-05-07 02:03 55.82194 125.73905 37033 ft 513 kts 137°
2026-05-07 02:04 55.76868 125.82218 37033 ft 513 kts 137°
2026-05-07 02:04 55.71465 125.90617 37043 ft 513 kts 137°
2026-05-07 02:05 55.66133 125.98877 37023 ft 512 kts 137°
2026-05-07 02:05 55.60755 126.07174 37017 ft 512 kts 137°
2026-05-07 02:06 55.55383 126.15432 37019 ft 512 kts 137°
2026-05-07 02:06 55.50009 126.23663 37009 ft 512 kts 137°
2026-05-07 02:07 55.44618 126.31887 37010 ft 512 kts 137°
2026-05-07 02:07 55.36522 126.44182 37001 ft 512 kts 137°
2026-05-07 02:08 55.31120 126.52348 36990 ft 512 kts 137°
2026-05-07 02:08 55.25749 126.60440 36992 ft 513 kts 137°
2026-05-07 02:09 55.20311 126.68568 36986 ft 514 kts 137°
2026-05-07 02:09 55.14870 126.76674 36976 ft 514 kts 137°
2026-05-07 02:10 55.09418 126.84774 36980 ft 514 kts 137°
2026-05-07 02:10 55.03968 126.92843 36992 ft 514 kts 138°
2026-05-07 02:11 54.98508 127.00896 36964 ft 513 kts 138°
2026-05-07 02:11 54.93057 127.08906 36959 ft 513 kts 138°
2026-05-07 02:12 54.87630 127.16853 36968 ft 513 kts 138°
2026-05-07 02:12 54.82174 127.24814 36967 ft 513 kts 138°
2026-05-07 02:13 54.76765 127.32841 36962 ft 511 kts 137°
2026-05-07 02:13 54.71438 127.41038 36961 ft 511 kts 136°
2026-05-07 02:14 54.66126 127.49188 36961 ft 511 kts 137°
2026-05-07 02:14 54.60793 127.57289 36968 ft 511 kts 137°
2026-05-07 02:15 54.55475 127.65312 36973 ft 511 kts 137°
2026-05-07 02:15 54.50126 127.73350 36971 ft 511 kts 137°
2026-05-07 02:16 54.44764 127.81382 36968 ft 511 kts 137°
2026-05-07 02:16 54.39397 127.89393 36973 ft 510 kts 137°
2026-05-07 02:17 54.34053 127.97342 36979 ft 512 kts 138°
2026-05-07 02:17 54.28652 128.05346 36974 ft 513 kts 138°
2026-05-07 02:18 54.23251 128.13320 36975 ft 513 kts 138°
2026-05-07 02:18 54.17831 128.21295 36968 ft 514 kts 138°
2026-05-07 02:19 54.12403 128.29253 36966 ft 515 kts 138°
2026-05-07 02:19 54.06959 128.37211 36969 ft 515 kts 138°
2026-05-07 02:20 54.01523 128.45144 36963 ft 515 kts 138°
2026-05-07 02:20 53.96107 128.53014 36962 ft 515 kts 138°
2026-05-07 02:21 53.90660 128.60900 36955 ft 515 kts 139°
2026-05-07 02:21 53.85191 128.68790 36947 ft 515 kts 139°
2026-05-07 02:22 53.79730 128.76643 36951 ft 516 kts 139°
2026-05-07 02:22 53.74301 128.84423 36944 ft 515 kts 139°
2026-05-07 02:23 53.68825 128.92242 36940 ft 515 kts 139°
2026-05-07 02:23 53.63358 129.00022 36942 ft 514 kts 139°
2026-05-07 02:24 53.57893 129.07773 36937 ft 513 kts 139°
2026-05-07 02:24 53.52414 129.15518 36942 ft 514 kts 140°
2026-05-07 02:25 53.46952 129.23219 36938 ft 517 kts 139°
2026-05-07 02:25 53.41429 129.30953 36928 ft 517 kts 139°
2026-05-07 02:26 53.35899 129.38676 36928 ft 518 kts 140°
2026-05-07 02:26 53.30365 129.46385 36923 ft 518 kts 140°
2026-05-07 02:27 53.24811 129.54095 36916 ft 517 kts 140°
2026-05-07 02:27 53.19271 129.61759 36920 ft 517 kts 140°
2026-05-07 02:28 53.13754 129.69364 36917 ft 517 kts 140°
2026-05-07 02:28 53.08400 129.76721 36909 ft 517 kts 141°
2026-05-07 02:29 53.02854 129.84314 36908 ft 516 kts 141°
2026-05-07 02:29 52.97309 129.91879 36905 ft 516 kts 141°
2026-05-07 02:30 52.91765 129.99431 36906 ft 516 kts 141°
2026-05-07 02:30 52.86197 130.06969 36908 ft 516 kts 141°
2026-05-07 02:31 52.80637 130.14459 36899 ft 515 kts 141°
2026-05-07 02:31 52.75080 130.21927 36895 ft 515 kts 141°
2026-05-07 02:32 52.69518 130.29381 36894 ft 515 kts 141°
2026-05-07 02:32 52.63977 130.36782 36896 ft 515 kts 142°
2026-05-07 02:33 52.58393 130.44215 36895 ft 515 kts 142°
2026-05-07 02:33 52.52813 130.51618 36895 ft 516 kts 142°
2026-05-07 02:34 52.48167 130.57764 36889 ft 516 kts 142°
2026-05-07 02:34 52.42571 130.65142 36888 ft 515 kts 142°
2026-05-07 02:35 52.36994 130.72469 36893 ft 515 kts 142°
2026-05-07 02:35 52.31396 130.79802 36887 ft 515 kts 142°
2026-05-07 02:36 52.25805 130.87101 36886 ft 515 kts 142°
2026-05-07 02:36 52.20200 130.94393 36892 ft 514 kts 142°
2026-05-07 02:37 52.14631 131.01614 36889 ft 514 kts 142°
2026-05-07 02:37 52.09021 131.08866 36890 ft 515 kts 143°
2026-05-07 02:38 52.03411 131.16104 36888 ft 515 kts 143°
2026-05-07 02:38 51.97791 131.23313 36892 ft 515 kts 143°
2026-05-07 02:39 51.92190 131.30469 36888 ft 515 kts 143°
2026-05-07 02:39 51.86521 131.37694 36886 ft 515 kts 143°
2026-05-07 02:40 51.80924 131.44806 36890 ft 515 kts 143°
2026-05-07 02:40 51.75282 131.51967 36891 ft 516 kts 143°
2026-05-07 02:41 51.69617 131.59114 36882 ft 516 kts 144°
2026-05-07 02:41 51.63954 131.66229 36877 ft 516 kts 144°
2026-05-07 02:42 51.58288 131.73332 36882 ft 516 kts 143°
2026-05-07 02:42 51.52608 131.80430 36878 ft 516 kts 144°
2026-05-07 02:43 51.46935 131.87498 36876 ft 516 kts 144°
2026-05-07 02:43 51.41258 131.94549 36865 ft 516 kts 144°
2026-05-07 02:44 51.35575 132.01585 36873 ft 516 kts 144°
2026-05-07 02:44 51.29919 132.08563 36868 ft 516 kts 144°
2026-05-07 02:45 51.24230 132.15559 36865 ft 516 kts 144°
2026-05-07 02:45 51.18538 132.22538 36862 ft 516 kts 144°
2026-05-07 02:46 51.12738 132.29271 36861 ft 516 kts 147°
2026-05-07 02:46 51.06836 132.35796 36861 ft 516 kts 147°
2026-05-07 02:47 51.00953 132.42325 36862 ft 516 kts 147°
2026-05-07 02:47 50.95061 132.48907 36859 ft 517 kts 147°
2026-05-07 02:48 50.89214 132.55443 36857 ft 517 kts 147°
2026-05-07 02:48 50.83333 132.61998 36856 ft 517 kts 147°
2026-05-07 02:49 50.77436 132.68545 36837 ft 517 kts 148°
2026-05-07 02:49 50.71573 132.75034 36857 ft 517 kts 148°
2026-05-07 02:50 50.65676 132.81539 36856 ft 517 kts 148°
2026-05-07 02:50 50.59775 132.88028 36851 ft 517 kts 148°
2026-05-07 02:51 50.53863 132.94511 36838 ft 517 kts 148°
2026-05-07 02:51 50.47945 133.00978 36840 ft 517 kts 148°
2026-05-07 02:52 50.42063 133.07387 36841 ft 517 kts 148°
2026-05-07 02:52 50.36147 133.13812 36839 ft 518 kts 148°
2026-05-07 02:53 50.30226 133.20224 36830 ft 518 kts 149°
2026-05-07 02:53 50.24289 133.26633 36835 ft 518 kts 149°
2026-05-07 02:54 50.18348 133.33027 36827 ft 518 kts 149°
2026-05-07 02:54 50.12406 133.39403 36824 ft 518 kts 149°
2026-05-07 02:55 50.06507 133.45715 36824 ft 518 kts 149°
2026-05-07 02:55 50.00541 133.51999 36821 ft 518 kts 150°
2026-05-07 02:56 49.94554 133.58254 36814 ft 518 kts 150°
2026-05-07 02:56 49.88576 133.64498 36806 ft 519 kts 150°
2026-05-07 02:57 49.82587 133.70743 36806 ft 519 kts 150°
2026-05-07 02:57 49.76585 133.76986 36807 ft 519 kts 150°
2026-05-07 02:58 49.70591 133.83202 36792 ft 519 kts 151°
2026-05-07 02:58 49.64617 133.89375 36803 ft 520 kts 151°
2026-05-07 02:59 49.58605 133.95571 36802 ft 520 kts 151°
2026-05-07 02:59 49.52583 134.01761 36796 ft 519 kts 151°
2026-05-07 03:00 49.46564 134.07931 36801 ft 519 kts 151°
2026-05-07 03:00 49.40600 134.14050 36801 ft 519 kts 151°
2026-05-07 03:01 49.34582 134.20197 36801 ft 519 kts 151°
2026-05-07 03:01 49.28571 134.26318 36799 ft 519 kts 152°
2026-05-07 03:02 49.22558 134.32425 36806 ft 519 kts 152°
2026-05-07 03:02 49.16544 134.38516 36806 ft 519 kts 152°
2026-05-07 03:03 49.10519 134.44604 36805 ft 519 kts 152°
2026-05-07 03:03 49.04878 134.51608 36804 ft 526 kts 143°
2026-05-07 03:04 48.99461 134.59115 36804 ft 527 kts 143°
2026-05-07 03:04 48.94064 134.66688 36806 ft 527 kts 143°
2026-05-07 03:05 48.88703 134.74177 36809 ft 527 kts 143°
2026-05-07 03:05 48.83282 134.81671 36801 ft 527 kts 143°
2026-05-07 03:06 48.77845 134.89147 36807 ft 527 kts 144°
2026-05-07 03:06 48.72416 134.96597 36779 ft 526 kts 144°
2026-05-07 03:07 48.66974 135.04047 36804 ft 527 kts 144°
2026-05-07 03:07 48.61564 135.11435 36801 ft 527 kts 144°
2026-05-07 03:08 48.55895 135.18290 36802 ft 515 kts 156°
2026-05-07 03:08 48.52728 135.20697 36792 ft 504 kts 166°
2026-05-07 03:08 48.49428 135.22236 36810 ft 493 kts 175°
2026-05-07 03:09 48.42714 135.24100 36809 ft 489 kts 178°
2026-05-07 03:09 48.35995 135.25658 36810 ft 489 kts 179°
2026-05-07 03:10 48.29275 135.27227 36809 ft 489 kts 178°
2026-05-07 03:10 48.22563 135.28843 36810 ft 487 kts 179°
2026-05-07 03:11 48.15929 135.30455 36812 ft 486 kts 179°
2026-05-07 03:11 48.09258 135.32072 36814 ft 486 kts 179°
2026-05-07 03:12 48.02576 135.33685 36813 ft 486 kts 179°
2026-05-07 03:12 47.95902 135.35301 36810 ft 484 kts 179°
2026-05-07 03:13 47.89259 135.36900 36813 ft 483 kts 179°
2026-05-07 03:13 47.82658 135.38475 36816 ft 483 kts 179°
2026-05-07 03:14 47.76012 135.40059 36816 ft 483 kts 179°
2026-05-07 03:15 47.66070 135.42429 36802 ft 482 kts 180°
2026-05-07 03:15 47.59459 135.44002 36814 ft 481 kts 180°
2026-05-07 03:16 47.52856 135.45566 36815 ft 480 kts 180°
2026-05-07 03:16 47.46248 135.47127 36804 ft 480 kts 181°
2026-05-07 03:17 47.39664 135.48678 36805 ft 479 kts 181°
2026-05-07 03:17 47.33091 135.50221 36803 ft 478 kts 181°
2026-05-07 03:18 47.26507 135.51765 36800 ft 479 kts 181°
2026-05-07 03:18 47.19929 135.53305 36803 ft 479 kts 181°
2026-05-07 03:19 47.13386 135.54831 36798 ft 479 kts 181°
2026-05-07 03:19 47.06798 135.56364 36801 ft 479 kts 181°
2026-05-07 03:20 47.00208 135.57894 36803 ft 479 kts 181°
2026-05-07 03:20 46.93670 135.59413 36800 ft 477 kts 181°
2026-05-07 03:21 46.87132 135.60930 36804 ft 475 kts 181°
2026-05-07 03:21 46.80599 135.62446 36809 ft 475 kts 181°
2026-05-07 03:22 46.74066 135.64088 36809 ft 476 kts 180°
2026-05-07 03:22 46.67546 135.65769 36807 ft 475 kts 180°
2026-05-07 03:23 46.61046 135.67430 36804 ft 474 kts 181°
2026-05-07 03:23 46.54551 135.69063 36810 ft 474 kts 181°
2026-05-07 03:24 46.48055 135.70687 36809 ft 474 kts 181°
2026-05-07 03:24 46.41545 135.72316 36799 ft 474 kts 180°
2026-05-07 03:25 46.35045 135.73942 36807 ft 474 kts 181°
2026-05-07 03:25 46.28577 135.75494 36807 ft 473 kts 181°
2026-05-07 03:26 46.22066 135.76977 36807 ft 473 kts 181°
2026-05-07 03:26 46.15552 135.78464 36810 ft 473 kts 181°
2026-05-07 03:27 46.09048 135.79963 36806 ft 473 kts 181°
2026-05-07 03:27 46.02545 135.81487 36813 ft 474 kts 181°
2026-05-07 03:28 45.96043 135.83043 36772 ft 473 kts 181°
2026-05-07 03:28 45.89578 135.84590 36814 ft 473 kts 181°
2026-05-07 03:29 45.83083 135.86133 36801 ft 473 kts 181°
2026-05-07 03:29 45.76579 135.87671 36811 ft 473 kts 181°
2026-05-07 03:30 45.71166 135.88950 36788 ft 473 kts 181°
2026-05-07 03:30 45.63629 135.90719 36809 ft 471 kts 181°
2026-05-07 03:31 45.58217 135.91986 36808 ft 471 kts 181°
2026-05-07 03:31 45.51741 135.93499 36808 ft 471 kts 181°
2026-05-07 03:32 45.45522 135.94955 36792 ft 470 kts 181°
2026-05-07 03:32 45.39078 135.96463 36805 ft 469 kts 181°
2026-05-07 03:33 45.32646 135.97959 36797 ft 468 kts 181°
2026-05-07 03:33 45.26202 135.99452 36798 ft 469 kts 181°
2026-05-07 03:34 45.19760 136.00944 36798 ft 468 kts 181°
2026-05-07 03:34 45.13347 136.02427 36806 ft 467 kts 181°
2026-05-07 03:35 45.06967 136.03896 36797 ft 467 kts 181°
2026-05-07 03:35 45.00567 136.05349 36793 ft 466 kts 181°
2026-05-07 03:36 44.94167 136.06817 36794 ft 466 kts 181°
2026-05-07 03:36 44.87774 136.08300 36794 ft 465 kts 181°
2026-05-07 03:37 44.81398 136.09761 36800 ft 464 kts 181°
2026-05-07 03:37 44.75010 136.11222 36806 ft 464 kts 181°
2026-05-07 03:38 44.68635 136.12662 36802 ft 464 kts 182°
2026-05-07 03:38 44.62266 136.14096 36808 ft 463 kts 182°
2026-05-07 03:39 44.55935 136.15526 36805 ft 463 kts 181°
2026-05-07 03:39 44.49574 136.16959 36811 ft 463 kts 182°
2026-05-07 03:40 44.43216 136.18392 36815 ft 462 kts 182°
2026-05-07 03:40 44.36876 136.19816 36818 ft 461 kts 182°
2026-05-07 03:41 44.30530 136.21237 36824 ft 461 kts 182°
2026-05-07 03:41 44.24186 136.22665 36829 ft 461 kts 182°
2026-05-07 03:42 44.17889 136.24091 36829 ft 461 kts 182°
2026-05-07 03:42 44.11561 136.25518 36831 ft 461 kts 182°
2026-05-07 03:43 44.05238 136.26943 36800 ft 460 kts 182°
2026-05-07 03:43 43.98911 136.28365 36836 ft 460 kts 182°
2026-05-07 03:44 43.92628 136.29774 36837 ft 460 kts 182°
2026-05-07 03:44 43.86315 136.31187 36842 ft 460 kts 182°
2026-05-07 03:45 43.79993 136.32599 36828 ft 460 kts 183°
2026-05-07 03:45 43.73680 136.34006 36846 ft 459 kts 183°
2026-05-07 03:46 43.67371 136.35410 36845 ft 459 kts 183°
2026-05-07 03:46 43.61052 136.36812 36845 ft 459 kts 183°
2026-05-07 03:47 43.54774 136.38203 36846 ft 459 kts 183°
2026-05-07 03:47 43.48458 136.39592 36845 ft 459 kts 183°
2026-05-07 03:48 43.42154 136.40955 36845 ft 459 kts 183°
2026-05-07 03:48 43.35841 136.42318 36826 ft 459 kts 183°
2026-05-07 03:49 43.29536 136.43682 36837 ft 459 kts 183°
2026-05-07 03:49 43.23220 136.45047 36847 ft 459 kts 183°
2026-05-07 03:50 43.16917 136.46406 36844 ft 458 kts 183°
2026-05-07 03:50 43.10617 136.47762 36840 ft 459 kts 183°
2026-05-07 03:51 43.04309 136.49115 36842 ft 459 kts 183°
2026-05-07 03:51 42.98033 136.50460 36842 ft 459 kts 183°
2026-05-07 03:52 42.91718 136.51811 36788 ft 459 kts 183°
2026-05-07 03:52 42.85554 136.53125 36843 ft 460 kts 183°
2026-05-07 03:53 42.79239 136.54470 36844 ft 459 kts 183°
2026-05-07 03:53 42.72925 136.55813 36841 ft 459 kts 183°
2026-05-07 03:54 42.66599 136.57154 36845 ft 460 kts 183°
2026-05-07 03:54 42.60278 136.58491 36839 ft 460 kts 183°
2026-05-07 03:55 42.53952 136.59829 36840 ft 459 kts 183°
2026-05-07 03:55 42.47669 136.61153 36839 ft 459 kts 183°
2026-05-07 03:56 42.41344 136.62483 36837 ft 459 kts 184°
2026-05-07 03:56 42.35029 136.63808 36838 ft 459 kts 184°
2026-05-07 03:57 42.28709 136.65133 36838 ft 459 kts 184°
2026-05-07 03:57 42.22387 136.66454 36832 ft 460 kts 184°
2026-05-07 03:58 42.16067 136.67772 36836 ft 460 kts 184°
2026-05-07 03:58 42.09736 136.69090 36840 ft 460 kts 184°
2026-05-07 03:59 42.03448 136.70398 36831 ft 460 kts 184°
2026-05-07 03:59 41.97116 136.71709 36838 ft 461 kts 184°
2026-05-07 04:00 41.90768 136.73024 36837 ft 461 kts 184°
2026-05-07 04:00 41.84410 136.74338 36837 ft 461 kts 184°
2026-05-07 04:01 41.78056 136.75647 36823 ft 462 kts 184°
2026-05-07 04:01 41.71751 136.76944 36840 ft 462 kts 184°
2026-05-07 04:02 41.65399 136.78377 36899 ft 471 kts 179°
2026-05-07 04:02 41.62221 136.79613 37033 ft 477 kts 175°
2026-05-07 04:02 41.59056 136.80991 37206 ft 478 kts 174°
2026-05-07 04:02 41.55900 136.82426 37368 ft 478 kts 174°
2026-05-07 04:03 41.52763 136.83878 37540 ft 478 kts 174°
2026-05-07 04:03 41.49622 136.85337 37704 ft 477 kts 174°
2026-05-07 04:03 41.46487 136.86787 37834 ft 476 kts 174°
2026-05-07 04:03 41.43361 136.88226 37994 ft 474 kts 173°
2026-05-07 04:04 41.40279 136.89635 38073 ft 474 kts 173°
2026-05-07 04:04 41.37163 136.91053 38193 ft 474 kts 173°
2026-05-07 04:04 41.34041 136.92471 38336 ft 473 kts 174°
2026-05-07 04:04 41.30925 136.93887 38469 ft 472 kts 174°
2026-05-07 04:05 41.27814 136.95298 38581 ft 472 kts 174°
2026-05-07 04:05 41.21596 136.98110 38624 ft 474 kts 173°
2026-05-07 04:06 41.15351 137.00930 38734 ft 474 kts 173°
2026-05-07 04:06 41.09105 137.03752 38854 ft 474 kts 173°
2026-05-07 04:07 41.02864 137.06563 38852 ft 474 kts 173°
2026-05-07 04:07 40.96608 137.09372 38854 ft 475 kts 173°
2026-05-07 04:08 40.90379 137.12167 38862 ft 475 kts 173°
2026-05-07 04:08 40.84118 137.14969 38840 ft 476 kts 172°
2026-05-07 04:09 40.77837 137.17774 38862 ft 476 kts 172°
2026-05-07 04:09 40.71551 137.20577 38867 ft 476 kts 172°
2026-05-07 04:10 40.65276 137.23369 38866 ft 477 kts 172°
2026-05-07 04:10 40.58977 137.26165 38872 ft 477 kts 172°
2026-05-07 04:11 40.52683 137.28955 38872 ft 477 kts 172°
2026-05-07 04:11 40.46390 137.31739 38878 ft 477 kts 172°
2026-05-07 04:12 40.40128 137.34503 38881 ft 477 kts 172°
2026-05-07 04:12 40.33835 137.37276 38881 ft 477 kts 172°
2026-05-07 04:13 40.27524 137.40049 38880 ft 479 kts 172°
2026-05-07 04:13 40.21205 137.42820 38880 ft 479 kts 172°
2026-05-07 04:14 40.14882 137.45591 38864 ft 478 kts 172°
2026-05-07 04:14 40.08570 137.48350 38898 ft 479 kts 172°
2026-05-07 04:15 40.02266 137.51099 38901 ft 480 kts 172°
2026-05-07 04:15 39.95939 137.53854 38878 ft 479 kts 171°
2026-05-07 04:16 39.89593 137.56610 38903 ft 481 kts 171°
2026-05-07 04:16 39.83237 137.59367 38905 ft 481 kts 171°
2026-05-07 04:17 39.76894 137.62114 38904 ft 481 kts 171°
2026-05-07 04:17 39.70525 137.64863 38918 ft 482 kts 171°
2026-05-07 04:18 39.64186 137.67596 38917 ft 483 kts 171°
2026-05-07 04:18 39.57814 137.70339 38920 ft 483 kts 171°
2026-05-07 04:19 39.51514 137.73041 38927 ft 486 kts 171°
2026-05-07 04:19 39.45098 137.75793 38927 ft 486 kts 171°
2026-05-07 04:20 39.38685 137.78539 38931 ft 486 kts 171°
2026-05-07 04:20 39.32254 137.81285 38932 ft 486 kts 171°
2026-05-07 04:21 39.22623 137.85409 38935 ft 488 kts 169°
2026-05-07 04:21 39.19518 137.87156 38942 ft 499 kts 161°
2026-05-07 04:21 39.16516 137.89586 38941 ft 511 kts 151°
2026-05-07 04:22 39.11057 137.95481 38924 ft 517 kts 146°
2026-05-07 04:22 39.05687 138.01692 38948 ft 519 kts 146°
2026-05-07 04:23 39.00317 138.07896 38947 ft 519 kts 146°
2026-05-07 04:23 38.95832 138.13019 38944 ft 519 kts 146°
2026-05-07 04:24 38.90421 138.19156 38953 ft 519 kts 146°
2026-05-07 04:24 38.84993 138.25295 38954 ft 519 kts 146°
2026-05-07 04:25 38.79580 138.31415 38955 ft 518 kts 146°
2026-05-07 04:25 38.74164 138.37519 38955 ft 518 kts 147°
2026-05-07 04:26 38.68758 138.43606 38957 ft 518 kts 146°
2026-05-07 04:26 38.63421 138.49835 38962 ft 519 kts 145°
2026-05-07 04:27 38.58154 138.56046 38967 ft 519 kts 145°
2026-05-07 04:27 38.52841 138.62268 38966 ft 518 kts 145°
2026-05-07 04:28 38.47508 138.68478 38967 ft 518 kts 145°
2026-05-07 04:28 38.42181 138.74661 38963 ft 518 kts 144°
2026-05-07 04:29 38.36850 138.80837 38969 ft 517 kts 144°
2026-05-07 04:29 38.31559 138.86956 38973 ft 516 kts 144°
2026-05-07 04:30 38.26232 138.93101 38971 ft 516 kts 144°
2026-05-07 04:30 38.20917 138.99222 38973 ft 515 kts 144°
2026-05-07 04:31 38.15592 139.05342 38964 ft 515 kts 144°
2026-05-07 04:31 38.10273 139.11441 38976 ft 515 kts 144°
2026-05-07 04:32 38.04952 139.17531 38952 ft 515 kts 144°
2026-05-07 04:32 37.99617 139.23622 38976 ft 516 kts 144°
2026-05-07 04:33 37.94310 139.29671 38968 ft 516 kts 144°
2026-05-07 04:33 37.88966 139.35750 38968 ft 516 kts 144°
2026-05-07 04:34 37.83614 139.41826 38973 ft 516 kts 144°
2026-05-07 04:34 37.78267 139.47883 38975 ft 516 kts 144°
2026-05-07 04:35 37.72924 139.53925 38978 ft 515 kts 144°
2026-05-07 04:35 37.68080 139.60716 38965 ft 525 kts 133°
2026-05-07 04:36 37.63764 139.68150 38965 ft 525 kts 130°
2026-05-07 04:36 37.59533 139.75642 38960 ft 524 kts 130°
2026-05-07 04:37 37.55317 139.83074 38961 ft 524 kts 131°
2026-05-07 04:37 37.51054 139.90531 38954 ft 524 kts 131°
2026-05-07 04:38 37.46789 139.97960 38950 ft 524 kts 131°
2026-05-07 04:38 37.42518 140.05384 38946 ft 522 kts 131°
2026-05-07 04:39 37.38259 140.12769 38938 ft 521 kts 131°
2026-05-07 04:39 37.33993 140.20152 38927 ft 521 kts 131°
2026-05-07 04:40 37.29734 140.27500 38934 ft 520 kts 131°
2026-05-07 04:40 37.25471 140.34819 38933 ft 518 kts 133°
2026-05-07 04:41 37.20423 140.40968 38937 ft 502 kts 151°
2026-05-07 04:41 37.14263 140.44644 38938 ft 483 kts 171°
2026-05-07 04:42 37.07729 140.45527 38925 ft 467 kts 189°
2026-05-07 04:42 37.01491 140.43809 38941 ft 455 kts 206°
2026-05-07 04:43 36.95531 140.41125 38942 ft 459 kts 199°
2026-05-07 04:43 36.89365 140.39185 38938 ft 460 kts 198°
2026-05-07 04:44 36.83114 140.37396 38937 ft 461 kts 197°
2026-05-07 04:44 36.76749 140.36080 38942 ft 470 kts 187°
2026-05-07 04:45 36.70181 140.36950 38937 ft 484 kts 169°
2026-05-07 04:45 36.63743 140.39609 38937 ft 489 kts 166°
2026-05-07 04:46 36.57347 140.42538 38943 ft 490 kts 165°
2026-05-07 04:46 36.50939 140.45458 38934 ft 490 kts 166°
2026-05-07 04:47 36.44523 140.48330 38950 ft 489 kts 166°
2026-05-07 04:47 36.38122 140.51170 38956 ft 489 kts 166°
2026-05-07 04:48 36.31725 140.54001 38960 ft 487 kts 167°
2026-05-07 04:48 36.25391 140.56802 38960 ft 485 kts 167°
2026-05-07 04:49 36.19039 140.59606 38957 ft 485 kts 167°
2026-05-07 04:49 36.12695 140.62402 38963 ft 483 kts 167°
2026-05-07 04:50 36.06352 140.65192 38946 ft 483 kts 167°
2026-05-07 04:50 36.00018 140.67973 38949 ft 483 kts 167°
2026-05-07 04:51 35.93670 140.70756 38952 ft 483 kts 167°
2026-05-07 04:51 35.87334 140.73530 38952 ft 483 kts 167°
2026-05-07 04:52 35.81031 140.76285 38957 ft 483 kts 167°
2026-05-07 04:52 35.74742 140.79289 38957 ft 490 kts 160°
2026-05-07 04:53 35.69087 140.84219 38940 ft 507 kts 144°
2026-05-07 04:53 35.63982 140.90263 38970 ft 513 kts 142°
2026-05-07 04:54 35.58929 140.96481 38963 ft 514 kts 142°
2026-05-07 04:54 35.53868 141.02666 38961 ft 514 kts 142°
2026-05-07 04:55 35.48755 141.08844 38968 ft 516 kts 142°
2026-05-07 04:55 35.43621 141.15021 38968 ft 516 kts 142°
2026-05-07 04:56 35.38218 141.20570 38972 ft 505 kts 154°
2026-05-07 04:56 35.32288 141.25152 38969 ft 504 kts 156°
2026-05-07 04:57 35.26290 141.29580 38960 ft 503 kts 156°
2026-05-07 04:57 35.20278 141.34001 38972 ft 504 kts 156°
2026-05-07 04:58 35.14279 141.38431 38975 ft 505 kts 156°
2026-05-07 04:58 35.08277 141.42867 38984 ft 504 kts 156°
2026-05-07 04:59 35.02287 141.47292 38982 ft 502 kts 156°
2026-05-07 04:59 34.96314 141.51693 38952 ft 502 kts 156°
2026-05-07 05:00 34.90337 141.56088 38970 ft 500 kts 156°
2026-05-07 05:00 34.84379 141.60461 38971 ft 500 kts 156°
2026-05-07 05:01 34.78413 141.64833 38980 ft 500 kts 156°
2026-05-07 05:01 34.72457 141.69191 38986 ft 500 kts 156°
2026-05-07 05:02 34.66532 141.73524 38994 ft 500 kts 156°
2026-05-07 05:02 34.60570 141.77873 38995 ft 498 kts 156°
2026-05-07 05:03 34.54621 141.82200 38998 ft 498 kts 156°
2026-05-07 05:03 34.48662 141.86527 39002 ft 499 kts 156°
2026-05-07 05:04 34.42705 141.90849 39009 ft 499 kts 156°
2026-05-07 05:04 34.36745 141.95166 39011 ft 499 kts 156°
2026-05-07 05:05 34.30815 141.99456 39004 ft 499 kts 156°
2026-05-07 05:05 34.24831 142.03778 39018 ft 497 kts 156°
2026-05-07 05:06 34.18918 142.08039 39023 ft 498 kts 156°
2026-05-07 05:06 34.12960 142.12323 39015 ft 498 kts 157°
2026-05-07 05:07 34.07018 142.16596 39026 ft 496 kts 156°
2026-05-07 05:07 34.01078 142.20856 39028 ft 496 kts 156°
2026-05-07 05:08 33.95152 142.25100 39031 ft 495 kts 157°
2026-05-07 05:08 33.89268 142.29307 39033 ft 494 kts 157°
2026-05-07 05:09 33.83506 142.33917 39037 ft 506 kts 146°
2026-05-07 05:09 33.78894 142.40474 39043 ft 524 kts 128°
2026-05-07 05:10 33.75191 142.48071 39048 ft 528 kts 125°
2026-05-07 05:10 33.71619 142.55776 39043 ft 528 kts 125°
2026-05-07 05:11 33.68015 142.63473 39046 ft 529 kts 125°
2026-05-07 05:11 33.64371 142.71158 39053 ft 529 kts 126°
2026-05-07 05:12 33.60719 142.78813 39058 ft 529 kts 126°
2026-05-07 05:12 33.57075 142.86431 39052 ft 529 kts 126°
2026-05-07 05:13 33.53411 142.94079 39063 ft 529 kts 126°
2026-05-07 05:13 33.49741 143.01728 39067 ft 529 kts 126°
2026-05-07 05:14 33.46065 143.09368 39055 ft 530 kts 126°
2026-05-07 05:14 33.42377 143.17021 39064 ft 529 kts 126°
2026-05-07 05:15 33.38691 143.24655 39063 ft 529 kts 126°
2026-05-07 05:15 33.35031 143.32225 39081 ft 530 kts 126°
2026-05-07 05:16 33.31320 143.39850 39075 ft 529 kts 126°
2026-05-07 05:16 33.27616 143.47448 39075 ft 529 kts 126°
2026-05-07 05:17 33.24534 143.53763 39079 ft 529 kts 126°
2026-05-07 05:17 33.20820 143.61359 39068 ft 530 kts 126°
2026-05-07 05:18 33.17102 143.68954 39083 ft 528 kts 126°
2026-05-07 05:18 33.13390 143.76516 39083 ft 528 kts 126°
2026-05-07 05:19 33.09663 143.84092 39081 ft 529 kts 126°
2026-05-07 05:19 33.05946 143.91632 39086 ft 529 kts 126°
2026-05-07 05:20 33.02207 143.99205 39088 ft 529 kts 126°
2026-05-07 05:20 32.98469 144.06758 39092 ft 529 kts 126°
2026-05-07 05:21 32.92852 144.18081 39092 ft 527 kts 127°
2026-05-07 05:22 32.89129 144.25567 39096 ft 525 kts 126°
2026-05-07 05:22 32.85400 144.33044 39097 ft 526 kts 126°
2026-05-07 05:23 32.81680 144.40488 39090 ft 526 kts 127°
2026-05-07 05:23 32.77946 144.47953 39103 ft 525 kts 127°
2026-05-07 05:24 32.74206 144.55409 39102 ft 525 kts 126°
2026-05-07 05:24 32.70459 144.62864 39107 ft 525 kts 127°
2026-05-07 05:25 32.66735 144.70262 39107 ft 524 kts 127°
2026-05-07 05:25 32.62994 144.77678 39104 ft 523 kts 126°
2026-05-07 05:26 32.59247 144.85083 39107 ft 525 kts 127°
2026-05-07 05:26 32.55484 144.92511 39108 ft 525 kts 127°
2026-05-07 05:27 32.51754 144.99866 39108 ft 522 kts 127°
2026-05-07 05:27 32.48011 145.07225 39109 ft 522 kts 127°
2026-05-07 05:28 32.44253 145.14597 39118 ft 523 kts 127°
2026-05-07 05:28 32.40483 145.21980 39103 ft 523 kts 127°
2026-05-07 05:29 32.36823 145.29136 39109 ft 521 kts 126°
2026-05-07 05:29 32.33059 145.36477 39111 ft 523 kts 126°
2026-05-07 05:30 32.29286 145.43822 39111 ft 523 kts 126°
2026-05-07 05:30 32.25530 145.51123 39122 ft 522 kts 127°
2026-05-07 05:31 32.21754 145.58447 39127 ft 523 kts 126°
2026-05-07 05:31 32.17963 145.65783 39127 ft 524 kts 126°
2026-05-07 05:32 32.14161 145.73129 39129 ft 524 kts 126°
2026-05-07 05:32 32.10358 145.80464 39127 ft 523 kts 126°
2026-05-07 05:33 32.06630 145.87636 39133 ft 525 kts 126°
2026-05-07 05:33 32.02666 145.94789 39133 ft 520 kts 134°
2026-05-07 05:34 31.97412 146.00377 39126 ft 502 kts 154°
2026-05-07 05:34 31.91163 146.03779 39134 ft 492 kts 165°
2026-05-07 05:35 31.84742 146.06565 39135 ft 493 kts 166°
2026-05-07 05:35 31.78268 146.09310 39119 ft 495 kts 166°
2026-05-07 05:36 31.71845 146.12074 39137 ft 494 kts 165°
2026-05-07 05:36 31.65394 146.14872 39137 ft 493 kts 165°
2026-05-07 05:37 31.58957 146.17665 39137 ft 493 kts 165°
2026-05-07 05:37 31.52511 146.20457 39143 ft 493 kts 165°
2026-05-07 05:38 31.46075 146.23239 39143 ft 493 kts 165°
2026-05-07 05:38 31.39672 146.26003 39144 ft 493 kts 165°
2026-05-07 05:39 31.33235 146.28777 39141 ft 491 kts 165°
2026-05-07 05:39 31.26838 146.31531 39141 ft 490 kts 165°
2026-05-07 05:40 31.20414 146.34289 39143 ft 493 kts 165°
2026-05-07 05:40 31.13959 146.37056 39142 ft 495 kts 165°
2026-05-07 05:41 31.07538 146.39809 39143 ft 494 kts 165°
2026-05-07 05:41 31.01088 146.42570 39143 ft 494 kts 165°
2026-05-07 05:42 30.94639 146.45325 39138 ft 494 kts 165°
2026-05-07 05:42 30.88174 146.48082 39143 ft 494 kts 165°
2026-05-07 05:43 30.81718 146.50833 39143 ft 494 kts 165°
2026-05-07 05:43 30.75251 146.53584 39130 ft 494 kts 165°
2026-05-07 05:44 30.68823 146.56313 39143 ft 495 kts 165°
2026-05-07 05:44 30.62358 146.59056 39146 ft 495 kts 165°
2026-05-07 05:45 30.55892 146.61795 39146 ft 495 kts 165°
2026-05-07 05:45 30.49408 146.64536 39143 ft 496 kts 165°
2026-05-07 05:46 30.42942 146.67266 39146 ft 498 kts 165°
2026-05-07 05:46 30.36427 146.70015 39151 ft 498 kts 165°
2026-05-07 05:47 30.29919 146.72756 39148 ft 499 kts 164°
2026-05-07 05:47 30.23376 146.75507 39152 ft 500 kts 164°
2026-05-07 05:48 30.16820 146.78261 39154 ft 501 kts 164°
2026-05-07 05:48 30.10274 146.81007 39141 ft 500 kts 164°
2026-05-07 05:49 30.03772 146.83731 39151 ft 499 kts 164°
2026-05-07 05:49 29.97244 146.86469 39150 ft 500 kts 164°
2026-05-07 05:50 29.90700 146.89202 39146 ft 500 kts 164°
2026-05-07 05:50 29.84154 146.91927 39148 ft 499 kts 164°
2026-05-07 05:51 29.77642 146.94637 39148 ft 499 kts 164°
2026-05-07 05:51 29.71109 146.97354 39154 ft 499 kts 164°
2026-05-07 05:52 29.64568 147.00072 39153 ft 499 kts 164°
2026-05-07 05:52 29.58081 147.02764 39151 ft 498 kts 164°
2026-05-07 05:53 29.51554 147.05467 39152 ft 498 kts 164°
2026-05-07 05:53 29.45037 147.08163 39152 ft 498 kts 164°
2026-05-07 05:54 29.38510 147.10860 39151 ft 498 kts 164°
2026-05-07 05:54 29.31984 147.13552 39152 ft 499 kts 164°
2026-05-07 05:55 29.25443 147.16247 39148 ft 500 kts 164°
2026-05-07 05:55 29.18893 147.18942 39163 ft 499 kts 164°
2026-05-07 05:56 29.12363 147.21626 39151 ft 499 kts 164°
2026-05-07 05:56 29.05866 147.24292 39151 ft 499 kts 164°
2026-05-07 05:57 28.99332 147.26969 39148 ft 499 kts 164°
2026-05-07 05:57 28.92778 147.29651 39153 ft 500 kts 164°
2026-05-07 05:58 28.86232 147.32326 39155 ft 500 kts 164°
2026-05-07 05:58 28.79676 147.35003 39145 ft 500 kts 164°
2026-05-07 05:59 28.73170 147.37655 39152 ft 499 kts 164°
2026-05-07 05:59 28.66637 147.40314 39148 ft 499 kts 164°
2026-05-07 06:00 28.60091 147.42975 39149 ft 499 kts 164°
2026-05-07 06:00 28.53537 147.45635 39151 ft 500 kts 164°
2026-05-07 06:01 28.47010 147.48281 39147 ft 501 kts 164°
2026-05-07 06:01 28.40448 147.50939 39149 ft 501 kts 164°
2026-05-07 06:02 28.33874 147.53597 39145 ft 501 kts 164°
2026-05-07 06:02 28.27293 147.56255 39153 ft 501 kts 164°
2026-05-07 06:03 28.20721 147.58906 39153 ft 501 kts 164°
2026-05-07 06:03 28.14147 147.61553 39149 ft 502 kts 164°
2026-05-07 06:04 28.07574 147.64198 39147 ft 501 kts 164°
2026-05-07 06:04 28.00989 147.66843 39147 ft 502 kts 164°
2026-05-07 06:05 27.94446 147.69469 39142 ft 502 kts 164°
2026-05-07 06:05 27.87869 147.72104 39141 ft 502 kts 164°
2026-05-07 06:06 27.81284 147.74739 39143 ft 501 kts 164°
2026-05-07 06:06 27.74700 147.77370 39143 ft 501 kts 164°
2026-05-07 06:07 27.68126 147.79995 39137 ft 501 kts 164°
2026-05-07 06:07 27.61556 147.82614 39144 ft 501 kts 164°
2026-05-07 06:08 27.55024 147.85215 39141 ft 500 kts 164°
2026-05-07 06:08 27.48449 147.87829 39141 ft 500 kts 164°
2026-05-07 06:09 27.41884 147.90436 39139 ft 500 kts 163°
2026-05-07 06:09 27.35313 147.93042 39142 ft 500 kts 163°
2026-05-07 06:10 27.28753 147.95642 39141 ft 499 kts 163°
2026-05-07 06:10 27.22213 147.98229 39142 ft 498 kts 163°
2026-05-07 06:11 27.15708 148.00799 39138 ft 498 kts 163°
2026-05-07 06:11 27.09168 148.03380 39137 ft 498 kts 163°
2026-05-07 06:12 27.02617 148.05962 39136 ft 498 kts 163°
2026-05-07 06:12 26.96072 148.08538 39134 ft 500 kts 163°
2026-05-07 06:13 26.89479 148.11130 39137 ft 503 kts 163°
2026-05-07 06:13 26.82868 148.13726 39140 ft 503 kts 163°
2026-05-07 06:14 26.76268 148.16316 39137 ft 503 kts 163°
2026-05-07 06:14 26.69700 148.18889 39133 ft 503 kts 164°
2026-05-07 06:15 26.63092 148.21474 39127 ft 504 kts 163°
2026-05-07 06:15 26.57538 148.23644 39135 ft 505 kts 163°
2026-05-07 06:16 26.50944 148.26219 39125 ft 505 kts 164°
2026-05-07 06:16 26.44322 148.28802 39132 ft 504 kts 164°
2026-05-07 06:17 26.37696 148.31382 39130 ft 504 kts 164°
2026-05-07 06:17 26.31081 148.33955 39125 ft 504 kts 164°
2026-05-07 06:18 26.24456 148.36528 39130 ft 503 kts 164°
2026-05-07 06:18 26.17839 148.39096 39128 ft 503 kts 164°
2026-05-07 06:19 26.11236 148.41655 39129 ft 503 kts 164°
2026-05-07 06:19 26.04634 148.44210 39126 ft 503 kts 164°
2026-05-07 06:20 25.98066 148.46750 39130 ft 502 kts 164°
2026-05-07 06:20 25.91469 148.49297 39121 ft 502 kts 164°
2026-05-07 06:21 25.84869 148.51843 39116 ft 503 kts 164°
2026-05-07 06:21 25.78243 148.54396 39125 ft 503 kts 164°
2026-05-07 06:22 25.71637 148.56937 39121 ft 503 kts 164°
2026-05-07 06:22 25.61753 148.60735 39125 ft 503 kts 164°
2026-05-07 06:23 25.55143 148.63271 39118 ft 503 kts 164°
2026-05-07 06:23 25.48534 148.65804 39121 ft 503 kts 164°
2026-05-07 06:24 25.41916 148.68338 39117 ft 503 kts 164°
2026-05-07 06:24 25.35296 148.70868 39116 ft 503 kts 164°
2026-05-07 06:25 25.28688 148.73392 39116 ft 502 kts 164°
2026-05-07 06:25 25.22075 148.75915 39116 ft 502 kts 164°
2026-05-07 06:26 25.15471 148.78431 39113 ft 502 kts 164°
2026-05-07 06:26 25.08863 148.80945 39112 ft 503 kts 164°
2026-05-07 06:27 25.02246 148.83462 39110 ft 502 kts 164°
2026-05-07 06:27 24.95680 148.85960 39110 ft 502 kts 164°
2026-05-07 06:28 24.89083 148.88466 39113 ft 502 kts 164°
2026-05-07 06:28 24.82462 148.90977 39108 ft 502 kts 164°
2026-05-07 06:29 24.75894 148.93465 39108 ft 502 kts 164°
2026-05-07 06:29 24.69251 148.95981 39107 ft 502 kts 164°
2026-05-07 06:30 24.62683 148.98465 39107 ft 502 kts 164°
2026-05-07 06:30 24.56072 149.00963 39099 ft 502 kts 164°
2026-05-07 06:31 24.49465 149.03457 39103 ft 501 kts 164°
2026-05-07 06:31 24.42872 149.05942 39106 ft 502 kts 164°
2026-05-07 06:32 24.36270 149.08427 39100 ft 502 kts 164°
2026-05-07 06:32 24.29701 149.10899 39102 ft 502 kts 164°
2026-05-07 06:33 24.23101 149.13378 39103 ft 501 kts 164°
2026-05-07 06:33 24.16492 149.15859 39100 ft 501 kts 164°
2026-05-07 06:34 24.09894 149.18332 39096 ft 501 kts 164°
2026-05-07 06:34 24.03294 149.20804 39094 ft 501 kts 164°
2026-05-07 06:35 23.96687 149.23275 39093 ft 501 kts 164°
2026-05-07 06:35 23.90125 149.25728 39088 ft 501 kts 164°
2026-05-07 06:36 23.83528 149.28190 39089 ft 501 kts 164°
2026-05-07 06:36 23.76933 149.30649 39091 ft 501 kts 164°
2026-05-07 06:37 23.70329 149.33108 39089 ft 501 kts 164°
2026-05-07 06:37 23.63726 149.35565 39086 ft 501 kts 164°
2026-05-07 06:38 23.57121 149.38020 39088 ft 501 kts 164°
2026-05-07 06:38 23.50528 149.40468 39086 ft 501 kts 164°
2026-05-07 06:39 23.43969 149.42901 39086 ft 501 kts 164°
2026-05-07 06:39 23.37377 149.45343 39086 ft 501 kts 164°
2026-05-07 06:40 23.30785 149.47783 39083 ft 501 kts 164°
2026-05-07 06:40 23.24181 149.50224 39083 ft 501 kts 163°
2026-05-07 06:41 23.17590 149.52659 39081 ft 500 kts 163°
2026-05-07 06:41 23.10998 149.55091 39078 ft 501 kts 163°
2026-05-07 06:42 23.04394 149.57525 39074 ft 501 kts 163°
2026-05-07 06:42 22.97801 149.59952 39075 ft 501 kts 163°
2026-05-07 06:43 22.91237 149.62366 39075 ft 501 kts 163°
2026-05-07 06:43 22.84625 149.64796 39075 ft 501 kts 163°
2026-05-07 06:44 22.78013 149.67223 39064 ft 501 kts 163°
2026-05-07 06:44 22.71411 149.69644 39072 ft 501 kts 163°
2026-05-07 06:45 22.64788 149.72070 39072 ft 501 kts 163°
2026-05-07 06:45 22.58188 149.74485 39070 ft 501 kts 163°
2026-05-07 06:46 22.51620 149.76886 39062 ft 501 kts 163°
2026-05-07 06:46 22.45020 149.79296 39066 ft 501 kts 163°
2026-05-07 06:47 22.38421 149.81704 39061 ft 501 kts 163°
2026-05-07 06:47 22.31823 149.84108 39062 ft 501 kts 163°
2026-05-07 06:48 22.25215 149.86514 39064 ft 501 kts 163°
2026-05-07 06:48 22.18617 149.88914 39061 ft 501 kts 163°
2026-05-07 06:49 22.12038 149.91305 39062 ft 501 kts 163°
2026-05-07 06:49 22.05434 149.93702 39061 ft 501 kts 163°
2026-05-07 06:50 21.98830 149.96097 39056 ft 501 kts 163°
2026-05-07 06:50 21.92216 149.98493 39059 ft 501 kts 163°
2026-05-07 06:51 21.85604 150.00886 39058 ft 501 kts 163°
2026-05-07 06:51 21.79001 150.03274 39059 ft 501 kts 163°
2026-05-07 06:52 21.72387 150.05663 39048 ft 501 kts 163°
2026-05-07 06:52 21.65821 150.08033 39053 ft 500 kts 163°
2026-05-07 06:53 21.59228 150.10410 39053 ft 500 kts 163°
2026-05-07 06:53 21.52626 150.12789 39057 ft 500 kts 163°
2026-05-07 06:54 21.46035 150.15161 39042 ft 500 kts 163°
2026-05-07 06:54 21.39449 150.17527 39050 ft 499 kts 163°
2026-05-07 06:55 21.32855 150.19895 39047 ft 499 kts 163°
2026-05-07 06:55 21.26268 150.22259 39049 ft 499 kts 163°
2026-05-07 06:56 21.19714 150.24608 39042 ft 499 kts 163°
2026-05-07 06:56 21.13134 150.26965 39040 ft 498 kts 163°
2026-05-07 06:57 21.06552 150.29321 39045 ft 498 kts 163°
2026-05-07 06:57 20.99972 150.31674 39042 ft 498 kts 163°
2026-05-07 06:58 20.93445 150.34038 39040 ft 498 kts 162°
2026-05-07 06:58 20.86847 150.36452 39039 ft 498 kts 162°
2026-05-07 06:59 20.80294 150.38847 39039 ft 498 kts 162°
2026-05-07 06:59 20.73762 150.41226 39040 ft 498 kts 162°
2026-05-07 07:00 20.67205 150.43611 39032 ft 498 kts 163°
2026-05-07 07:00 20.60640 150.45995 39034 ft 498 kts 163°
2026-05-07 07:01 20.54084 150.48374 39034 ft 498 kts 163°
2026-05-07 07:01 20.47516 150.50756 39032 ft 498 kts 163°
2026-05-07 07:02 20.40959 150.53131 39034 ft 498 kts 163°
2026-05-07 07:02 20.34436 150.55492 39034 ft 498 kts 163°
2026-05-07 07:03 20.27867 150.57868 39032 ft 498 kts 163°
2026-05-07 07:03 20.21308 150.60238 39028 ft 498 kts 163°
2026-05-07 07:04 20.14738 150.62611 39026 ft 498 kts 163°
2026-05-07 07:04 20.08176 150.64978 39025 ft 498 kts 163°
2026-05-07 07:05 20.01648 150.67330 39023 ft 498 kts 163°
2026-05-07 07:05 19.95077 150.69696 39023 ft 498 kts 163°
2026-05-07 07:06 19.88505 150.72060 39021 ft 498 kts 163°
2026-05-07 07:06 19.81944 150.74418 39018 ft 498 kts 163°
2026-05-07 07:07 19.75376 150.76777 39021 ft 498 kts 163°
2026-05-07 07:07 19.68851 150.79118 39020 ft 498 kts 163°
2026-05-07 07:08 19.62291 150.81469 39021 ft 498 kts 163°
2026-05-07 07:08 19.55721 150.83823 39018 ft 498 kts 163°
2026-05-07 07:09 19.50231 150.85788 39018 ft 498 kts 164°
2026-05-07 07:09 19.43702 150.88123 39018 ft 498 kts 164°
2026-05-07 07:10 19.37139 150.90468 39018 ft 498 kts 164°
2026-05-07 07:10 19.30566 150.92814 39018 ft 498 kts 164°
2026-05-07 07:11 19.23995 150.95159 39015 ft 497 kts 164°
2026-05-07 07:11 19.17442 150.97495 39015 ft 497 kts 164°
2026-05-07 07:12 19.10926 150.99815 39009 ft 497 kts 164°
2026-05-07 07:12 19.04377 151.02145 39009 ft 497 kts 164°
2026-05-07 07:13 18.97817 151.04477 39006 ft 497 kts 165°
2026-05-07 07:13 18.91272 151.06803 39007 ft 496 kts 165°
2026-05-07 07:14 18.84728 151.09125 39007 ft 496 kts 165°
2026-05-07 07:14 18.78173 151.11449 39007 ft 496 kts 165°
2026-05-07 07:15 18.71618 151.13772 39009 ft 496 kts 165°
2026-05-07 07:15 18.65125 151.16071 39006 ft 495 kts 165°
2026-05-07 07:16 18.58604 151.18379 38998 ft 494 kts 165°
2026-05-07 07:16 18.52076 151.20686 38998 ft 494 kts 165°
2026-05-07 07:17 18.45559 151.22987 39001 ft 494 kts 165°
2026-05-07 07:17 18.39035 151.25290 39001 ft 494 kts 165°
2026-05-07 07:18 18.32506 151.27592 38993 ft 494 kts 165°
2026-05-07 07:18 18.26032 151.29873 38994 ft 494 kts 165°
2026-05-07 07:19 18.19504 151.32172 38993 ft 494 kts 165°
2026-05-07 07:19 18.12974 151.34469 38986 ft 495 kts 165°
2026-05-07 07:20 18.06439 151.36765 38994 ft 496 kts 165°
2026-05-07 07:20 17.99885 151.39068 38991 ft 496 kts 165°
2026-05-07 07:21 17.93372 151.41355 38990 ft 496 kts 165°
2026-05-07 07:21 17.86814 151.43654 38984 ft 496 kts 165°
2026-05-07 07:22 17.80265 151.45949 38994 ft 497 kts 165°
2026-05-07 07:22 17.73709 151.48244 38981 ft 497 kts 165°
2026-05-07 07:23 17.67141 151.50542 38980 ft 497 kts 165°
2026-05-07 07:23 17.60585 151.52835 38980 ft 497 kts 165°
2026-05-07 07:24 17.54018 151.55128 38985 ft 497 kts 165°
2026-05-07 07:24 17.47458 151.57418 38976 ft 497 kts 165°
2026-05-07 07:25 17.37608 151.60853 38986 ft 497 kts 165°
2026-05-07 07:26 17.31078 151.63128 38968 ft 497 kts 165°
2026-05-07 07:26 17.24506 151.65415 38977 ft 498 kts 165°
2026-05-07 07:27 17.17912 151.67709 38974 ft 499 kts 165°
2026-05-07 07:27 17.11327 151.69998 38981 ft 499 kts 165°
2026-05-07 07:28 17.04728 151.72291 38971 ft 499 kts 165°
2026-05-07 07:28 16.98142 151.74577 38967 ft 499 kts 165°
2026-05-07 07:29 16.91545 151.76865 38972 ft 499 kts 165°
2026-05-07 07:29 16.84993 151.79136 38963 ft 499 kts 165°
2026-05-07 07:30 16.78408 151.81416 38964 ft 499 kts 165°
2026-05-07 07:30 16.71814 151.83699 38967 ft 499 kts 165°
2026-05-07 07:31 16.65231 151.85975 38964 ft 499 kts 165°
2026-05-07 07:31 16.58637 151.88254 38967 ft 499 kts 165°
2026-05-07 07:32 16.52042 151.90531 38962 ft 499 kts 165°
2026-05-07 07:32 16.45492 151.92792 38974 ft 499 kts 165°
2026-05-07 07:33 16.38904 151.95063 38959 ft 499 kts 165°
2026-05-07 07:33 16.32306 151.97337 38957 ft 500 kts 165°
2026-05-07 07:34 16.25695 151.99614 38956 ft 500 kts 165°
2026-05-07 07:34 16.19096 152.01885 38954 ft 500 kts 165°
2026-05-07 07:35 16.12488 152.04157 38960 ft 500 kts 165°
2026-05-07 07:35 16.05892 152.06423 38960 ft 499 kts 165°
2026-05-07 07:36 15.99337 152.08674 38956 ft 499 kts 165°
2026-05-07 07:36 15.92753 152.10934 38954 ft 498 kts 165°
2026-05-07 07:37 15.86169 152.13192 38953 ft 498 kts 165°
2026-05-07 07:37 15.79567 152.15438 39102 ft 498 kts 166°
2026-05-07 07:37 15.76274 152.16515 39290 ft 496 kts 166°
2026-05-07 07:38 15.72977 152.17578 39437 ft 495 kts 166°
2026-05-07 07:38 15.69681 152.18639 39564 ft 495 kts 166°
2026-05-07 07:38 15.66387 152.19702 39678 ft 495 kts 166°
2026-05-07 07:38 15.63139 152.20753 39794 ft 495 kts 166°
2026-05-07 07:39 15.59807 152.21836 39914 ft 495 kts 166°
2026-05-07 07:39 15.56575 152.22887 40015 ft 494 kts 166°
2026-05-07 07:39 15.53290 152.23957 40112 ft 494 kts 166°
2026-05-07 07:39 15.50018 152.25022 40218 ft 494 kts 166°
2026-05-07 07:40 15.46739 152.26090 40342 ft 493 kts 166°
2026-05-07 07:40 15.43468 152.27155 40449 ft 492 kts 166°
2026-05-07 07:40 15.40199 152.28218 40554 ft 492 kts 166°
2026-05-07 07:41 15.33664 152.30342 40723 ft 491 kts 166°
2026-05-07 07:41 15.27146 152.32459 40913 ft 491 kts 166°
2026-05-07 07:42 15.20649 152.34567 40948 ft 491 kts 166°
2026-05-07 07:42 15.14135 152.36680 40945 ft 490 kts 166°
2026-05-07 07:43 15.07617 152.38793 40938 ft 490 kts 166°
2026-05-07 07:43 15.01111 152.40901 40941 ft 490 kts 166°
2026-05-07 07:44 14.94594 152.43011 40935 ft 490 kts 166°
2026-05-07 07:44 14.88119 152.45106 40935 ft 490 kts 166°
2026-05-07 07:45 14.81613 152.47209 40933 ft 490 kts 166°
2026-05-07 07:45 14.75097 152.49315 40937 ft 490 kts 166°
2026-05-07 07:46 14.68591 152.51416 40933 ft 490 kts 166°
2026-05-07 07:46 14.62074 152.53519 40933 ft 490 kts 166°
2026-05-07 07:47 14.55604 152.55606 40932 ft 489 kts 166°
2026-05-07 07:47 14.49111 152.57699 40934 ft 489 kts 166°
2026-05-07 07:48 14.42613 152.59793 40933 ft 489 kts 166°
2026-05-07 07:48 14.36115 152.61884 40934 ft 489 kts 166°
2026-05-07 07:49 14.29629 152.63971 40928 ft 488 kts 166°
2026-05-07 07:49 14.23135 152.66059 40928 ft 488 kts 165°
2026-05-07 07:50 14.16660 152.68140 40928 ft 488 kts 165°
2026-05-07 07:50 14.10186 152.70219 40933 ft 487 kts 165°
2026-05-07 07:51 14.03746 152.72286 40925 ft 487 kts 165°
2026-05-07 07:51 13.97262 152.74366 40917 ft 487 kts 165°
2026-05-07 07:52 13.90797 152.76439 40918 ft 486 kts 165°
2026-05-07 07:52 13.84318 152.78515 40919 ft 486 kts 165°
2026-05-07 07:53 13.77903 152.80570 40923 ft 486 kts 165°
2026-05-07 07:53 13.71433 152.82640 40921 ft 486 kts 165°
2026-05-07 07:54 13.64975 152.84706 40916 ft 486 kts 165°
2026-05-07 07:54 13.58521 152.86769 40916 ft 486 kts 166°
2026-05-07 07:55 13.52057 152.88834 40920 ft 486 kts 166°
2026-05-07 07:55 13.45637 152.90884 40919 ft 486 kts 166°
2026-05-07 07:56 13.39189 152.92941 40919 ft 485 kts 166°
2026-05-07 07:56 13.32745 152.94996 40922 ft 484 kts 165°
2026-05-07 07:57 13.26317 152.97046 40915 ft 482 kts 165°
2026-05-07 07:57 13.19904 152.99090 40922 ft 482 kts 165°
2026-05-07 07:58 13.13483 153.01134 40903 ft 483 kts 165°
2026-05-07 07:58 13.07117 153.03160 40902 ft 482 kts 165°
2026-05-07 07:59 13.00718 153.05195 40913 ft 481 kts 165°
2026-05-07 07:59 12.94316 153.07229 40913 ft 481 kts 165°
2026-05-07 08:00 12.87926 153.09261 40899 ft 480 kts 165°
2026-05-07 08:00 12.81549 153.11286 40906 ft 480 kts 165°
2026-05-07 08:01 12.75203 153.13299 40898 ft 481 kts 165°
2026-05-07 08:01 12.68783 153.15335 40896 ft 479 kts 165°
2026-05-07 08:02 12.62462 153.17340 40911 ft 478 kts 165°
2026-05-07 08:02 12.56109 153.19353 40905 ft 478 kts 165°
2026-05-07 08:03 12.49748 153.21368 40905 ft 479 kts 165°
2026-05-07 08:03 12.43393 153.23380 40900 ft 478 kts 165°
2026-05-07 08:04 12.37043 153.25389 40901 ft 476 kts 165°
2026-05-07 08:04 12.30747 153.27380 40897 ft 476 kts 165°
2026-05-07 08:05 12.24428 153.29378 40902 ft 474 kts 165°
2026-05-07 08:05 12.18131 153.31367 40896 ft 474 kts 165°
2026-05-07 08:06 12.12886 153.33023 40899 ft 475 kts 165°
2026-05-07 08:06 12.06562 153.35017 40895 ft 475 kts 165°
2026-05-07 08:07 12.00248 153.37009 40894 ft 474 kts 165°
2026-05-07 08:07 11.93935 153.39000 40890 ft 474 kts 165°
2026-05-07 08:08 11.87620 153.40991 40889 ft 476 kts 165°
2026-05-07 08:08 11.81305 153.42981 40888 ft 475 kts 165°
2026-05-07 08:09 11.75035 153.44956 40889 ft 475 kts 165°
2026-05-07 08:09 11.68710 153.46947 40881 ft 475 kts 165°
2026-05-07 08:10 11.62402 153.48931 40883 ft 475 kts 165°
2026-05-07 08:10 11.56078 153.50919 40885 ft 475 kts 165°
2026-05-07 08:11 11.49765 153.52903 40887 ft 475 kts 165°
2026-05-07 08:11 11.43457 153.54884 40885 ft 474 kts 165°
2026-05-07 08:12 11.37198 153.56850 40882 ft 473 kts 165°
2026-05-07 08:12 11.30914 153.58822 40881 ft 473 kts 165°
2026-05-07 08:13 11.24614 153.60798 40878 ft 474 kts 165°
2026-05-07 08:13 11.18310 153.62774 40879 ft 475 kts 165°
2026-05-07 08:14 11.11992 153.64754 40881 ft 474 kts 164°
2026-05-07 08:14 11.05706 153.66724 40873 ft 472 kts 164°
2026-05-07 08:15 10.99416 153.68693 40878 ft 472 kts 164°
2026-05-07 08:15 10.93132 153.70661 40874 ft 473 kts 164°
2026-05-07 08:16 10.86835 153.72630 40871 ft 474 kts 164°
2026-05-07 08:16 10.80569 153.74589 40880 ft 473 kts 163°
2026-05-07 08:17 10.74281 153.76554 40877 ft 473 kts 163°
2026-05-07 08:17 10.67994 153.78519 40871 ft 471 kts 163°
2026-05-07 08:18 10.61720 153.80479 40875 ft 472 kts 163°
2026-05-07 08:18 10.55459 153.82434 40869 ft 470 kts 163°
2026-05-07 08:19 10.49237 153.84375 40868 ft 470 kts 163°
2026-05-07 08:19 10.42968 153.86328 40870 ft 472 kts 163°
2026-05-07 08:20 10.36677 153.88290 40867 ft 472 kts 163°
2026-05-07 08:20 10.30381 153.90253 40874 ft 473 kts 163°
2026-05-07 08:21 10.24144 153.92197 40869 ft 470 kts 163°
2026-05-07 08:21 10.17895 153.94142 40861 ft 470 kts 163°
2026-05-07 08:22 10.11638 153.96090 40867 ft 470 kts 163°
2026-05-07 08:22 10.05366 153.98041 40867 ft 472 kts 163°
2026-05-07 08:23 9.99077 153.99996 40866 ft 473 kts 163°
2026-05-07 08:23 9.92773 154.01956 40867 ft 473 kts 163°
2026-05-07 08:24 9.86532 154.03895 40861 ft 471 kts 163°
2026-05-07 08:24 9.80266 154.05842 40863 ft 470 kts 163°
2026-05-07 08:25 9.74014 154.07783 40865 ft 470 kts 163°
2026-05-07 08:25 9.67750 154.09728 40868 ft 470 kts 163°
2026-05-07 08:26 9.58370 154.12637 40861 ft 470 kts 163°
2026-05-07 08:26 9.52156 154.14564 40859 ft 470 kts 162°
2026-05-07 08:27 9.45894 154.16506 40862 ft 470 kts 162°
2026-05-07 08:27 9.39627 154.18448 40860 ft 470 kts 162°
2026-05-07 08:28 9.33350 154.20320 40859 ft 471 kts 163°
2026-05-07 08:28 9.27084 154.22113 40858 ft 470 kts 164°
2026-05-07 08:29 9.20789 154.23923 40862 ft 470 kts 163°
2026-05-07 08:29 9.14481 154.25752 40856 ft 472 kts 163°
2026-05-07 08:30 9.08161 154.27590 40857 ft 473 kts 163°
2026-05-07 08:30 9.01822 154.29432 40861 ft 473 kts 163°
2026-05-07 08:31 8.95493 154.31270 40853 ft 473 kts 163°
2026-05-07 08:31 8.89196 154.33098 40854 ft 473 kts 163°
2026-05-07 08:32 8.82848 154.34940 40859 ft 475 kts 163°
2026-05-07 08:32 8.76483 154.36785 40862 ft 477 kts 162°
2026-05-07 08:33 8.70125 154.38628 40853 ft 477 kts 162°
2026-05-07 08:33 8.63737 154.40480 40854 ft 477 kts 162°
2026-05-07 08:34 8.57355 154.42330 40852 ft 476 kts 162°
2026-05-07 08:34 8.50984 154.44176 40852 ft 477 kts 162°
2026-05-07 08:35 8.44602 154.46024 40853 ft 478 kts 162°
2026-05-07 08:35 8.38245 154.47864 40850 ft 478 kts 162°
2026-05-07 08:36 8.31814 154.49725 40849 ft 478 kts 162°
2026-05-07 08:36 8.25461 154.51563 40851 ft 477 kts 162°
2026-05-07 08:37 8.19068 154.53411 40849 ft 477 kts 162°
2026-05-07 08:37 8.12688 154.55256 40846 ft 477 kts 162°
2026-05-07 08:38 8.06311 154.57099 40850 ft 477 kts 162°
2026-05-07 08:38 7.99923 154.58944 40849 ft 477 kts 162°
2026-05-07 08:39 7.93547 154.60786 40848 ft 477 kts 162°
2026-05-07 08:39 7.87168 154.62627 40846 ft 477 kts 162°
2026-05-07 08:40 7.80802 154.64464 40850 ft 480 kts 162°
2026-05-07 08:40 7.74370 154.66320 40848 ft 480 kts 162°
2026-05-07 08:41 7.67946 154.68174 40840 ft 481 kts 162°
2026-05-07 08:41 7.61505 154.70031 40847 ft 481 kts 162°
2026-05-07 08:42 7.55074 154.71883 40848 ft 481 kts 162°
2026-05-07 08:42 7.48645 154.73735 40846 ft 481 kts 162°
2026-05-07 08:43 7.42206 154.75591 40843 ft 481 kts 162°
2026-05-07 08:43 7.35778 154.77442 40844 ft 481 kts 162°
2026-05-07 08:44 7.29382 154.79283 40842 ft 481 kts 162°
2026-05-07 08:44 7.22943 154.81136 40841 ft 481 kts 162°
2026-05-07 08:45 7.16516 154.82986 40842 ft 481 kts 162°
2026-05-07 08:45 7.10077 154.84838 40844 ft 481 kts 162°
2026-05-07 08:46 7.03650 154.86686 40839 ft 481 kts 162°
2026-05-07 08:46 6.97212 154.88536 40842 ft 481 kts 162°
2026-05-07 08:47 6.90785 154.90383 40843 ft 480 kts 162°
2026-05-07 08:47 6.84353 154.92231 40841 ft 482 kts 162°
2026-05-07 08:48 6.77935 154.94075 40837 ft 483 kts 162°
2026-05-07 08:48 6.71480 154.95929 40839 ft 483 kts 162°
2026-05-07 08:49 6.65014 154.97785 40837 ft 483 kts 162°
2026-05-07 08:49 6.58562 154.99636 40839 ft 482 kts 162°
2026-05-07 08:50 6.52120 155.01484 40837 ft 481 kts 161°
2026-05-07 08:50 6.45684 155.03331 40838 ft 484 kts 161°
2026-05-07 08:51 6.39184 155.05196 40836 ft 485 kts 161°
2026-05-07 08:51 6.32681 155.07059 40841 ft 485 kts 161°
2026-05-07 08:52 6.26191 155.08919 40842 ft 485 kts 161°
2026-05-07 08:52 6.19734 155.10769 40839 ft 485 kts 162°
2026-05-07 08:53 6.13227 155.12633 40838 ft 486 kts 162°
2026-05-07 08:53 6.06713 155.14499 40841 ft 486 kts 162°
2026-05-07 08:54 6.00199 155.16364 40841 ft 486 kts 162°
2026-05-07 08:54 5.93728 155.18216 40841 ft 486 kts 162°
2026-05-07 08:55 5.87213 155.20080 40842 ft 486 kts 162°
2026-05-07 08:55 5.80715 155.21939 40840 ft 484 kts 162°
2026-05-07 08:56 5.74251 155.23788 40837 ft 483 kts 162°
2026-05-07 08:56 5.67790 155.25636 40837 ft 483 kts 162°
2026-05-07 08:57 5.61319 155.27486 40840 ft 483 kts 162°
2026-05-07 08:57 5.54859 155.29333 40837 ft 483 kts 162°
2026-05-07 08:58 5.48422 155.31173 40841 ft 485 kts 162°
2026-05-07 08:58 5.41902 155.33036 40841 ft 487 kts 162°
2026-05-07 08:59 5.35378 155.34899 40843 ft 488 kts 162°
2026-05-07 08:59 5.28845 155.36764 40842 ft 487 kts 162°
2026-05-07 09:00 5.22324 155.38626 40841 ft 487 kts 162°
2026-05-07 09:00 5.15833 155.40479 40842 ft 488 kts 162°
2026-05-07 09:01 5.09293 155.42346 40839 ft 489 kts 162°
2026-05-07 09:01 5.02746 155.44214 40837 ft 489 kts 162°
2026-05-07 09:02 4.96188 155.46084 40845 ft 490 kts 162°
2026-05-07 09:02 4.89612 155.47906 40848 ft 490 kts 162°
2026-05-07 09:03 4.84148 155.49412 40842 ft 490 kts 162°
2026-05-07 09:03 4.77564 155.51235 40839 ft 492 kts 162°
2026-05-07 09:04 4.70948 155.53073 40846 ft 493 kts 162°
2026-05-07 09:04 4.64340 155.54909 40848 ft 493 kts 162°
2026-05-07 09:05 4.57722 155.56748 40847 ft 493 kts 162°
2026-05-07 09:05 4.51105 155.58586 40847 ft 493 kts 162°
2026-05-07 09:06 4.44544 155.60408 40847 ft 493 kts 162°
2026-05-07 09:06 4.37945 155.62240 40847 ft 491 kts 162°
2026-05-07 09:07 4.31362 155.64067 40846 ft 490 kts 162°
2026-05-07 09:07 4.24802 155.65887 40845 ft 489 kts 162°
2026-05-07 09:08 4.18244 155.67708 40843 ft 489 kts 162°
2026-05-07 09:08 4.11675 155.69530 40845 ft 489 kts 162°
2026-05-07 09:09 4.05117 155.71349 40846 ft 489 kts 162°
2026-05-07 09:09 3.98546 155.73172 40846 ft 489 kts 162°
2026-05-07 09:10 3.91986 155.74991 40848 ft 489 kts 162°
2026-05-07 09:10 3.85458 155.76801 40847 ft 489 kts 162°
2026-05-07 09:11 3.78898 155.78620 40846 ft 489 kts 162°
2026-05-07 09:11 3.72338 155.80438 40845 ft 489 kts 162°
2026-05-07 09:12 3.65766 155.82259 40847 ft 489 kts 162°
2026-05-07 09:12 3.59226 155.84071 40846 ft 489 kts 162°
2026-05-07 09:13 3.52621 155.85901 40842 ft 489 kts 162°
2026-05-07 09:13 3.46090 155.87710 40845 ft 490 kts 162°
2026-05-07 09:14 3.39492 155.89538 40848 ft 492 kts 162°
2026-05-07 09:14 3.32892 155.91366 40846 ft 492 kts 162°
2026-05-07 09:15 3.26290 155.93194 40845 ft 492 kts 161°
2026-05-07 09:15 3.19665 155.95028 40848 ft 494 kts 161°
2026-05-07 09:16 3.13032 155.96864 40848 ft 495 kts 162°
2026-05-07 09:16 3.06389 155.98703 40847 ft 494 kts 162°
2026-05-07 09:17 2.99762 156.00536 40848 ft 494 kts 162°
2026-05-07 09:17 2.93128 156.02372 40851 ft 494 kts 162°
2026-05-07 09:18 2.86549 156.04192 40855 ft 494 kts 162°
2026-05-07 09:18 2.79915 156.06027 40854 ft 494 kts 162°
2026-05-07 09:19 2.73297 156.07858 40853 ft 493 kts 162°
2026-05-07 09:19 2.66692 156.09684 40850 ft 492 kts 162°
2026-05-07 09:20 2.60080 156.11513 40854 ft 492 kts 162°
2026-05-07 09:20 2.53511 156.13329 40853 ft 492 kts 162°
2026-05-07 09:21 2.46899 156.15157 40857 ft 492 kts 162°
2026-05-07 09:21 2.40287 156.16985 40855 ft 492 kts 162°
2026-05-07 09:22 2.33688 156.18809 40861 ft 492 kts 162°
2026-05-07 09:22 2.27089 156.20633 40861 ft 492 kts 162°
2026-05-07 09:23 2.20523 156.22448 40858 ft 492 kts 162°
2026-05-07 09:23 2.13877 156.24284 40860 ft 492 kts 162°
2026-05-07 09:24 2.07310 156.26098 40859 ft 492 kts 162°
2026-05-07 09:24 2.00715 156.27921 40858 ft 492 kts 162°
2026-05-07 09:25 1.94125 156.29742 40858 ft 491 kts 162°
2026-05-07 09:25 1.87536 156.31562 40860 ft 491 kts 162°
2026-05-07 09:26 1.80925 156.33388 40860 ft 491 kts 162°
2026-05-07 09:26 1.74338 156.35208 40863 ft 491 kts 162°
2026-05-07 09:27 1.67741 156.37030 40859 ft 491 kts 162°
2026-05-07 09:28 1.57905 156.39746 40862 ft 491 kts 162°
2026-05-07 09:28 1.51322 156.41564 40864 ft 491 kts 162°
2026-05-07 09:29 1.44728 156.43385 40865 ft 491 kts 162°
2026-05-07 09:29 1.38146 156.45202 40867 ft 491 kts 163°
2026-05-07 09:30 1.31564 156.47020 40865 ft 491 kts 163°
2026-05-07 09:30 1.25017 156.48827 40867 ft 491 kts 163°
2026-05-07 09:31 1.18438 156.50644 40868 ft 491 kts 163°
2026-05-07 09:31 1.11847 156.52463 40869 ft 491 kts 163°
2026-05-07 09:32 1.05269 156.54279 40869 ft 491 kts 163°
2026-05-07 09:32 0.98676 156.56099 40869 ft 491 kts 163°
2026-05-07 09:33 0.92133 156.57905 40868 ft 491 kts 163°
2026-05-07 09:33 0.85544 156.59724 40864 ft 491 kts 163°
2026-05-07 09:34 0.78945 156.61545 40872 ft 491 kts 163°
2026-05-07 09:34 0.72355 156.63363 40872 ft 491 kts 163°
2026-05-07 09:35 0.65754 156.65185 40868 ft 492 kts 163°
2026-05-07 09:35 0.59147 156.67009 40869 ft 492 kts 163°
2026-05-07 09:36 0.52571 156.68823 40872 ft 492 kts 163°
2026-05-07 09:36 0.45974 156.70644 40872 ft 492 kts 163°
2026-05-07 09:37 0.39366 156.72467 40869 ft 492 kts 163°
2026-05-07 09:37 0.32770 156.74288 40870 ft 492 kts 163°
2026-05-07 09:38 0.26175 156.76108 40874 ft 492 kts 163°
2026-05-07 09:38 0.19612 156.77918 40872 ft 492 kts 163°
2026-05-07 09:39 0.13005 156.79742 40869 ft 492 kts 163°
2026-05-07 09:39 0.06408 156.81562 40873 ft 492 kts 163°
2026-05-07 09:40 -0.00200 156.83386 40874 ft 492 kts 163°
2026-05-07 09:40 -0.06820 156.85189 40876 ft 494 kts 163°
2026-05-07 09:41 -0.13479 156.86968 40873 ft 495 kts 164°
2026-05-07 09:41 -0.20139 156.88751 40877 ft 495 kts 163°
2026-05-07 09:42 -0.26741 156.90526 40875 ft 495 kts 164°
2026-05-07 09:42 -0.33397 156.92317 40878 ft 495 kts 164°
2026-05-07 09:43 -0.40043 156.94105 40876 ft 495 kts 163°
2026-05-07 09:43 -0.46708 156.95899 40871 ft 495 kts 163°
2026-05-07 09:44 -0.53362 156.97690 40877 ft 495 kts 163°
2026-05-07 09:44 -0.60017 156.99481 40878 ft 495 kts 163°
2026-05-07 09:45 -0.66683 157.01275 40875 ft 496 kts 163°
2026-05-07 09:45 -0.73339 157.03067 40874 ft 496 kts 164°
2026-05-07 09:46 -0.79963 157.04850 40879 ft 496 kts 164°
2026-05-07 09:46 -0.86623 157.06642 40877 ft 496 kts 164°
2026-05-07 09:47 -0.93283 157.08434 40879 ft 496 kts 164°
2026-05-07 09:47 -0.99954 157.10230 40874 ft 496 kts 164°
2026-05-07 09:48 -1.06624 157.12026 40870 ft 496 kts 164°
2026-05-07 09:48 -1.13260 157.13812 40876 ft 497 kts 164°
2026-05-07 09:49 -1.19961 157.15616 40878 ft 497 kts 164°
2026-05-07 09:49 -1.26642 157.17415 40875 ft 497 kts 164°
2026-05-07 09:50 -1.33322 157.19213 40876 ft 497 kts 164°
2026-05-07 09:50 -1.40014 157.21015 40878 ft 497 kts 164°
2026-05-07 09:51 -1.46697 157.22815 40871 ft 498 kts 164°
2026-05-07 09:51 -1.53368 157.24611 40873 ft 498 kts 164°
2026-05-07 09:52 -1.60062 157.26414 40873 ft 498 kts 164°
2026-05-07 09:52 -1.66757 157.28217 40873 ft 498 kts 164°
2026-05-07 09:53 -1.73468 157.30025 40873 ft 498 kts 164°
2026-05-07 09:53 -1.80164 157.31828 40874 ft 499 kts 164°
2026-05-07 09:54 -1.86881 157.33638 40872 ft 499 kts 164°
2026-05-07 09:54 -1.93544 157.35433 40874 ft 499 kts 164°
2026-05-07 09:55 -2.00263 157.37243 40872 ft 499 kts 164°
2026-05-07 09:55 -2.06982 157.39053 40875 ft 500 kts 164°
2026-05-07 09:56 -2.13702 157.40864 40871 ft 500 kts 164°
2026-05-07 09:56 -2.20412 157.42672 40873 ft 500 kts 164°
2026-05-07 09:57 -2.27122 157.44481 40871 ft 500 kts 164°
2026-05-07 09:57 -2.33799 157.46280 40873 ft 500 kts 164°
2026-05-07 09:58 -2.39414 157.47794 40873 ft 500 kts 164°
2026-05-07 09:58 -2.47218 157.49898 40870 ft 500 kts 164°
2026-05-07 09:59 -2.53917 157.51704 40871 ft 498 kts 164°
2026-05-07 09:59 -2.59524 157.53216 40870 ft 498 kts 164°
2026-05-07 10:00 -2.66176 157.55010 40870 ft 498 kts 164°
2026-05-07 10:00 -2.72883 157.56819 40867 ft 499 kts 164°
2026-05-07 10:01 -2.79584 157.58627 40868 ft 499 kts 164°
2026-05-07 10:01 -2.86297 157.60438 40867 ft 499 kts 164°
2026-05-07 10:02 -2.92964 157.62236 40868 ft 499 kts 164°
2026-05-07 10:02 -2.99664 157.64044 40873 ft 499 kts 164°
2026-05-07 10:03 -3.06388 157.65859 40872 ft 499 kts 164°
2026-05-07 10:03 -3.13090 157.67668 40870 ft 499 kts 164°
2026-05-07 10:04 -3.19801 157.69480 40870 ft 499 kts 164°
2026-05-07 10:04 -3.26467 157.71279 40870 ft 499 kts 164°
2026-05-07 10:05 -3.33166 157.73089 40870 ft 499 kts 164°
2026-05-07 10:05 -3.39866 157.74898 40870 ft 499 kts 164°
2026-05-07 10:06 -3.46587 157.76713 40870 ft 499 kts 164°
2026-05-07 10:06 -3.53286 157.78523 40864 ft 499 kts 164°
2026-05-07 10:07 -3.59991 157.80335 40867 ft 498 kts 164°
2026-05-07 10:07 -3.66692 157.82145 40870 ft 498 kts 164°
2026-05-07 10:08 -3.73347 157.83944 40871 ft 498 kts 164°
2026-05-07 10:08 -3.80035 157.85751 40870 ft 498 kts 164°
2026-05-07 10:09 -3.86723 157.87560 40870 ft 498 kts 164°
2026-05-07 10:09 -3.93416 157.89370 40873 ft 499 kts 164°
2026-05-07 10:10 -4.00133 157.91186 40873 ft 500 kts 164°
2026-05-07 10:10 -4.06842 157.93001 40873 ft 500 kts 164°
2026-05-07 10:11 -4.13518 157.94807 40872 ft 500 kts 164°
2026-05-07 10:11 -4.20227 157.96622 40873 ft 500 kts 164°
2026-05-07 10:12 -4.26948 157.98441 40873 ft 500 kts 164°
2026-05-07 10:12 -4.33668 158.00261 40869 ft 501 kts 164°
2026-05-07 10:13 -4.40408 158.02085 40873 ft 501 kts 164°
2026-05-07 10:13 -4.47135 158.03907 40872 ft 501 kts 164°
2026-05-07 10:14 -4.53862 158.05728 40870 ft 501 kts 164°
2026-05-07 10:14 -4.60555 158.07542 40874 ft 501 kts 165°
2026-05-07 10:15 -4.67281 158.09364 40875 ft 500 kts 164°
2026-05-07 10:15 -4.73992 158.11182 40869 ft 498 kts 165°
2026-05-07 10:16 -4.80699 158.13000 40871 ft 499 kts 165°
2026-05-07 10:16 -4.87394 158.14815 40874 ft 498 kts 164°
2026-05-07 10:17 -4.94058 158.16622 40873 ft 499 kts 165°
2026-05-07 10:17 -5.00756 158.18439 40873 ft 499 kts 165°
2026-05-07 10:18 -5.07475 158.20262 40875 ft 500 kts 165°
2026-05-07 10:18 -5.14199 158.22086 40873 ft 500 kts 165°
2026-05-07 10:19 -5.20877 158.23898 40877 ft 500 kts 165°
2026-05-07 10:19 -5.27580 158.25758 40869 ft 499 kts 161°
2026-05-07 10:20 -5.34047 158.28299 40875 ft 500 kts 157°
2026-05-07 10:20 -5.40464 158.31011 40875 ft 500 kts 156°
2026-05-07 10:21 -5.46854 158.33741 40875 ft 499 kts 156°
2026-05-07 10:21 -5.53253 158.36467 40875 ft 500 kts 156°
2026-05-07 10:22 -5.59665 158.39191 40875 ft 499 kts 157°
2026-05-07 10:22 -5.66062 158.41906 40876 ft 500 kts 156°
2026-05-07 10:23 -5.72459 158.44623 40872 ft 499 kts 156°
2026-05-07 10:23 -5.78850 158.47338 40873 ft 498 kts 156°
2026-05-07 10:24 -5.85228 158.50048 40872 ft 498 kts 156°
2026-05-07 10:24 -5.91577 158.52746 40872 ft 498 kts 157°
2026-05-07 10:25 -5.97952 158.55456 40870 ft 498 kts 156°
2026-05-07 10:25 -6.04335 158.58170 40872 ft 498 kts 157°
2026-05-07 10:26 -6.10722 158.60887 40869 ft 498 kts 157°
2026-05-07 10:26 -6.17096 158.63599 40872 ft 498 kts 156°
2026-05-07 10:27 -6.23485 158.66318 40872 ft 498 kts 157°
2026-05-07 10:27 -6.29855 158.69029 40872 ft 497 kts 156°
2026-05-07 10:28 -6.36230 158.71744 40871 ft 498 kts 156°
2026-05-07 10:28 -6.42569 158.74444 40871 ft 497 kts 157°
2026-05-07 10:29 -6.48935 158.77156 40875 ft 497 kts 157°
2026-05-07 10:29 -6.55315 158.79875 40874 ft 497 kts 157°
2026-05-07 10:30 -6.64880 158.83952 40875 ft 497 kts 157°
2026-05-07 10:30 -6.71217 158.86654 40868 ft 497 kts 157°
2026-05-07 10:31 -6.77607 158.89380 40868 ft 499 kts 157°
2026-05-07 10:31 -6.84009 158.92112 40872 ft 500 kts 156°
2026-05-07 10:32 -6.90417 158.94847 40872 ft 499 kts 157°
2026-05-07 10:32 -6.96819 158.97580 40873 ft 500 kts 156°
2026-05-07 10:33 -7.03234 159.00320 40871 ft 500 kts 156°
2026-05-07 10:33 -7.09633 159.03053 40874 ft 500 kts 157°
2026-05-07 10:34 -7.16042 159.05792 40874 ft 501 kts 156°
2026-05-07 10:34 -7.22451 159.08531 40871 ft 501 kts 156°
2026-05-07 10:35 -7.28879 159.11280 40874 ft 501 kts 156°
2026-05-07 10:35 -7.35291 159.14023 40873 ft 501 kts 156°
2026-05-07 10:36 -7.41678 159.16755 40877 ft 502 kts 156°
2026-05-07 10:36 -7.48109 159.19508 40875 ft 501 kts 156°
2026-05-07 10:37 -7.54516 159.22251 40876 ft 501 kts 156°
2026-05-07 10:37 -7.60931 159.24998 40875 ft 500 kts 156°
2026-05-07 10:38 -7.67325 159.27737 40879 ft 500 kts 156°
2026-05-07 10:38 -7.73692 159.30466 40879 ft 500 kts 156°
2026-05-07 10:39 -7.80094 159.33211 40878 ft 499 kts 156°
2026-05-07 10:39 -7.86505 159.35960 40881 ft 500 kts 157°
2026-05-07 10:40 -7.92901 159.38706 40879 ft 500 kts 157°
2026-05-07 10:40 -7.99267 159.41442 40887 ft 500 kts 156°
2026-05-07 10:41 -8.05705 159.44210 40886 ft 499 kts 156°
2026-05-07 10:41 -8.12100 159.46960 40891 ft 500 kts 156°
2026-05-07 10:42 -8.18466 159.49700 40888 ft 499 kts 157°
2026-05-07 10:42 -8.24862 159.52453 40890 ft 501 kts 157°
2026-05-07 10:43 -8.31263 159.55209 40889 ft 499 kts 157°
2026-05-07 10:43 -8.37658 159.57963 40888 ft 499 kts 157°
2026-05-07 10:44 -8.44045 159.60715 40887 ft 499 kts 157°
2026-05-07 10:44 -8.50424 159.63466 40887 ft 499 kts 157°
2026-05-07 10:45 -8.56812 159.66235 40882 ft 499 kts 157°
2026-05-07 10:45 -8.63192 159.68982 40880 ft 499 kts 158°
2026-05-07 10:46 -8.69579 159.71732 40884 ft 499 kts 157°
2026-05-07 10:46 -8.75971 159.74490 40884 ft 499 kts 157°
2026-05-07 10:47 -8.82324 159.77235 40881 ft 499 kts 158°
2026-05-07 10:47 -8.88716 159.79997 40882 ft 499 kts 157°
2026-05-07 10:48 -8.95106 159.82760 40881 ft 500 kts 158°
2026-05-07 10:48 -9.01516 159.85532 40881 ft 500 kts 158°
2026-05-07 10:49 -9.07883 159.88287 40881 ft 500 kts 158°
2026-05-07 10:49 -9.14273 159.91052 40881 ft 499 kts 158°
2026-05-07 10:50 -9.20675 159.93824 40874 ft 500 kts 158°
2026-05-07 10:50 -9.27074 159.96596 40868 ft 499 kts 158°
2026-05-07 10:51 -9.33449 159.99359 40858 ft 498 kts 158°
2026-05-07 10:51 -9.38759 160.01661 40856 ft 498 kts 158°
2026-05-07 10:52 -9.45126 160.04429 40857 ft 498 kts 157°
2026-05-07 10:52 -9.52412 160.07783 40859 ft 498 kts 156°
2026-05-07 10:53 -9.57685 160.10259 40872 ft 498 kts 156°
2026-05-07 10:53 -9.63948 160.13182 40887 ft 499 kts 156°
2026-05-07 10:54 -9.70260 160.16110 40904 ft 500 kts 156°
2026-05-07 10:54 -9.76579 160.19038 40919 ft 499 kts 156°
2026-05-07 10:55 -9.82906 160.21972 40913 ft 499 kts 156°
2026-05-07 10:55 -9.89218 160.24900 40913 ft 499 kts 156°
2026-05-07 10:56 -9.95539 160.27835 40911 ft 499 kts 156°
2026-05-07 10:56 -10.01854 160.30768 40907 ft 500 kts 157°
2026-05-07 10:57 -10.08188 160.33710 40905 ft 500 kts 157°
2026-05-07 10:57 -10.14517 160.36651 40897 ft 500 kts 156°
2026-05-07 10:58 -10.20810 160.39578 40894 ft 500 kts 156°
2026-05-07 10:58 -10.27137 160.42521 40897 ft 500 kts 156°
2026-05-07 10:59 -10.33462 160.45465 40899 ft 500 kts 157°
2026-05-07 10:59 -10.39806 160.48431 40898 ft 500 kts 156°
2026-05-07 11:00 -10.46132 160.51376 40899 ft 500 kts 157°
2026-05-07 11:00 -10.52460 160.54321 40898 ft 500 kts 156°
2026-05-07 11:01 -10.58739 160.57249 40897 ft 500 kts 156°
2026-05-07 11:01 -10.65071 160.60205 40897 ft 500 kts 156°
2026-05-07 11:02 -10.71399 160.63161 40901 ft 501 kts 157°
2026-05-07 11:02 -10.77734 160.66120 40903 ft 501 kts 157°
2026-05-07 11:03 -10.84040 160.69068 40905 ft 502 kts 157°
2026-05-07 11:03 -10.90378 160.72032 40902 ft 501 kts 157°
2026-05-07 11:04 -10.96722 160.75003 40903 ft 501 kts 157°
2026-05-07 11:04 -11.03064 160.77986 40904 ft 501 kts 157°
2026-05-07 11:05 -11.09361 160.80941 40904 ft 501 kts 157°
2026-05-07 11:05 -11.15700 160.83917 40907 ft 501 kts 157°
2026-05-07 11:06 -11.22025 160.86891 40909 ft 501 kts 157°
2026-05-07 11:06 -11.28350 160.89867 40910 ft 501 kts 157°
2026-05-07 11:07 -11.34679 160.92846 40910 ft 501 kts 157°
2026-05-07 11:07 -11.41008 160.95827 40912 ft 501 kts 157°
2026-05-07 11:08 -11.47345 160.98812 40911 ft 501 kts 157°
2026-05-07 11:08 -11.53670 161.01794 40904 ft 501 kts 157°
2026-05-07 11:09 -11.59994 161.04776 40905 ft 501 kts 157°
2026-05-07 11:09 -11.66328 161.07765 40906 ft 501 kts 157°
2026-05-07 11:10 -11.72653 161.10751 40914 ft 501 kts 157°
2026-05-07 11:10 -11.78799 161.13654 40911 ft 501 kts 157°
2026-05-07 11:11 -11.85093 161.16629 40910 ft 501 kts 157°
2026-05-07 11:11 -11.91420 161.19620 40907 ft 501 kts 157°
2026-05-07 11:12 -11.97758 161.22618 40912 ft 501 kts 157°
2026-05-07 11:12 -12.04087 161.25614 40913 ft 502 kts 157°
2026-05-07 11:13 -12.10429 161.28617 40912 ft 502 kts 157°
2026-05-07 11:13 -12.16760 161.31617 40916 ft 502 kts 157°
2026-05-07 11:14 -12.23093 161.34619 40915 ft 502 kts 157°
2026-05-07 11:14 -12.29435 161.37627 40904 ft 502 kts 157°
2026-05-07 11:15 -12.35767 161.40632 40905 ft 502 kts 157°
2026-05-07 11:15 -12.42067 161.43623 40921 ft 502 kts 157°
2026-05-07 11:16 -12.48408 161.46636 40923 ft 502 kts 157°
2026-05-07 11:16 -12.54752 161.49651 40924 ft 502 kts 157°
2026-05-07 11:17 -12.61056 161.52649 40924 ft 502 kts 157°
2026-05-07 11:17 -12.67392 161.55664 40927 ft 502 kts 157°
2026-05-07 11:18 -12.73729 161.58681 40915 ft 503 kts 157°
2026-05-07 11:18 -12.80080 161.61706 40917 ft 503 kts 157°
2026-05-07 11:19 -12.86421 161.64728 40916 ft 503 kts 157°
2026-05-07 11:19 -12.92763 161.67753 40915 ft 503 kts 157°
2026-05-07 11:20 -12.99113 161.70783 40921 ft 503 kts 157°
2026-05-07 11:20 -13.05453 161.73810 40922 ft 503 kts 157°
2026-05-07 11:21 -13.11792 161.76838 40922 ft 503 kts 157°
2026-05-07 11:21 -13.18141 161.79873 40919 ft 503 kts 157°
2026-05-07 11:22 -13.24481 161.82905 40922 ft 503 kts 157°
2026-05-07 11:22 -13.30782 161.85920 40921 ft 503 kts 157°
2026-05-07 11:23 -13.37137 161.88963 40919 ft 503 kts 157°
2026-05-07 11:23 -13.43481 161.92002 40927 ft 503 kts 157°
2026-05-07 11:24 -13.49835 161.95048 40926 ft 503 kts 157°
2026-05-07 11:24 -13.56178 161.98091 40926 ft 503 kts 157°
2026-05-07 11:25 -13.62490 162.01121 40929 ft 503 kts 157°
2026-05-07 11:25 -13.68836 162.04168 40926 ft 504 kts 157°
2026-05-07 11:26 -13.75191 162.07222 40927 ft 504 kts 157°
2026-05-07 11:26 -13.81536 162.10272 40928 ft 504 kts 157°
2026-05-07 11:27 -13.87891 162.13330 40925 ft 504 kts 157°
2026-05-07 11:27 -13.94235 162.16384 40930 ft 504 kts 157°
2026-05-07 11:28 -14.00578 162.19440 40927 ft 504 kts 157°
2026-05-07 11:28 -14.06891 162.22478 40931 ft 503 kts 157°
2026-05-07 11:29 -14.13255 162.25516 40928 ft 503 kts 158°
2026-05-07 11:29 -14.19608 162.28554 40928 ft 504 kts 158°
2026-05-07 11:30 -14.25959 162.31598 40933 ft 504 kts 158°
2026-05-07 11:30 -14.32321 162.34652 40931 ft 504 kts 158°
2026-05-07 11:31 -14.38674 162.37702 40931 ft 504 kts 158°
2026-05-07 11:31 -14.44994 162.40740 40932 ft 504 kts 158°
2026-05-07 11:32 -14.54528 162.45325 40932 ft 504 kts 158°
2026-05-07 11:33 -14.60881 162.48382 40932 ft 504 kts 158°
2026-05-07 11:33 -14.67247 162.51448 40932 ft 504 kts 158°
2026-05-07 11:34 -14.73617 162.54518 40934 ft 505 kts 158°
2026-05-07 11:34 -14.79977 162.57585 40933 ft 505 kts 158°
2026-05-07 11:35 -14.86305 162.60638 40933 ft 505 kts 158°
2026-05-07 11:35 -14.92666 162.63709 40936 ft 505 kts 158°
2026-05-07 11:36 -14.99026 162.66783 40939 ft 505 kts 158°
2026-05-07 11:36 -15.05393 162.69861 40936 ft 506 kts 158°
2026-05-07 11:37 -15.11774 162.72948 40938 ft 506 kts 158°
2026-05-07 11:37 -15.18154 162.76037 40938 ft 506 kts 158°
2026-05-07 11:38 -15.24524 162.79123 40938 ft 506 kts 158°
2026-05-07 11:38 -15.30903 162.82215 40942 ft 506 kts 158°
2026-05-07 11:39 -15.37272 162.85305 40944 ft 506 kts 158°
2026-05-07 11:39 -15.43612 162.88383 40942 ft 506 kts 158°
2026-05-07 11:40 -15.49983 162.91477 40939 ft 506 kts 158°
2026-05-07 11:40 -15.56365 162.94579 40943 ft 506 kts 158°
2026-05-07 11:41 -15.62737 162.97679 40941 ft 506 kts 158°
2026-05-07 11:41 -15.69111 163.00782 40943 ft 506 kts 158°
2026-05-07 11:42 -15.75508 163.03898 40940 ft 506 kts 158°
2026-05-07 11:42 -15.81851 163.06990 40945 ft 506 kts 158°
2026-05-07 11:43 -15.88228 163.10100 40946 ft 506 kts 158°
2026-05-07 11:43 -15.94614 163.13217 40948 ft 506 kts 158°
2026-05-07 11:44 -16.00988 163.16331 40950 ft 506 kts 158°
2026-05-07 11:44 -16.07362 163.19447 40950 ft 506 kts 158°
2026-05-07 11:45 -16.13725 163.22560 40960 ft 506 kts 158°
2026-05-07 11:45 -16.20067 163.25664 40954 ft 506 kts 158°
2026-05-07 11:46 -16.26440 163.28786 40955 ft 506 kts 158°
2026-05-07 11:46 -16.32823 163.31915 40945 ft 506 kts 158°
2026-05-07 11:47 -16.39197 163.35042 40960 ft 507 kts 158°
2026-05-07 11:47 -16.45540 163.38156 40952 ft 507 kts 158°
2026-05-07 11:48 -16.51917 163.41289 40960 ft 507 kts 158°
2026-05-07 11:48 -16.58303 163.44429 40961 ft 507 kts 158°
2026-05-07 11:49 -16.64679 163.47566 40959 ft 507 kts 158°
2026-05-07 11:49 -16.71055 163.50705 40958 ft 507 kts 158°
2026-05-07 11:50 -16.76359 163.53319 40955 ft 507 kts 158°
2026-05-07 11:50 -16.82747 163.56469 40965 ft 507 kts 158°
2026-05-07 11:51 -16.89138 163.59622 40957 ft 507 kts 158°
2026-05-07 11:51 -16.95517 163.62772 40971 ft 507 kts 158°
2026-05-07 11:52 -17.01865 163.65909 40958 ft 507 kts 158°
2026-05-07 11:52 -17.08243 163.69064 40971 ft 507 kts 158°
2026-05-07 11:53 -17.14622 163.72221 40969 ft 507 kts 158°
2026-05-07 11:53 -17.21012 163.75385 40965 ft 507 kts 158°
2026-05-07 11:54 -17.27389 163.78546 40968 ft 507 kts 158°
2026-05-07 11:54 -17.33767 163.81710 40969 ft 508 kts 158°
2026-05-07 11:55 -17.40155 163.84881 40972 ft 508 kts 158°
2026-05-07 11:55 -17.46501 163.88034 40971 ft 507 kts 158°
2026-05-07 11:56 -17.52877 163.91205 40970 ft 507 kts 158°
2026-05-07 11:56 -17.59264 163.94382 40973 ft 508 kts 158°
2026-05-07 11:57 -17.65641 163.97558 40975 ft 508 kts 158°
2026-05-07 11:57 -17.72027 164.00741 40975 ft 508 kts 158°
2026-05-07 11:58 -17.78413 164.03926 40978 ft 508 kts 159°
2026-05-07 11:58 -17.84762 164.07095 40979 ft 508 kts 159°
2026-05-07 11:59 -17.91147 164.10284 40979 ft 508 kts 159°
2026-05-07 11:59 -17.97533 164.13477 40980 ft 508 kts 159°
2026-05-07 12:00 -18.03929 164.16677 40979 ft 508 kts 159°
2026-05-07 12:00 -18.10325 164.19880 40979 ft 509 kts 159°
2026-05-07 12:01 -18.16714 164.23082 40980 ft 509 kts 159°
2026-05-07 12:01 -18.23122 164.26296 40982 ft 510 kts 159°
2026-05-07 12:02 -18.29479 164.29487 40982 ft 510 kts 159°
2026-05-07 12:02 -18.35879 164.32703 40988 ft 510 kts 159°
2026-05-07 12:03 -18.42289 164.35926 40991 ft 510 kts 159°
2026-05-07 12:03 -18.48688 164.39147 40992 ft 510 kts 159°
2026-05-07 12:04 -18.55104 164.42378 40988 ft 511 kts 159°
2026-05-07 12:04 -18.61513 164.45609 40992 ft 511 kts 159°
2026-05-07 12:05 -18.67923 164.48843 40993 ft 511 kts 159°
2026-05-07 12:05 -18.74331 164.52079 40995 ft 511 kts 159°
2026-05-07 12:06 -18.80749 164.55322 41002 ft 511 kts 159°
2026-05-07 12:06 -18.87159 164.58565 40993 ft 511 kts 160°
2026-05-07 12:07 -18.93543 164.61796 40993 ft 512 kts 160°
2026-05-07 12:07 -18.99961 164.65048 40993 ft 512 kts 159°
2026-05-07 12:08 -19.06390 164.68308 40998 ft 512 kts 159°
2026-05-07 12:08 -19.12819 164.71571 40999 ft 512 kts 159°
2026-05-07 12:09 -19.19234 164.74830 41002 ft 512 kts 160°
2026-05-07 12:09 -19.25619 164.78076 41001 ft 512 kts 160°
2026-05-07 12:10 -19.32037 164.81341 41001 ft 512 kts 160°
2026-05-07 12:10 -19.38466 164.84616 41003 ft 512 kts 160°
2026-05-07 12:11 -19.44883 164.87887 41004 ft 512 kts 160°
2026-05-07 12:11 -19.51311 164.91167 41011 ft 512 kts 160°
2026-05-07 12:12 -19.57732 164.94446 41007 ft 513 kts 160°
2026-05-07 12:12 -19.64124 164.97713 41007 ft 513 kts 160°
2026-05-07 12:13 -19.70549 165.00999 41007 ft 513 kts 160°
2026-05-07 12:13 -19.76973 165.04289 41007 ft 513 kts 160°
2026-05-07 12:14 -19.83407 165.07586 41011 ft 513 kts 160°
2026-05-07 12:14 -19.89827 165.10880 41012 ft 512 kts 160°
2026-05-07 12:15 -19.96222 165.14163 41012 ft 512 kts 160°
2026-05-07 12:15 -20.02638 165.17460 41011 ft 512 kts 160°
2026-05-07 12:16 -20.09063 165.20764 41013 ft 512 kts 160°
2026-05-07 12:16 -20.15477 165.24066 41014 ft 512 kts 160°
2026-05-07 12:17 -20.21900 165.27378 41017 ft 512 kts 160°
2026-05-07 12:17 -20.28312 165.30699 41020 ft 513 kts 160°
2026-05-07 12:18 -20.34691 165.34009 41020 ft 513 kts 160°
2026-05-07 12:18 -20.41101 165.37338 41023 ft 513 kts 160°
2026-05-07 12:19 -20.47521 165.40675 41023 ft 513 kts 160°
2026-05-07 12:19 -20.53931 165.44010 41033 ft 513 kts 160°
2026-05-07 12:20 -20.60341 165.47347 41029 ft 513 kts 160°
2026-05-07 12:20 -20.66764 165.50694 41032 ft 513 kts 160°
2026-05-07 12:21 -20.73175 165.54039 41030 ft 513 kts 160°
2026-05-07 12:21 -20.79597 165.57392 41035 ft 513 kts 160°
2026-05-07 12:22 -20.86008 165.60743 41036 ft 513 kts 160°
2026-05-07 12:22 -20.92377 165.64075 41038 ft 513 kts 160°
2026-05-07 12:23 -20.98797 165.67437 41040 ft 513 kts 160°
2026-05-07 12:23 -21.05206 165.70796 41037 ft 513 kts 160°
2026-05-07 12:24 -21.11613 165.74158 41039 ft 513 kts 160°
2026-05-07 12:24 -21.18030 165.77528 41023 ft 513 kts 160°
2026-05-07 12:25 -21.24447 165.80902 41037 ft 513 kts 161°
2026-05-07 12:25 -21.30850 165.84271 41042 ft 513 kts 161°
2026-05-07 12:26 -21.37251 165.87642 41044 ft 513 kts 161°
2026-05-07 12:26 -21.43651 165.91016 41038 ft 512 kts 160°
2026-05-07 12:27 -21.50017 165.94375 41035 ft 513 kts 160°
2026-05-07 12:27 -21.56457 165.97778 41039 ft 513 kts 161°
2026-05-07 12:28 -21.62814 166.01141 41029 ft 513 kts 161°
2026-05-07 12:28 -21.69229 166.04535 41031 ft 513 kts 161°
2026-05-07 12:29 -21.75633 166.07929 41029 ft 513 kts 161°
2026-05-07 12:29 -21.82055 166.11335 41022 ft 513 kts 161°
2026-05-07 12:30 -21.88456 166.14733 41038 ft 513 kts 161°
2026-05-07 12:30 -21.94854 166.18133 41020 ft 513 kts 161°
2026-05-07 12:31 -22.01215 166.21518 41020 ft 513 kts 161°
2026-05-07 12:31 -22.07601 166.24944 41020 ft 513 kts 160°
2026-05-07 12:32 -22.13990 166.28376 41020 ft 513 kts 160°
2026-05-07 12:32 -22.20374 166.31809 41038 ft 513 kts 161°
2026-05-07 12:33 -22.29971 166.36975 41020 ft 513 kts 161°
2026-05-07 12:33 -22.36371 166.40424 41020 ft 513 kts 160°
2026-05-07 12:34 -22.42759 166.43871 41020 ft 513 kts 160°
2026-05-07 12:34 -22.49115 166.47303 41025 ft 513 kts 160°
2026-05-07 12:35 -22.55502 166.50757 41024 ft 513 kts 161°
2026-05-07 12:35 -22.61893 166.54217 41023 ft 513 kts 161°
2026-05-07 12:36 -22.68279 166.57676 41030 ft 512 kts 161°
2026-05-07 12:36 -22.74663 166.61138 41031 ft 512 kts 161°
2026-05-07 12:37 -22.80994 166.64575 41034 ft 513 kts 161°
2026-05-07 12:37 -22.87367 166.68039 41055 ft 513 kts 161°
2026-05-07 12:38 -22.93752 166.71513 41044 ft 513 kts 161°
2026-05-07 12:38 -23.00138 166.74991 41041 ft 513 kts 161°
2026-05-07 12:39 -23.06512 166.78466 41047 ft 513 kts 161°
2026-05-07 12:39 -23.12865 166.81933 41048 ft 513 kts 161°
2026-05-07 12:40 -23.19238 166.85416 41049 ft 513 kts 161°
2026-05-07 12:40 -23.25621 166.88908 41044 ft 513 kts 161°
2026-05-07 12:41 -23.31997 166.92399 41047 ft 512 kts 161°
2026-05-07 12:41 -23.38359 166.95886 41047 ft 512 kts 161°
2026-05-07 12:42 -23.44730 166.99382 41048 ft 512 kts 161°
2026-05-07 12:42 -23.51059 167.02858 41048 ft 512 kts 161°
2026-05-07 12:43 -23.57431 167.06363 41051 ft 512 kts 161°
2026-05-07 12:43 -23.63806 167.09872 41053 ft 513 kts 161°
2026-05-07 12:44 -23.69102 167.12791 41054 ft 513 kts 161°
2026-05-07 12:44 -23.75466 167.16302 41056 ft 513 kts 161°
2026-05-07 12:45 -23.81841 167.19822 41053 ft 513 kts 161°
2026-05-07 12:45 -23.88216 167.23347 41065 ft 513 kts 161°
2026-05-07 12:46 -23.94588 167.26874 41053 ft 512 kts 161°
2026-05-07 12:46 -24.00912 167.30379 41056 ft 512 kts 161°
2026-05-07 12:47 -24.07267 167.33904 41056 ft 512 kts 161°
2026-05-07 12:47 -24.13623 167.37433 41056 ft 512 kts 161°
2026-05-07 12:48 -24.19988 167.40972 41055 ft 512 kts 161°
2026-05-07 12:48 -24.26353 167.44515 41056 ft 512 kts 161°
2026-05-07 12:49 -24.32708 167.48056 41057 ft 513 kts 161°
2026-05-07 12:49 -24.39062 167.51601 41056 ft 513 kts 161°
2026-05-07 12:50 -24.45384 167.55131 41061 ft 513 kts 161°
2026-05-07 12:50 -24.51736 167.58684 41072 ft 513 kts 161°
2026-05-07 12:51 -24.58098 167.62244 41058 ft 512 kts 161°
2026-05-07 12:51 -24.64449 167.65804 41064 ft 512 kts 161°
2026-05-07 12:52 -24.70744 167.69335 41064 ft 511 kts 161°
2026-05-07 12:52 -24.77091 167.72900 41064 ft 512 kts 161°
2026-05-07 12:53 -24.83425 167.76472 41080 ft 512 kts 161°
2026-05-07 12:53 -24.89764 167.80048 41067 ft 512 kts 161°
2026-05-07 12:54 -24.96119 167.83634 41067 ft 513 kts 161°
2026-05-07 12:54 -25.02473 167.87228 41070 ft 513 kts 161°
2026-05-07 12:55 -25.08827 167.90826 41070 ft 513 kts 161°
2026-05-07 12:55 -25.15126 167.94398 41087 ft 513 kts 161°
2026-05-07 12:56 -25.21477 167.98003 41067 ft 512 kts 161°
2026-05-07 12:56 -25.27815 168.01606 41084 ft 511 kts 161°
2026-05-07 12:57 -25.34140 168.05204 41081 ft 511 kts 161°
2026-05-07 12:57 -25.40433 168.08788 41065 ft 512 kts 161°
2026-05-07 12:58 -25.46767 168.12401 41097 ft 512 kts 161°
2026-05-07 12:58 -25.53101 168.16018 41070 ft 512 kts 161°
2026-05-07 12:59 -25.59425 168.19633 41078 ft 512 kts 161°
2026-05-07 12:59 -25.65717 168.23234 41075 ft 512 kts 161°
2026-05-07 13:00 -25.72040 168.26858 41077 ft 512 kts 161°
2026-05-07 13:00 -25.78373 168.30491 41087 ft 512 kts 161°
2026-05-07 13:01 -25.84694 168.34123 41081 ft 511 kts 162°
2026-05-07 13:01 -25.91012 168.37757 41081 ft 510 kts 162°
2026-05-07 13:02 -25.97313 168.41385 41088 ft 510 kts 162°
2026-05-07 13:02 -26.03623 168.45022 41087 ft 510 kts 162°
2026-05-07 13:03 -26.09922 168.48658 41084 ft 510 kts 162°
2026-05-07 13:03 -26.16192 168.52281 41085 ft 511 kts 162°
2026-05-07 13:04 -26.22509 168.55936 41082 ft 511 kts 162°
2026-05-07 13:04 -26.28816 168.59590 41085 ft 511 kts 162°
2026-05-07 13:05 -26.35123 168.63249 41084 ft 511 kts 162°
2026-05-07 13:05 -26.41440 168.66918 41084 ft 511 kts 162°
2026-05-07 13:06 -26.47707 168.70562 41087 ft 512 kts 162°
2026-05-07 13:06 -26.54016 168.74237 41084 ft 510 kts 162°
2026-05-07 13:07 -26.60304 168.77904 41084 ft 510 kts 162°
2026-05-07 13:07 -26.66601 168.81578 41085 ft 510 kts 162°
2026-05-07 13:08 -26.72885 168.85250 41083 ft 510 kts 162°
2026-05-07 13:08 -26.79172 168.88928 41084 ft 510 kts 162°
2026-05-07 13:09 -26.85472 168.92619 41082 ft 510 kts 162°
2026-05-07 13:09 -26.91719 168.96284 41083 ft 510 kts 162°
2026-05-07 13:10 -26.98008 168.99978 41084 ft 511 kts 162°
2026-05-07 13:10 -27.04307 169.03683 41083 ft 511 kts 162°
2026-05-07 13:11 -27.10600 169.07391 41085 ft 511 kts 162°
2026-05-07 13:11 -27.16911 169.11117 41086 ft 512 kts 162°
2026-05-07 13:12 -27.23222 169.14843 41087 ft 512 kts 162°
2026-05-07 13:12 -27.29479 169.18543 41086 ft 512 kts 162°
2026-05-07 13:13 -27.35787 169.22280 41084 ft 512 kts 162°
2026-05-07 13:13 -27.42085 169.26015 41088 ft 512 kts 162°
2026-05-07 13:14 -27.48393 169.29761 41083 ft 512 kts 162°
2026-05-07 13:14 -27.54700 169.33511 41087 ft 512 kts 162°
2026-05-07 13:15 -27.60996 169.37260 41084 ft 512 kts 162°
2026-05-07 13:15 -27.67292 169.41014 41099 ft 512 kts 162°
2026-05-07 13:16 -27.73559 169.44755 41089 ft 512 kts 162°
2026-05-07 13:16 -27.79857 169.48522 41088 ft 511 kts 162°
2026-05-07 13:17 -27.86141 169.52283 41088 ft 511 kts 162°
2026-05-07 13:17 -27.92434 169.56054 41089 ft 511 kts 162°
2026-05-07 13:18 -27.98717 169.59824 41111 ft 512 kts 162°
2026-05-07 13:18 -28.04966 169.63580 41091 ft 511 kts 162°
2026-05-07 13:19 -28.11246 169.67359 41091 ft 511 kts 162°
2026-05-07 13:19 -28.17526 169.71142 41092 ft 511 kts 162°
2026-05-07 13:20 -28.23815 169.74937 41093 ft 511 kts 162°
2026-05-07 13:20 -28.30105 169.78737 41103 ft 512 kts 162°
2026-05-07 13:21 -28.36379 169.82534 41095 ft 510 kts 162°
2026-05-07 13:21 -28.42605 169.86307 41091 ft 510 kts 162°
2026-05-07 13:22 -28.48858 169.90100 41098 ft 510 kts 162°
2026-05-07 13:22 -28.55120 169.93903 41087 ft 510 kts 162°
2026-05-07 13:23 -28.61372 169.97705 41091 ft 510 kts 161°
2026-05-07 13:23 -28.67638 170.01521 41093 ft 510 kts 161°
2026-05-07 13:24 -28.73893 170.05336 41097 ft 510 kts 161°
2026-05-07 13:24 -28.80150 170.09158 41094 ft 510 kts 161°
2026-05-07 13:25 -28.86375 170.12965 41092 ft 510 kts 161°
2026-05-07 13:25 -28.92643 170.16804 41098 ft 511 kts 161°
2026-05-07 13:26 -28.98906 170.20644 41094 ft 511 kts 161°
2026-05-07 13:26 -29.05175 170.24495 41096 ft 511 kts 161°
2026-05-07 13:27 -29.11431 170.28342 41096 ft 511 kts 161°
2026-05-07 13:27 -29.17654 170.32175 41099 ft 511 kts 161°
2026-05-07 13:28 -29.23925 170.36040 41102 ft 512 kts 161°
2026-05-07 13:28 -29.30200 170.39915 41095 ft 513 kts 161°
2026-05-07 13:29 -29.36488 170.43805 41101 ft 513 kts 161°
2026-05-07 13:29 -29.42764 170.47693 41100 ft 513 kts 161°
2026-05-07 13:30 -29.49049 170.51591 41121 ft 513 kts 161°
2026-05-07 13:30 -29.55292 170.55469 41106 ft 512 kts 161°
2026-05-07 13:31 -29.61553 170.59364 41102 ft 512 kts 161°
2026-05-07 13:31 -29.67807 170.63260 41105 ft 511 kts 161°
2026-05-07 13:32 -29.74070 170.67166 41106 ft 511 kts 161°
2026-05-07 13:32 -29.80332 170.71077 41115 ft 511 kts 161°
2026-05-07 13:33 -29.86582 170.74986 41109 ft 511 kts 161°
2026-05-07 13:33 -29.92801 170.78882 41108 ft 512 kts 161°
2026-05-07 13:34 -30.02179 170.84774 41100 ft 512 kts 161°
2026-05-07 13:35 -30.08429 170.88700 41117 ft 512 kts 161°
2026-05-07 13:35 -30.14690 170.92641 41104 ft 512 kts 160°
2026-05-07 13:36 -30.20937 170.96582 41109 ft 510 kts 160°
2026-05-07 13:36 -30.27166 171.00516 41110 ft 510 kts 160°
2026-05-07 13:37 -30.33404 171.04461 41111 ft 510 kts 160°
2026-05-07 13:37 -30.39588 171.08378 41110 ft 510 kts 160°
2026-05-07 13:38 -30.45835 171.12340 41104 ft 510 kts 160°
2026-05-07 13:38 -30.52060 171.16295 41112 ft 510 kts 160°
2026-05-07 13:39 -30.58284 171.20255 41109 ft 510 kts 160°
2026-05-07 13:39 -30.64518 171.24227 41112 ft 510 kts 160°
2026-05-07 13:40 -30.70715 171.28181 41112 ft 512 kts 160°
2026-05-07 13:40 -30.76957 171.32172 41110 ft 511 kts 160°
2026-05-07 13:41 -30.83190 171.36162 41109 ft 511 kts 160°
2026-05-07 13:41 -30.89410 171.40148 41111 ft 510 kts 160°
2026-05-07 13:42 -30.95638 171.44145 41116 ft 510 kts 160°
2026-05-07 13:42 -31.01816 171.48116 41113 ft 511 kts 159°
2026-05-07 13:43 -31.08040 171.52123 41116 ft 511 kts 159°
2026-05-07 13:43 -31.14264 171.56137 41116 ft 511 kts 159°
2026-05-07 13:44 -31.19442 171.59481 41116 ft 511 kts 159°
2026-05-07 13:44 -31.25676 171.63512 41135 ft 512 kts 159°
2026-05-07 13:45 -31.31902 171.67543 41121 ft 511 kts 159°
2026-05-07 13:45 -31.38127 171.71582 41118 ft 511 kts 159°
2026-05-07 13:46 -31.44336 171.75616 41119 ft 511 kts 159°
2026-05-07 13:46 -31.50512 171.79634 41119 ft 511 kts 159°
2026-05-07 13:47 -31.56720 171.83677 41126 ft 511 kts 159°
2026-05-07 13:47 -31.62930 171.87729 41124 ft 511 kts 159°
2026-05-07 13:48 -31.69151 171.91796 41125 ft 511 kts 159°
2026-05-07 13:48 -31.75372 171.95868 41130 ft 511 kts 159°
2026-05-07 13:49 -31.81581 171.99939 41130 ft 511 kts 159°
2026-05-07 13:49 -31.87763 172.03997 41129 ft 512 kts 158°
2026-05-07 13:50 -31.93967 172.08079 41126 ft 510 kts 158°
2026-05-07 13:50 -32.00169 172.12166 41127 ft 510 kts 158°
2026-05-07 13:51 -32.06359 172.16248 41129 ft 510 kts 158°
2026-05-07 13:51 -32.12558 172.20343 41140 ft 510 kts 158°
2026-05-07 13:52 -32.18752 172.24442 41130 ft 511 kts 158°
2026-05-07 13:52 -32.24959 172.28557 41134 ft 511 kts 158°
2026-05-07 13:53 -32.31155 172.32670 41132 ft 511 kts 158°
2026-05-07 13:53 -32.37319 172.36769 41131 ft 511 kts 158°
2026-05-07 13:54 -32.43517 172.40896 41138 ft 512 kts 157°
2026-05-07 13:54 -32.49734 172.45042 41140 ft 512 kts 157°
2026-05-07 13:55 -32.55943 172.49191 41136 ft 512 kts 157°
2026-05-07 13:55 -32.62140 172.53339 41133 ft 512 kts 157°
2026-05-07 13:56 -32.68349 172.57500 41143 ft 512 kts 156°
2026-05-07 13:56 -32.74508 172.61635 41134 ft 511 kts 156°
2026-05-07 13:57 -32.80693 172.65795 41134 ft 511 kts 156°
2026-05-07 13:57 -32.86886 172.69965 41136 ft 511 kts 156°
2026-05-07 13:58 -32.93067 172.74135 41139 ft 511 kts 156°
2026-05-07 13:58 -32.99257 172.78317 41141 ft 511 kts 156°
2026-05-07 13:59 -33.05435 172.82498 41137 ft 511 kts 156°
2026-05-07 13:59 -33.11581 172.86664 41141 ft 511 kts 156°
2026-05-07 14:00 -33.17777 172.90872 41137 ft 511 kts 156°
2026-05-07 14:00 -33.23952 172.95071 41136 ft 511 kts 156°
2026-05-07 14:01 -33.30134 172.99283 41137 ft 511 kts 156°
2026-05-07 14:01 -33.36305 173.03493 41141 ft 511 kts 156°
2026-05-07 14:02 -33.42444 173.07689 41142 ft 511 kts 156°
2026-05-07 14:02 -33.48613 173.11912 41144 ft 511 kts 156°
2026-05-07 14:03 -33.54798 173.16152 41145 ft 512 kts 156°
2026-05-07 14:03 -33.60979 173.20398 41148 ft 512 kts 155°
2026-05-07 14:04 -33.67166 173.24656 41144 ft 512 kts 155°
2026-05-07 14:04 -33.73352 173.28920 41145 ft 512 kts 155°
2026-05-07 14:05 -33.79527 173.33182 41164 ft 512 kts 155°
2026-05-07 14:05 -33.85685 173.37439 41157 ft 514 kts 155°
2026-05-07 14:06 -33.92107 173.41028 41150 ft 502 kts 169°
2026-05-07 14:06 -33.98885 173.42064 41145 ft 485 kts 188°
2026-05-07 14:07 -34.05361 173.40442 41156 ft 469 kts 207°
2026-05-07 14:07 -34.10900 173.36545 41145 ft 457 kts 224°
2026-05-07 14:08 -34.15115 173.30923 41146 ft 449 kts 240°
2026-05-07 14:08 -34.17691 173.24201 41146 ft 444 kts 255°
2026-05-07 14:09 -34.18508 173.16846 41143 ft 443 kts 271°
2026-05-07 14:09 -34.17549 173.09503 41138 ft 445 kts 285°
2026-05-07 14:10 -34.14817 173.02792 41141 ft 451 kts 302°
2026-05-07 14:10 -34.10409 172.97378 41138 ft 462 kts 319°
2026-05-07 14:11 -34.04870 172.93301 41138 ft 468 kts 326°
2026-05-07 14:11 -33.99147 172.89536 41134 ft 469 kts 326°
2026-05-07 14:12 -33.93277 172.86049 41134 ft 476 kts 334°
2026-05-07 14:12 -33.86729 172.84341 41129 ft 491 kts 351°
2026-05-07 14:13 -33.79850 172.85387 41126 ft 509 kts 12°
2026-05-07 14:13 -33.73475 172.89361 41113 ft 526 kts 33°
2026-05-07 14:13 -33.70793 172.92388 41135 ft 535 kts 45°
2026-05-07 14:14 -33.68581 172.95955 41133 ft 540 kts 56°
2026-05-07 14:14 -33.65757 173.04348 41135 ft 547 kts 78°
2026-05-07 14:14 -33.65324 173.08866 41138 ft 547 kts 90°
2026-05-07 14:15 -33.65597 173.13424 41135 ft 545 kts 102°
2026-05-07 14:15 -33.66556 173.17788 41143 ft 540 kts 113°
2026-05-07 14:15 -33.68150 173.21843 41141 ft 534 kts 124°
2026-05-07 14:15 -33.70299 173.25440 41145 ft 526 kts 136°
2026-05-07 14:16 -33.72909 173.28477 41145 ft 518 kts 147°
2026-05-07 14:16 -33.78916 173.33124 41157 ft 512 kts 155°
2026-05-07 14:17 -33.85110 173.37232 41151 ft 513 kts 157°
2026-05-07 14:17 -33.91553 173.40772 41141 ft 503 kts 168°
2026-05-07 14:18 -33.98327 173.42040 41150 ft 486 kts 187°
2026-05-07 14:18 -34.04848 173.40666 41151 ft 470 kts 205°
2026-05-07 14:19 -34.10480 173.36939 41140 ft 458 kts 223°
2026-05-07 14:19 -34.14792 173.31477 41145 ft 449 kts 238°
2026-05-07 14:20 -34.17544 173.24792 41153 ft 444 kts 254°
2026-05-07 14:20 -34.18520 173.17465 41137 ft 443 kts 269°
2026-05-07 14:21 -34.17709 173.10101 41133 ft 444 kts 284°
2026-05-07 14:21 -34.15155 173.03346 41136 ft 450 kts 301°
2026-05-07 14:22 -34.10843 172.97780 41131 ft 461 kts 317°
2026-05-07 14:22 -34.05349 172.93641 41130 ft 468 kts 325°
2026-05-07 14:23 -33.99637 172.89862 41129 ft 469 kts 326°
2026-05-07 14:23 -33.93842 172.86311 41136 ft 474 kts 332°
2026-05-07 14:24 -33.87353 172.84392 41124 ft 490 kts 349°
2026-05-07 14:24 -33.80481 172.85163 41135 ft 508 kts 10°
2026-05-07 14:25 -33.74015 172.88873 41111 ft 525 kts 31°
2026-05-07 14:25 -33.71241 172.91789 41126 ft 534 kts 43°
2026-05-07 14:25 -33.68924 172.95293 41130 ft 540 kts 54°
2026-05-07 14:25 -33.67109 172.99267 41132 ft 545 kts 65°
2026-05-07 14:26 -33.65889 173.03584 41135 ft 547 kts 76°
2026-05-07 14:26 -33.65338 173.08107 41127 ft 548 kts 88°
2026-05-07 14:26 -33.65494 173.12653 41134 ft 546 kts 99°
2026-05-07 14:26 -33.66332 173.17021 41133 ft 542 kts 111°
2026-05-07 14:27 -33.67821 173.21151 41132 ft 536 kts 122°
2026-05-07 14:27 -33.69871 173.24829 41135 ft 528 kts 134°
2026-05-07 14:27 -33.72406 173.27974 41129 ft 520 kts 144°
2026-05-07 14:28 -33.78356 173.32739 41156 ft 512 kts 155°
2026-05-07 14:28 -33.84592 173.36896 41138 ft 512 kts 157°
2026-05-07 14:29 -33.90989 173.40548 41144 ft 504 kts 167°
2026-05-07 14:29 -33.97716 173.42034 41151 ft 488 kts 185°
2026-05-07 14:30 -34.04284 173.40894 41155 ft 471 kts 204°
2026-05-07 14:30 -34.10011 173.37357 41138 ft 459 kts 221°
2026-05-07 14:31 -34.14476 173.31990 41137 ft 450 kts 237°
2026-05-07 14:31 -34.17375 173.25377 41135 ft 444 kts 253°
2026-05-07 14:32 -34.18505 173.18095 41133 ft 442 kts 268°
2026-05-07 14:32 -34.17863 173.10763 41131 ft 443 kts 282°
2026-05-07 14:33 -34.15473 173.03887 41134 ft 449 kts 299°
2026-05-07 14:33 -34.11299 172.98215 41125 ft 460 kts 316°
2026-05-07 14:34 -34.05863 172.93996 41127 ft 467 kts 325°
2026-05-07 14:34 -34.00163 172.90205 41126 ft 468 kts 325°
2026-05-07 14:35 -33.94369 172.86581 41126 ft 473 kts 331°
2026-05-07 14:35 -33.87952 172.84461 41121 ft 488 kts 347°
2026-05-07 14:36 -33.81072 172.84970 41120 ft 507 kts
2026-05-07 14:36 -33.74571 172.88405 41107 ft 524 kts 29°
2026-05-07 14:36 -33.71719 172.91195 41130 ft 534 kts 41°
2026-05-07 14:37 -33.69304 172.94617 41130 ft 540 kts 52°
2026-05-07 14:37 -33.66056 173.02781 41123 ft 548 kts 74°
2026-05-07 14:37 -33.65379 173.07287 41123 ft 549 kts 86°
2026-05-07 14:38 -33.65409 173.11848 41126 ft 548 kts 97°
2026-05-07 14:38 -33.66144 173.16319 41130 ft 544 kts 109°
2026-05-07 14:38 -33.67536 173.20515 41125 ft 538 kts 121°
2026-05-07 14:38 -33.69510 173.24287 41129 ft 530 kts 132°
2026-05-07 14:39 -33.71943 173.27485 41130 ft 521 kts 143°
2026-05-07 14:39 -33.74794 173.30122 41138 ft 514 kts 153°
2026-05-07 14:39 -33.80931 173.34488 41147 ft 512 kts 156°
2026-05-07 14:40 -33.87189 173.38577 41125 ft 511 kts 158°
2026-05-07 14:40 -33.92631 173.41153 41131 ft 500 kts 171°
2026-05-07 14:41 -33.97135 173.42011 41134 ft 489 kts 184°
2026-05-07 14:41 -33.99417 173.41996 41132 ft 483 kts 190°
2026-05-07 14:41 -34.05828 173.40217 41141 ft 468 kts 208°
2026-05-07 14:42 -34.11269 173.36147 41131 ft 456 kts 225°
2026-05-07 14:42 -34.15359 173.30427 41133 ft 448 kts 241°
2026-05-07 14:43 -34.17823 173.23642 41127 ft 443 kts 256°
2026-05-07 14:43 -34.18510 173.16279 41130 ft 442 kts 272°
2026-05-07 14:44 -34.17453 173.08980 41126 ft 444 kts 286°
2026-05-07 14:44 -34.14625 173.02371 41128 ft 451 kts 303°
2026-05-07 14:45 -34.10064 172.97057 41120 ft 462 kts 320°
2026-05-07 14:45 -34.04490 172.93076 41120 ft 468 kts 326°
2026-05-07 14:46 -33.98781 172.89308 41118 ft 468 kts 325°
2026-05-07 14:46 -33.92917 172.85884 41125 ft 476 kts 334°
2026-05-07 14:47 -33.86336 172.84313 41123 ft 492 kts 352°
2026-05-07 14:47 -33.79455 172.85526 41120 ft 511 kts 13°
2026-05-07 14:48 -33.76164 172.87245 41131 ft 520 kts 24°
2026-05-07 14:48 -33.73125 172.89673 41105 ft 529 kts 35°
2026-05-07 14:48 -33.70486 172.92788 41117 ft 538 kts 46°
2026-05-07 14:48 -33.68301 172.96464 41127 ft 544 kts 57°
2026-05-07 14:49 -33.66655 173.00569 41115 ft 548 kts 68°
2026-05-07 14:49 -33.65635 173.04968 41125 ft 550 kts 79°
2026-05-07 14:49 -33.65303 173.09539 41130 ft 550 kts 91°
2026-05-07 14:49 -33.65687 173.14094 41130 ft 547 kts 103°
2026-05-07 14:50 -33.66757 173.18442 41128 ft 542 kts 115°
2026-05-07 14:50 -33.68421 173.22400 41129 ft 534 kts 126°
2026-05-07 14:50 -33.70646 173.25928 41130 ft 526 kts 137°
2026-05-07 14:50 -33.73308 173.28865 41138 ft 517 kts 148°
2026-05-07 14:51 -33.79354 173.33428 41145 ft 511 kts 156°
2026-05-07 14:51 -33.85593 173.37549 41123 ft 512 kts 157°
2026-05-07 14:52 -33.92051 173.40955 41130 ft 501 kts 170°
2026-05-07 14:52 -33.98833 173.42027 41126 ft 484 kts 188°
2026-05-07 14:53 -34.05299 173.40470 41138 ft 469 kts 207°
2026-05-07 14:53 -34.10838 173.36571 41132 ft 457 kts 224°
2026-05-07 14:54 -34.15042 173.31006 41130 ft 449 kts 239°
2026-05-07 14:54 -34.17678 173.24269 41127 ft 443 kts 255°
2026-05-07 14:55 -34.18528 173.16932 41127 ft 442 kts 270°
2026-05-07 14:55 -34.17624 173.09609 41124 ft 443 kts 284°
2026-05-07 14:56 -34.14948 173.02888 41124 ft 450 kts 302°
2026-05-07 14:56 -34.10529 172.97468 41119 ft 461 kts 319°
2026-05-07 14:57 -34.05006 172.93416 41118 ft 467 kts 325°
2026-05-07 14:57 -33.99334 172.89662 41114 ft 468 kts 325°
2026-05-07 14:58 -33.93476 172.86154 41113 ft 475 kts 333°
2026-05-07 14:58 -33.86968 172.84355 41115 ft 490 kts 350°
2026-05-07 14:59 -33.80080 172.85288 41114 ft 510 kts 11°
2026-05-07 14:59 -33.73666 172.89171 41096 ft 528 kts 32°
2026-05-07 15:00 -33.70931 172.92173 41122 ft 537 kts 44°
2026-05-07 15:00 -33.68650 172.95760 41119 ft 543 kts 55°
2026-05-07 15:00 -33.66902 172.99788 41113 ft 548 kts 66°
2026-05-07 15:00 -33.65760 173.04165 41124 ft 551 kts 77°
2026-05-07 15:01 -33.65303 173.08667 41116 ft 551 kts 89°
2026-05-07 15:01 -33.65560 173.13293 41124 ft 549 kts 101°
2026-05-07 15:01 -33.66504 173.17652 41121 ft 544 kts 113°
2026-05-07 15:01 -33.68087 173.21744 41122 ft 536 kts 124°
2026-05-07 15:02 -33.70227 173.25366 41129 ft 527 kts 135°
2026-05-07 15:02 -33.72822 173.28408 41124 ft 519 kts 146°
2026-05-07 15:02 -33.78826 173.33069 41136 ft 512 kts 156°
2026-05-07 15:03 -33.85059 173.37201 41124 ft 512 kts 157°
2026-05-07 15:03 -33.91481 173.40745 41124 ft 503 kts 168°
2026-05-07 15:04 -33.98255 173.42042 41137 ft 486 kts 187°
2026-05-07 15:04 -34.04772 173.40705 41148 ft 470 kts 205°
2026-05-07 15:05 -34.10397 173.36988 41127 ft 458 kts 223°
2026-05-07 15:05 -34.14728 173.31554 41127 ft 449 kts 238°
2026-05-07 15:06 -34.17521 173.24891 41123 ft 443 kts 254°
2026-05-07 15:06 -34.18530 173.17598 41125 ft 442 kts 269°
2026-05-07 15:07 -34.17779 173.10256 41118 ft 442 kts 283°
2026-05-07 15:07 -34.15299 173.03484 41119 ft 448 kts 300°
2026-05-07 15:08 -34.11024 172.97915 41116 ft 459 kts 317°
2026-05-07 15:08 -34.05566 172.93779 41116 ft 467 kts 325°
2026-05-07 15:09 -33.99862 172.90003 41106 ft 467 kts 325°
2026-05-07 15:09 -33.94058 172.86431 41116 ft 473 kts 332°
2026-05-07 15:10 -33.87602 172.84428 41110 ft 489 kts 348°
2026-05-07 15:10 -33.80775 172.85056 41109 ft 508 kts
2026-05-07 15:11 -33.77413 172.86486 41117 ft 517 kts 19°
2026-05-07 15:11 -33.74268 172.88635 41089 ft 526 kts 30°
2026-05-07 15:11 -33.71450 172.91504 41115 ft 536 kts 42°
2026-05-07 15:11 -33.69074 172.94990 41117 ft 543 kts 53°
2026-05-07 15:12 -33.67206 172.98952 41120 ft 548 kts 64°
2026-05-07 15:12 -33.65935 173.03276 41114 ft 551 kts 75°
2026-05-07 15:12 -33.65338 173.07820 41114 ft 552 kts 87°
2026-05-07 15:12 -33.65365 173.11338 41122 ft 551 kts 96°
2026-05-07 15:13 -33.65992 173.15705 41111 ft 547 kts 108°
2026-05-07 15:13 -33.67282 173.19912 41120 ft 541 kts 119°
2026-05-07 15:13 -33.69200 173.23804 41113 ft 532 kts 130°
2026-05-07 15:13 -33.71577 173.27083 41121 ft 523 kts 141°
2026-05-07 15:14 -33.74389 173.29803 41125 ft 515 kts 152°
2026-05-07 15:14 -33.77408 173.32076 41143 ft 512 kts 155°
2026-05-07 15:14 -33.83632 173.36267 41122 ft 512 kts 152°
2026-05-07 15:15 -33.89889 173.40057 40923 ft 493 kts 165°
2026-05-07 15:15 -33.93173 173.40942 41025 ft 480 kts 180°
2026-05-07 15:15 -33.96479 173.40954 41113 ft 472 kts 192°
2026-05-07 15:16 -33.99668 173.40175 41090 ft 463 kts 203°
2026-05-07 15:16 -34.02816 173.39253 41134 ft 471 kts 196°
2026-05-07 15:16 -34.08881 173.36520 41126 ft 462 kts 219°
2026-05-07 15:17 -34.11325 173.34071 41123 ft 453 kts 231°
2026-05-07 15:17 -34.13223 173.31076 41130 ft 447 kts 241°
2026-05-07 15:17 -34.15141 173.28119 41126 ft 454 kts 226°
2026-05-07 15:17 -34.17742 173.25893 41122 ft 464 kts 212°
2026-05-07 15:18 -34.20827 173.24600 41122 ft 477 kts 196°
2026-05-07 15:18 -34.24180 173.24359 41122 ft 490 kts 181°
2026-05-07 15:18 -34.27550 173.25213 41120 ft 504 kts 166°
2026-05-07 15:18 -34.30721 173.27138 41133 ft 517 kts 150°
2026-05-07 15:19 -34.33455 173.30025 41124 ft 527 kts 135°
2026-05-07 15:19 -34.35832 173.33432 41119 ft 530 kts 133°
2026-05-07 15:19 -34.40687 173.40135 41120 ft 526 kts 144°
2026-05-07 15:20 -34.43642 173.42554 41131 ft 515 kts 158°
2026-05-07 15:20 -34.46938 173.44267 41124 ft 507 kts 167°
2026-05-07 15:20 -34.53687 173.46297 41124 ft 500 kts 175°
2026-05-07 15:21 -34.60552 173.47520 41128 ft 498 kts 179°
2026-05-07 15:21 -34.67444 173.48475 41127 ft 498 kts 180°
2026-05-07 15:22 -34.72025 173.49058 41127 ft 497 kts 180°
2026-05-07 15:22 -34.78920 173.49910 41125 ft 497 kts 180°
2026-05-07 15:23 -34.85805 173.50750 41127 ft 498 kts 180°
2026-05-07 15:23 -34.92707 173.51590 41124 ft 498 kts 180°
2026-05-07 15:24 -34.99602 173.52429 41124 ft 498 kts 180°
2026-05-07 15:24 -35.06496 173.53269 41124 ft 498 kts 180°
2026-05-07 15:25 -35.13404 173.54111 41125 ft 499 kts 180°
2026-05-07 15:25 -35.20262 173.54954 40395 ft 493 kts 180°
2026-05-07 15:26 -35.23686 173.55372 39609 ft 495 kts 180°
2026-05-07 15:26 -35.27074 173.55786 38905 ft 494 kts 180°
2026-05-07 15:26 -35.30488 173.56206 38043 ft 494 kts 181°
2026-05-07 15:26 -35.33917 173.56626 37093 ft 496 kts 181°
2026-05-07 15:27 -35.37368 173.57048 36010 ft 500 kts 181°
2026-05-07 15:27 -35.40836 173.57473 34954 ft 504 kts 181°
2026-05-07 15:27 -35.44337 173.57903 33883 ft 506 kts 181°
2026-05-07 15:27 -35.47858 173.58335 32635 ft 510 kts 181°
2026-05-07 15:28 -35.51410 173.58771 31331 ft 515 kts 180°
2026-05-07 15:28 -35.54992 173.59210 29970 ft 522 kts 180°
2026-05-07 15:28 -35.58607 173.59658 28977 ft 519 kts 179°
2026-05-07 15:28 -35.62190 173.60105 28077 ft 515 kts 179°
2026-05-07 15:29 -35.65724 173.60546 27431 ft 508 kts 179°
2026-05-07 15:29 -35.69232 173.60981 27158 ft 506 kts 178°
2026-05-07 15:29 -35.72739 173.61416 27113 ft 506 kts 178°
2026-05-07 15:29 -35.76247 173.61850 27116 ft 506 kts 178°
2026-05-07 15:30 -35.79741 173.62284 27117 ft 506 kts 178°
2026-05-07 15:30 -35.83244 173.62719 27115 ft 505 kts 178°
2026-05-07 15:30 -35.86734 173.63153 27115 ft 505 kts 178°
2026-05-07 15:30 -35.90244 173.63590 27044 ft 503 kts 178°
2026-05-07 15:31 -35.93695 173.64023 26389 ft 495 kts 178°
2026-05-07 15:31 -35.97057 173.64443 25811 ft 488 kts 178°
2026-05-07 15:31 -35.99331 173.64728 25278 ft 486 kts 178°
2026-05-07 15:31 -36.03773 173.65292 24288 ft 481 kts 176°
2026-05-07 15:32 -36.07080 173.65722 23564 ft 477 kts 176°
2026-05-07 15:32 -36.10368 173.66148 22720 ft 473 kts 176°
2026-05-07 15:32 -36.12583 173.66433 22146 ft 470 kts 176°
2026-05-07 15:32 -36.15782 173.66844 21361 ft 465 kts 176°
2026-05-07 15:33 -36.18990 173.67260 20587 ft 461 kts 175°
2026-05-07 15:33 -36.22165 173.67673 19833 ft 456 kts 175°
2026-05-07 15:33 -36.25297 173.68076 19094 ft 451 kts 175°
2026-05-07 15:33 -36.28420 173.68474 18359 ft 447 kts 175°
2026-05-07 15:34 -36.31502 173.68868 17529 ft 442 kts 175°
2026-05-07 15:34 -36.34541 173.69260 16741 ft 437 kts 175°
2026-05-07 15:34 -36.37554 173.69651 15998 ft 432 kts 174°
2026-05-07 15:34 -36.40503 173.69883 15595 ft 417 kts 175°
2026-05-07 15:35 -36.43230 173.70846 15330 ft 404 kts 151°
2026-05-07 15:35 -36.45368 173.72978 15077 ft 388 kts 127°
2026-05-07 15:35 -36.46733 173.75768 14734 ft 373 kts 114°
2026-05-07 15:35 -36.48029 173.78535 14277 ft 368 kts 120°
2026-05-07 15:36 -36.49516 173.81090 13819 ft 362 kts 125°
2026-05-07 15:36 -36.51122 173.83471 13285 ft 357 kts 128°
2026-05-07 15:36 -36.52781 173.85730 12739 ft 353 kts 130°
2026-05-07 15:36 -36.54470 173.87925 12177 ft 349 kts 131°
2026-05-07 15:37 -36.56160 173.90059 11618 ft 345 kts 132°
2026-05-07 15:37 -36.57857 173.92155 11097 ft 342 kts 132°
2026-05-07 15:37 -36.59541 173.94229 10561 ft 339 kts 132°
2026-05-07 15:37 -36.61187 173.96251 10086 ft 334 kts 132°
2026-05-07 15:38 -36.62820 173.98244 9796 ft 322 kts 133°
2026-05-07 15:38 -36.64395 174.00161 9430 ft 314 kts 133°
2026-05-07 15:38 -36.65946 174.02044 8983 ft 309 kts 133°
2026-05-07 15:38 -36.67492 174.03895 8505 ft 306 kts 135°
2026-05-07 15:39 -36.69030 174.05718 8071 ft 304 kts 135°
2026-05-07 15:39 -36.70544 174.07519 7678 ft 300 kts 135°
2026-05-07 15:39 -36.72037 174.09312 7277 ft 296 kts 134°
2026-05-07 15:39 -36.73505 174.11087 7030 ft 292 kts 134°
2026-05-07 15:40 -36.74966 174.12863 6985 ft 294 kts 134°
2026-05-07 15:40 -36.76431 174.14654 6987 ft 295 kts 133°
2026-05-07 15:40 -36.77879 174.16449 6984 ft 293 kts 133°
2026-05-07 15:40 -36.79325 174.18249 6986 ft 293 kts 133°
2026-05-07 15:41 -36.80768 174.20038 6981 ft 293 kts 133°
2026-05-07 15:41 -36.82220 174.21832 6982 ft 293 kts 133°
2026-05-07 15:41 -36.83654 174.23602 6837 ft 284 kts 133°
2026-05-07 15:41 -36.85049 174.25324 6635 ft 280 kts 133°
2026-05-07 15:42 -36.86413 174.27015 6419 ft 280 kts 133°
2026-05-07 15:42 -36.87766 174.28692 6255 ft 268 kts 133°
2026-05-07 15:42 -36.89078 174.30318 6057 ft 258 kts 133°
2026-05-07 15:42 -36.90316 174.31845 5900 ft 249 kts 134°
2026-05-07 15:43 -36.91538 174.33327 5730 ft 240 kts 134°
2026-05-07 15:43 -36.92712 174.34752 5610 ft 230 kts 134°
2026-05-07 15:43 -36.93825 174.36113 5495 ft 218 kts 133°
2026-05-07 15:43 -36.94882 174.37413 5380 ft 207 kts 133°
2026-05-07 15:44 -36.95877 174.38639 5253 ft 195 kts 133°
2026-05-07 15:44 -36.96816 174.39798 5126 ft 186 kts 133°
2026-05-07 15:44 -36.97730 174.40930 4955 ft 190 kts 132°
2026-05-07 15:44 -36.98685 174.42122 4868 ft 200 kts 132°
2026-05-07 15:45 -36.99672 174.43347 4804 ft 200 kts 132°
2026-05-07 15:45 -37.00655 174.44566 4486 ft 200 kts 132°
2026-05-07 15:45 -37.01647 174.45796 4121 ft 201 kts 131°
2026-05-07 15:45 -37.02638 174.47030 3929 ft 200 kts 130°
2026-05-07 15:46 -37.04526 174.49369 3674 ft 179 kts 131°
2026-05-07 15:46 -37.05371 174.50408 3529 ft 162 kts 130°
2026-05-07 15:46 -37.06138 174.51355 3396 ft 149 kts 129°
2026-05-07 15:47 -37.06850 174.52258 3371 ft 148 kts 127°
2026-05-07 15:47 -37.07422 174.53311 3343 ft 144 kts 106°
2026-05-07 15:47 -37.07632 174.54485 3313 ft 135 kts 80°
2026-05-07 15:47 -37.07488 174.55614 3285 ft 130 kts 63°
2026-05-07 15:48 -37.07217 174.56672 3266 ft 125 kts 62°
2026-05-07 15:48 -37.06947 174.57713 3195 ft 126 kts 62°
2026-05-07 15:48 -37.06664 174.58766 3050 ft 128 kts 62°
2026-05-07 15:48 -37.06378 174.59812 2866 ft 126 kts 60°
2026-05-07 15:49 -37.06096 174.60833 2700 ft 125 kts 60°
2026-05-07 15:49 -37.05816 174.61856 2530 ft 125 kts 62°
2026-05-07 15:49 -37.05533 174.62887 2368 ft 125 kts 61°
2026-05-07 15:49 -37.05250 174.63911 2206 ft 123 kts 61°
2026-05-07 15:50 -37.04977 174.64909 2049 ft 121 kts 62°
2026-05-07 15:50 -37.04704 174.65905 1881 ft 121 kts 61°
2026-05-07 15:50 -37.04426 174.66907 1702 ft 122 kts 62°
2026-05-07 15:50 -37.04153 174.67903 1539 ft 120 kts 63°
2026-05-07 15:51 -37.03884 174.68879 1372 ft 120 kts 63°
2026-05-07 15:51 -37.03610 174.69874 1220 ft 119 kts 64°
2026-05-07 15:51 -37.03346 174.70836 1061 ft 119 kts 64°
2026-05-07 15:51 -37.03072 174.71827 916 ft 121 kts 64°
2026-05-07 15:52 -37.02799 174.72817 744 ft 121 kts 66°
2026-05-07 15:52 -37.02530 174.73807 608 ft 119 kts 67°
2026-05-07 15:52 -37.02266 174.74804 461 ft 122 kts 67°
2026-05-07 15:52 -37.01985 174.75800 291 ft 121 kts 68°
2026-05-07 15:53 -37.01713 174.76803 111 ft 122 kts 66°
2026-05-07 15:53 -37.01433 174.77779 56 ft 110 kts 73°
2026-05-07 15:53 -37.01206 174.78638 136 ft 111 kts 66°
2026-05-07 15:53 -37.00885 174.79737 717 ft 158 kts 70°
2026-05-07 15:54 -37.00495 174.81186 1667 ft 193 kts 66°
2026-05-07 15:54 -37.00017 174.82916 2742 ft 223 kts 65°
2026-05-07 15:54 -36.99492 174.84766 3347 ft 233 kts 65°
2026-05-07 15:54 -36.98802 174.86590 3447 ft 230 kts 50°
2026-05-07 15:55 -36.97658 174.87968 3510 ft 228 kts 34°
2026-05-07 15:55 -36.96274 174.88863 3513 ft 224 kts 12°
2026-05-07 15:55 -36.94734 174.89121 3473 ft 224 kts
2026-05-07 15:55 -36.93181 174.89085 3388 ft 224 kts 353°
2026-05-07 15:56 -36.91647 174.88782 3363 ft 223 kts 347°
2026-05-07 15:56 -36.90224 174.88066 3360 ft 225 kts 332°
2026-05-07 15:56 -36.89125 174.86662 3374 ft 232 kts 303°
2026-05-07 15:56 -36.88731 174.84685 3375 ft 242 kts 276°
2026-05-07 15:57 -36.88831 174.82572 3373 ft 245 kts 269°
2026-05-07 15:57 -36.89024 174.80456 3373 ft 246 kts 268°
2026-05-07 15:57 -36.89232 174.78328 3370 ft 247 kts 268°
2026-05-07 15:57 -36.89434 174.76231 3373 ft 246 kts 268°
2026-05-07 15:58 -36.89634 174.74161 3373 ft 245 kts 268°
2026-05-07 15:58 -36.89834 174.72039 3371 ft 246 kts 268°
2026-05-07 15:58 -36.90027 174.69916 3372 ft 246 kts 269°
2026-05-07 15:58 -36.90226 174.67797 3374 ft 246 kts 268°
2026-05-07 15:59 -36.90423 174.65666 3369 ft 246 kts 268°
2026-05-07 15:59 -36.90636 174.63544 3366 ft 247 kts 267°
2026-05-07 15:59 -36.90928 174.61429 3369 ft 247 kts 267°
2026-05-07 15:59 -36.91149 174.59310 3372 ft 245 kts 268°
2026-05-07 16:00 -36.91357 174.57226 3369 ft 245 kts 268°
2026-05-07 16:00 -36.91575 174.55112 3362 ft 246 kts 268°
2026-05-07 16:00 -36.91791 174.52985 3362 ft 247 kts 268°
2026-05-07 16:00 -36.92138 174.50881 3356 ft 252 kts 253°
2026-05-07 16:01 -36.93076 174.49010 3367 ft 256 kts 235°
2026-05-07 16:01 -36.94240 174.47308 3316 ft 259 kts 232°
2026-05-07 16:01 -36.95438 174.45634 3028 ft 258 kts 232°
2026-05-07 16:01 -36.96636 174.43972 2982 ft 258 kts 232°
2026-05-07 16:02 -36.97829 174.42325 2990 ft 258 kts 232°
2026-05-07 16:02 -36.99047 174.40640 2991 ft 259 kts 232°
2026-05-07 16:02 -37.00251 174.39005 2988 ft 259 kts 229°
2026-05-07 16:02 -37.01774 174.37771 2992 ft 267 kts 201°
2026-05-07 16:03 -37.03604 174.37533 2989 ft 268 kts 172°
2026-05-07 16:03 -37.05341 174.38317 2991 ft 265 kts 148°
2026-05-07 16:03 -37.06915 174.39509 2988 ft 266 kts 144°
2026-05-07 16:03 -37.08473 174.40760 2986 ft 266 kts 144°
2026-05-07 16:04 -37.09968 174.42116 2984 ft 263 kts 132°
2026-05-07 16:04 -37.10894 174.43976 3004 ft 253 kts 104°
2026-05-07 16:04 -37.11362 174.46086 2985 ft 249 kts 93°
2026-05-07 16:04 -37.11337 174.48211 2991 ft 242 kts 75°
2026-05-07 16:05 -37.10960 174.50248 2986 ft 238 kts 66°
2026-05-07 16:05 -37.10392 174.52184 2989 ft 235 kts 61°
2026-05-07 16:05 -37.09601 174.53947 2994 ft 231 kts 51°
2026-05-07 16:05 -37.08701 174.55616 2993 ft 231 kts 50°
2026-05-07 16:06 -37.07795 174.57277 2988 ft 232 kts 51°
2026-05-07 16:06 -37.06887 174.58926 2970 ft 234 kts 51°
2026-05-07 16:06 -37.06157 174.60758 2754 ft 236 kts 63°
2026-05-07 16:06 -37.05618 174.62697 2428 ft 235 kts 66°
2026-05-07 16:07 -37.05076 174.64575 2086 ft 222 kts 65°
2026-05-07 16:07 -37.04590 174.66338 1806 ft 208 kts 66°
2026-05-07 16:07 -37.04137 174.67992 1529 ft 193 kts 65°
2026-05-07 16:07 -37.03719 174.69495 1294 ft 172 kts 65°
2026-05-07 16:08 -37.03353 174.70822 1055 ft 151 kts 65°
2026-05-07 16:08 -37.03031 174.71986 866 ft 133 kts 65°
2026-05-07 16:08 -37.02739 174.73041 710 ft 127 kts 66°
2026-05-07 16:08 -37.02460 174.74054 547 ft 122 kts 66°
2026-05-07 16:09 -37.02184 174.75055 388 ft 121 kts 68°
2026-05-07 16:09 -37.01925 174.76055 240 ft 122 kts 66°
2026-05-07 16:09 -37.01640 174.77048 85 ft 119 kts 67°
2026-05-07 16:09 -37.01381 174.77970 28 ft 103 kts 70°
2026-05-07 16:10 -37.01192 174.78669 29 ft 69 kts 71°
2026-05-07 16:10 -37.01063 174.79135 28 ft 45 kts 71°
2026-05-07 16:10 -37.01003 174.79354 27 ft 22 kts 71°
2026-05-07 16:10 -37.00932 174.79535 28 ft 26 kts 54°
2026-05-07 16:11 -37.00800 174.79704 31 ft 22 kts 32°
2026-05-07 16:11 -37.00681 174.79690 32 ft 17 kts 342°
2026-05-07 16:11 -37.00659 174.79574 31 ft 17 kts 252°
2026-05-07 16:11 -37.00711 174.79395 29 ft 20 kts 249°
2026-05-07 16:12 -37.00699 174.79311 28 ft 7 kts 327°
2026-05-07 16:12 -37.00663 174.79289 29 ft 0 kts 334°